ftp/pub/palmer/observations_modified/2017/November/AR171107_BASE.txt
Download
Sample DateTime Unit Id WS Avg 2min WD Avg 2min WGS 10min WGD 10min Air Temp Rel Humidity Dew Point Pyranometer Quantum Air Pressure Snow Level Rainfall PW Current Visibility CBase 1 CBase 2 CBase 3 Vert Vis
2017/11/07 00:00:00 BASE 1.06 286 1.54 299 -0.3 100 -0.3 23 48 1000.5 NA 0.0000 9999 1120 9970 0 0
2017/11/07 00:01:00 BASE 1.10 286 1.54 299 -0.3 100 -0.3 23 46 1000.5 NA 0.0000 9999 1150 9970 12530 0
2017/11/07 00:02:00 BASE 1.12 286 1.54 299 -0.3 100 -0.3 22 44 1000.4 NA 0.0000 9999 1150 10110 0 0
2017/11/07 00:03:00 BASE 0.59 286 1.54 299 -0.3 100 -0.3 21 43 1000.4 NA 0.0000 9999 1080 10140 0 0
2017/11/07 00:04:00 BASE 0.13 286 1.54 299 -0.3 100 -0.3 20 42 1000.4 NA 0.0000 9999 1120 10110 0 0
2017/11/07 00:05:00 BASE 0.05 286 1.49 298 -0.3 100 -0.3 20 40 1000.4 NA 0.0000 9999 1120 10110 0 0
2017/11/07 00:06:00 BASE 0.00 286 1.34 286 -0.3 100 -0.3 19 39 1000.4 NA 0.0000 9999 1150 10200 0 0
2017/11/07 00:07:00 BASE 0.00 286 1.34 286 -0.2 100 -0.2 18 37 1000.4 NA 0.0000 9999 1120 10240 0 0
2017/11/07 00:08:00 BASE 0.00 286 1.29 286 -0.2 100 -0.2 17 35 1000.4 NA 0.0000 9999 1150 10170 0 0
2017/11/07 00:09:00 BASE 0.00 286 1.29 286 -0.2 100 -0.2 16 33 1000.3 NA 0.0000 9999 1120 10170 0 0
2017/11/07 00:10:00 BASE 0.00 286 1.29 286 -0.3 100 -0.3 15 32 1000.3 NA 0.0000 9999 1120 10140 0 0
2017/11/07 00:11:00 BASE 0.00 286 1.18 286 -0.3 100 -0.3 14 30 1000.3 NA 0.0000 9999 1120 10070 0 0
2017/11/07 00:12:00 BASE 0.00 260 1.08 286 -0.3 100 -0.3 13 29 1000.3 NA 0.0000 9999 1050 10110 0 0
2017/11/07 00:13:00 BASE 0.00 147 1.08 286 -0.3 100 -0.3 12 28 1000.3 NA 0.0000 9999 1050 10170 0 0
2017/11/07 00:14:00 BASE 0.00 140 M M -0.3 100 -0.3 12 26 1000.3 NA 0.0000 9999 1080 10110 0 0
2017/11/07 00:15:00 BASE 0.00 140 M M -0.3 100 -0.3 11 25 1000.3 NA 0.0000 9999 1080 10040 0 0
2017/11/07 00:16:00 BASE 0.00 140 M M -0.3 100 -0.3 10 24 1000.3 NA 0.0000 9999 10170 0 0 0
2017/11/07 00:17:00 BASE 0.00 140 M M -0.3 100 -0.3 10 23 1000.2 NA 0.0000 9999 10170 0 0 0
2017/11/07 00:18:00 BASE 0.00 153 M M -0.3 100 -0.3 9 22 1000.2 NA 0.0000 9999 10200 0 0 0
2017/11/07 00:19:00 BASE 0.00 166 M M -0.3 100 -0.3 9 21 1000.2 NA 0.0000 9999 1150 10300 0 0
2017/11/07 00:20:00 BASE 0.54 166 1.18 166 -0.3 100 -0.3 8 20 1000.2 NA 0.0000 9999 1150 10170 0 0
2017/11/07 00:21:00 BASE 1.02 161 1.18 166 -0.3 100 -0.3 8 19 1000.2 NA 0.0000 9999 1150 10140 0 0
2017/11/07 00:22:00 BASE 0.52 157 1.18 166 -0.3 100 -0.3 7 18 1000.2 NA 0.0000 9999 1180 10300 0 0
2017/11/07 00:23:00 BASE 0.37 156 1.23 156 -0.3 100 -0.3 7 17 1000.2 NA 0.0000 9999 1210 10300 0 0
2017/11/07 00:24:00 BASE 0.85 159 1.23 157 -0.2 100 -0.2 7 16 1000.1 NA 0.0000 9999 10370 0 0 0
2017/11/07 00:25:00 BASE 0.82 163 1.29 164 -0.2 100 -0.2 6 16 1000.1 NA 0.0000 9999 10430 0 0 0
2017/11/07 00:26:00 BASE 0.47 164 1.29 164 -0.3 100 -0.3 6 15 1000.1 NA 0.0000 9999 10200 0 0 0
2017/11/07 00:27:00 BASE 0.44 164 1.29 164 -0.3 100 -0.3 5 14 1000.1 NA 0.0000 9999 10110 0 0 0
2017/11/07 00:28:00 BASE 0.65 164 1.29 164 -0.3 100 -0.3 5 13 1000.1 NA 0.0000 9999 10110 0 0 0
2017/11/07 00:29:00 BASE 0.96 164 1.29 164 -0.3 100 -0.3 5 13 1000.1 NA 0.0000 9999 10240 0 0 0
2017/11/07 00:30:00 BASE 1.19 165 1.34 164 -0.3 100 -0.3 4 12 1000.1 NA 0.0000 9999 10300 0 0 0
2017/11/07 00:31:00 BASE 1.27 171 1.44 175 -0.3 100 -0.3 4 11 1000.1 NA 0.0000 9999 10430 0 0 0
2017/11/07 00:32:00 BASE 1.33 175 1.44 178 -0.3 100 -0.3 4 11 1000.1 NA 0.0000 9999 10470 0 0 0
2017/11/07 00:33:00 BASE 1.32 171 1.44 178 -0.3 100 -0.3 4 10 1000.1 NA 0.0000 9999 10430 0 0 0
2017/11/07 00:34:00 BASE 1.22 162 1.44 178 -0.3 100 -0.3 3 10 1000.1 NA 0.0000 9999 10500 0 0 0
2017/11/07 00:35:00 BASE 0.99 157 1.44 178 -0.3 100 -0.3 3 9 1000.1 NA 0.0000 9999 1350 10300 0 0
2017/11/07 00:36:00 BASE 0.68 157 1.44 178 -0.3 100 -0.3 3 9 1000.1 NA 0.0000 9999 10140 0 0 0
2017/11/07 00:37:00 BASE 0.35 157 1.44 178 -0.3 100 -0.3 3 8 1000.1 NA 0.0000 9999 1310 10110 0 0
2017/11/07 00:38:00 BASE 0.17 158 1.44 178 -0.3 100 -0.3 3 8 1000.1 NA 0.0000 9999 1280 10270 0 0
2017/11/07 00:39:00 BASE 0.58 165 1.44 178 -0.3 100 -0.3 3 7 1000.1 NA 0.0000 9999 1280 10400 0 0
2017/11/07 00:40:00 BASE 0.49 170 1.44 178 -0.3 100 -0.3 2 7 1000.1 NA 0.0000 9999 10340 0 0 0
2017/11/07 00:41:00 BASE 0.09 170 1.44 178 -0.3 100 -0.3 2 6 1000.1 NA 0.0000 9999 10340 0 0 0
2017/11/07 00:42:00 BASE 0.09 171 1.39 174 -0.3 100 -0.3 2 6 1000.1 NA 0.0000 9999 10400 0 0 0
2017/11/07 00:43:00 BASE 0.00 176 1.29 170 -0.3 100 -0.3 2 6 1000.1 NA 0.0000 9999 10400 0 0 0
2017/11/07 00:44:00 BASE 0.00 179 1.29 170 -0.3 100 -0.3 2 6 1000.1 NA 0.0000 9999 10370 0 0 0
2017/11/07 00:45:00 BASE 0.00 173 1.29 170 -0.3 100 -0.3 2 5 1000.1 NA 0.0000 9999 10200 0 0 0
2017/11/07 00:46:00 BASE 0.00 165 1.29 170 -0.3 100 -0.3 2 5 1000.1 NA 0.0000 9999 10170 0 0 0
2017/11/07 00:47:00 BASE 0.00 162 1.29 170 -0.2 100 -0.2 2 5 1000.1 NA 0.0000 9999 10110 0 0 0
2017/11/07 00:48:00 BASE 0.00 166 1.29 170 -0.2 100 -0.2 1 4 1000.1 NA 0.0000 9999 10240 0 0 0
2017/11/07 00:49:00 BASE 0.00 171 1.08 170 -0.2 100 -0.2 1 4 1000.1 NA 0.0000 9999 10400 0 0 0
2017/11/07 00:50:00 BASE 0.00 172 1.08 170 -0.3 100 -0.3 1 4 1000.1 NA 0.0000 9999 6920 10500 0 0
2017/11/07 00:51:00 BASE 0.00 172 M M -0.3 100 -0.3 1 4 1000.0 NA 0.0000 9999 6920 10500 0 0
2017/11/07 00:52:00 BASE 0.00 170 M M -0.3 100 -0.3 1 4 999.9 NA 0.0000 9999 6890 0 0 0
2017/11/07 00:53:00 BASE 0.00 163 M M -0.3 100 -0.3 1 3 999.9 NA 0.0000 9999 6890 10530 0 0
2017/11/07 00:54:00 BASE 0.00 158 M M -0.4 100 -0.4 1 3 999.9 NA 0.0000 9999 6820 10560 0 0
2017/11/07 00:55:00 BASE 0.00 157 M M -0.4 100 -0.4 1 3 999.8 NA 0.0000 9999 6790 10630 0 0
2017/11/07 00:56:00 BASE 0.00 157 M M -0.4 100 -0.4 1 3 999.8 NA 0.0000 9999 6790 10470 0 0
2017/11/07 00:57:00 BASE 0.00 157 M M -0.3 100 -0.3 1 3 999.9 NA 0.0000 9999 6790 10400 0 0
2017/11/07 00:58:00 BASE 0.00 157 M M -0.3 100 -0.3 1 2 999.9 NA 0.0000 9999 6820 10300 0 0
2017/11/07 00:59:00 BASE 0.00 157 M M -0.3 100 -0.3 1 2 999.9 NA 0.0000 9999 6820 10300 0 0
2017/11/07 01:00:00 BASE 0.00 157 M M -0.3 100 -0.3 1 2 999.8 NA 0.0000 9999 6820 10170 0 0
2017/11/07 01:01:00 BASE 0.00 157 M M -0.3 100 -0.3 1 2 999.8 NA 0.0000 9999 6860 10200 0 0
2017/11/07 01:02:00 BASE 0.27 153 1.13 157 -0.3 100 -0.3 1 2 999.8 NA 0.0000 9999 6860 10270 0 0
2017/11/07 01:03:00 BASE 0.94 153 1.59 157 -0.3 100 -0.3 1 2 999.8 NA 0.0000 9999 6820 10200 0 0
2017/11/07 01:04:00 BASE 1.13 156 1.59 157 -0.3 100 -0.3 0 1 999.8 NA 0.0000 9999 6860 10200 0 0
2017/11/07 01:05:00 BASE 1.26 150 1.75 146 -0.3 100 -0.3 0 1 999.8 NA 0.0000 9999 6890 10170 0 0
2017/11/07 01:06:00 BASE 1.67 149 1.90 156 -0.3 100 -0.3 0 1 999.8 NA 0.0000 9999 6920 9970 0 0
2017/11/07 01:07:00 BASE 1.84 154 2.26 158 -0.3 100 -0.3 0 1 999.8 NA 0.0000 9999 6660 0 0 0
2017/11/07 01:08:00 BASE 1.97 158 2.26 158 -0.4 100 -0.4 0 1 999.8 NA 0.0000 9999 6630 0 0 0
2017/11/07 01:09:00 BASE 1.94 163 2.26 158 -0.4 100 -0.4 0 1 999.8 NA 0.0000 9999 6630 0 0 0
2017/11/07 01:10:00 BASE 1.82 166 2.26 158 -0.4 100 -0.4 0 1 999.8 NA 0.0000 9999 6630 0 0 0
2017/11/07 01:11:00 BASE 1.76 165 2.26 158 -0.4 100 -0.4 0 1 999.8 NA 0.0000 9999 6630 7050 0 0
2017/11/07 01:12:00 BASE 1.80 162 2.26 158 -0.5 100 -0.5 0 1 999.8 NA 0.0000 9999 6590 0 0 0
2017/11/07 01:13:00 BASE 1.74 163 2.26 158 -0.5 100 -0.5 0 1 999.8 NA 0.0000 9999 6590 0 0 0
2017/11/07 01:14:00 BASE 1.74 165 2.26 158 -0.5 100 -0.5 0 1 999.8 NA 0.0000 9999 7020 10110 0 0
2017/11/07 01:15:00 BASE 1.94 161 2.26 156 -0.5 100 -0.5 0 1 999.8 NA 0.0000 9999 7970 10070 0 0
2017/11/07 01:16:00 BASE 2.31 155 2.93 145 -0.5 100 -0.5 0 1 999.7 NA 0.0000 9999 10010 0 0 0
2017/11/07 01:17:00 BASE 2.69 149 3.14 145 -0.5 100 -0.5 0 1 999.7 NA 0.0000 9999 10010 0 0 0
2017/11/07 01:18:00 BASE 2.91 143 3.19 140 -0.5 100 -0.5 0 1 999.7 NA 0.0000 9999 6500 10040 0 0
2017/11/07 01:19:00 BASE 3.06 140 3.45 140 -0.5 100 -0.5 0 0 999.6 NA 0.0000 9999 9940 0 0 0
2017/11/07 01:20:00 BASE 3.19 138 3.60 131 -0.5 100 -0.5 0 0 999.6 NA 0.0000 9999 9970 0 0 0
2017/11/07 01:21:00 BASE 3.40 138 4.17 138 -0.5 100 -0.5 0 0 999.6 NA 0.0000 9999 10760 0 0 0
2017/11/07 01:22:00 BASE 3.84 138 4.58 141 -0.4 100 -0.4 0 0 999.5 NA 0.0000 9999 9940 10760 0 0
2017/11/07 01:23:00 BASE 4.29 136 4.84 139 -0.4 100 -0.4 0 0 999.5 NA 0.0000 9999 9910 10530 0 0
2017/11/07 01:24:00 BASE 3.99 126 4.84 139 -0.3 100 -0.3 0 0 999.4 NA 0.0000 9999 10340 10890 0 0
2017/11/07 01:25:00 BASE 3.00 110 4.84 139 -0.2 100 -0.2 0 0 999.4 NA 0.0000 9999 10890 0 0 0
2017/11/07 01:26:00 BASE 2.36 103 4.84 139 -0.1 100 -0.1 0 0 999.3 NA 0.0000 9999 10790 0 0 0
2017/11/07 01:27:00 BASE 2.96 105 4.84 139 0.1 100 0.1 0 0 999.2 NA 0.0000 9999 10930 0 0 0
2017/11/07 01:28:00 BASE 4.31 106 5.35 116 0.2 100 0.2 0 0 999.1 NA 0.0000 9999 10730 0 0 0
2017/11/07 01:29:00 BASE 5.10 105 6.02 106 0.3 100 0.3 0 0 999.1 NA 0.0000 9999 10930 0 0 0
2017/11/07 01:30:00 BASE 5.59 105 6.43 104 0.4 100 0.4 0 0 999.1 NA 0.0000 9999 6500 11090 0 0
2017/11/07 01:31:00 BASE 6.20 107 7.05 107 0.3 100 0.3 0 0 999.0 NA 0.0000 9999 6730 11120 0 0
2017/11/07 01:32:00 BASE 6.59 108 7.10 109 0.2 100 0.2 0 0 999.0 NA 0.0000 9999 6560 10860 0 0
2017/11/07 01:33:00 BASE 6.79 108 7.61 111 0.1 100 0.1 0 0 999.0 NA 0.0000 9999 6660 10630 0 0
2017/11/07 01:34:00 BASE 6.78 109 7.61 111 -0.1 100 -0.1 0 0 998.9 NA 0.0000 9999 6590 0 0 0
2017/11/07 01:35:00 BASE 7.05 110 8.03 110 -0.3 100 -0.3 0 0 998.8 NA 0.0000 9999 6590 0 0 0
2017/11/07 01:36:00 BASE 7.65 111 8.64 109 -0.4 100 -0.4 0 0 998.8 NA 0.0000 9999 6630 0 0 0
2017/11/07 01:37:00 BASE 8.11 112 8.95 109 -0.4 100 -0.4 0 0 998.7 NA 0.0000 9999 6630 0 0 0
2017/11/07 01:38:00 BASE 8.41 114 8.95 117 -0.5 100 -0.5 0 0 998.6 NA 0.0000 9999 6660 0 0 0
2017/11/07 01:39:00 BASE 8.65 115 9.21 116 -0.6 100 -0.6 0 0 998.6 NA 0.0000 9999 6560 0 0 0
2017/11/07 01:40:00 BASE 8.62 116 9.21 116 -0.6 100 -0.6 0 0 998.6 NA 0.0000 9999 6590 0 0 0
2017/11/07 01:41:00 BASE 8.49 116 9.31 114 -0.7 100 -0.7 0 0 998.6 NA 0.0000 9999 6590 0 0 0
2017/11/07 01:42:00 BASE 8.77 114 9.31 118 -0.7 100 -0.7 0 0 998.5 NA 0.0000 9999 6630 0 0 0
2017/11/07 01:43:00 BASE 8.91 115 9.31 118 -0.7 100 -0.7 0 0 998.5 NA 0.0000 9999 6660 0 0 0
2017/11/07 01:44:00 BASE 8.94 115 9.57 112 -0.7 100 -0.7 0 0 998.4 NA 0.0000 9999 6660 0 0 0
2017/11/07 01:45:00 BASE 9.12 114 9.72 115 -0.7 100 -0.7 0 0 998.4 NA 0.0000 9999 6660 11610 0 0
2017/11/07 01:46:00 BASE 9.25 114 9.72 115 -0.7 100 -0.7 0 0 998.3 NA 0.0000 9999 6560 0 0 0
2017/11/07 01:47:00 BASE 9.47 114 9.88 117 -0.7 100 -0.7 0 0 998.2 NA 0.0000 9999 6590 0 0 0
2017/11/07 01:48:00 BASE 9.69 115 10.08 116 -0.7 100 -0.7 0 0 998.2 NA 0.0000 9999 6590 7970 0 0
2017/11/07 01:49:00 BASE 9.74 115 10.34 116 -0.7 100 -0.7 0 0 998.1 NA 0.0000 9999 6560 0 0 0
2017/11/07 01:50:00 BASE 9.84 115 10.70 116 -0.7 100 -0.7 0 0 998.1 NA 0.0000 9999 6560 0 0 0
2017/11/07 01:51:00 BASE 9.87 116 10.70 116 -0.7 100 -0.7 0 0 998.0 NA 0.0000 9999 6560 0 0 0
2017/11/07 01:52:00 BASE 9.64 115 10.70 116 -0.7 100 -0.7 0 0 998.0 NA 0.0000 9999 6560 0 0 0
2017/11/07 01:53:00 BASE 9.81 114 10.80 114 -0.7 100 -0.7 0 0 998.0 NA 0.0000 9999 6560 0 0 0
2017/11/07 01:54:00 BASE 9.80 111 10.80 114 -0.7 100 -0.7 0 0 998.1 NA 0.0000 9999 6590 0 0 0
2017/11/07 01:55:00 BASE 9.30 111 10.80 114 -0.7 100 -0.7 0 0 998.2 NA 0.0000 9999 6590 0 0 0
2017/11/07 01:56:00 BASE 8.57 112 10.80 114 -0.7 100 -0.7 0 0 998.4 NA 0.0000 9999 6560 0 0 0
2017/11/07 01:57:00 BASE 7.90 112 10.80 114 -0.7 100 -0.7 0 0 998.5 NA 0.0000 9999 6590 0 0 0
2017/11/07 01:58:00 BASE 7.62 113 10.80 114 -0.7 100 -0.7 0 0 998.5 NA 0.0000 9999 6590 0 0 0
2017/11/07 01:59:00 BASE 7.64 114 10.80 114 -0.7 100 -0.7 0 0 998.4 NA 0.0000 9999 6560 0 0 0
2017/11/07 02:00:00 BASE 7.40 118 10.80 114 -0.7 100 -0.7 0 0 998.4 NA 0.0000 9999 6530 0 0 0
2017/11/07 02:01:00 BASE 6.75 120 10.80 114 -0.6 100 -0.6 0 0 998.5 NA 0.0000 9999 6590 0 0 0
2017/11/07 02:02:00 BASE 6.35 121 10.80 114 -0.6 100 -0.6 0 0 998.6 NA 0.0000 9999 6530 0 0 0
2017/11/07 02:03:00 BASE 6.25 122 9.83 116 -0.6 100 -0.6 0 0 998.6 NA 0.0000 9999 6560 0 0 0
2017/11/07 02:04:00 BASE 6.16 124 9.67 112 -0.6 100 -0.6 0 0 998.6 NA 0.0000 9999 6690 9550 0 0
2017/11/07 02:05:00 BASE 5.97 127 8.75 113 -0.6 100 -0.6 0 0 998.7 NA 0.0000 9999 9480 0 0 0
2017/11/07 02:06:00 BASE 5.65 128 8.64 113 -0.6 100 -0.6 0 0 998.8 NA 0.0000 9999 3580 0 0 0
2017/11/07 02:07:00 BASE 5.15 128 8.64 113 -0.6 100 -0.6 0 0 998.9 NA 0.0000 9999 0 0 0 30
2017/11/07 02:08:00 BASE 4.63 129 8.64 113 -0.6 100 -0.6 0 0 998.9 NA 0.0000 9999 0 0 0 100
2017/11/07 02:09:00 BASE 4.30 129 7.72 118 -0.7 100 -0.7 0 0 998.8 NA 0.0000 9999 0 0 0 200
2017/11/07 02:10:00 BASE 4.33 129 7.05 127 -0.7 100 -0.7 0 0 998.8 NA 0.0000 9999 200 8100 0 0
2017/11/07 02:11:00 BASE 4.49 129 7.05 127 -0.7 100 -0.7 0 0 998.8 NA 0.0000 9999 200 8140 0 0
2017/11/07 02:12:00 BASE 4.61 130 7.05 127 -0.7 100 -0.7 0 0 998.8 NA 0.0000 UP 9999 7150 0 0 0
2017/11/07 02:13:00 BASE 4.65 129 6.79 124 -0.7 100 -0.7 0 0 998.8 NA 0.0000 UP 9000 7250 8200 0 0
2017/11/07 02:14:00 BASE 4.59 128 6.58 127 -0.8 100 -0.8 0 0 998.8 NA 0.0000 UP 9000 7050 8200 0 0
2017/11/07 02:15:00 BASE 4.60 127 5.92 117 -0.8 100 -0.8 0 0 998.9 NA 0.0000 UP 9000 8200 0 0 0
2017/11/07 02:16:00 BASE 4.40 125 5.35 127 -0.8 100 -0.8 0 0 998.9 NA 0.0000 UP 9000 8100 0 0 0
2017/11/07 02:17:00 BASE 4.16 123 5.35 127 -0.8 100 -0.8 0 0 999.0 NA 0.0000 UP 9000 7970 0 0 0
2017/11/07 02:18:00 BASE 3.63 122 5.35 127 -0.8 100 -0.8 0 0 999.0 NA 0.0000 UP BR 8000 8170 0 0 0
2017/11/07 02:19:00 BASE 2.96 121 5.35 127 -0.8 100 -0.8 0 0 999.0 NA 0.0000 UP BR 9000 8240 0 0 0
2017/11/07 02:20:00 BASE 2.79 118 5.04 126 -0.8 100 -0.8 0 0 999.0 NA 0.0000 UP BR 9999 7940 0 0 0
2017/11/07 02:21:00 BASE 2.23 114 5.04 126 -0.8 100 -0.8 0 0 999.1 NA 0.0000 UP BR 9000 7780 0 0 0
2017/11/07 02:22:00 BASE 1.47 113 5.04 126 -0.8 100 -0.8 0 0 999.0 NA 0.0000 UP BR 9999 7780 0 0 0
2017/11/07 02:23:00 BASE 0.89 126 5.04 126 -0.8 100 -0.8 0 0 999.0 NA 0.0000 BR 9999 300 7840 0 0
2017/11/07 02:24:00 BASE 0.26 141 4.89 128 -0.8 100 -0.8 0 0 999.0 NA 0.0000 9999 230 7940 0 0
2017/11/07 02:25:00 BASE 0.00 144 4.53 125 -0.8 100 -0.8 0 0 999.1 NA 0.0000 9999 330 8010 0 0
2017/11/07 02:26:00 BASE 0.17 141 4.37 124 -0.7 100 -0.7 0 0 999.0 NA 0.0000 9999 8010 0 0 0
2017/11/07 02:27:00 BASE 1.40 134 3.55 124 -0.7 100 -0.7 0 0 999.0 NA 0.0000 9999 7970 0 0 0
2017/11/07 02:28:00 BASE 2.66 127 3.34 125 -0.7 100 -0.7 0 0 999.0 NA 0.0000 9999 7710 0 0 0
2017/11/07 02:29:00 BASE 2.82 123 3.34 118 -0.7 100 -0.7 0 0 999.1 NA 0.0000 9999 7580 0 0 0
2017/11/07 02:30:00 BASE 2.39 123 3.34 118 -0.7 100 -0.7 0 0 999.1 NA 0.0000 9999 7420 7810 0 0
2017/11/07 02:31:00 BASE 2.17 126 3.34 118 -0.7 100 -0.7 0 0 999.0 NA 0.0000 9999 7710 0 0 0
2017/11/07 02:32:00 BASE 1.65 122 3.34 118 -0.7 100 -0.7 0 0 999.0 NA 0.0000 9999 7640 0 0 0
2017/11/07 02:33:00 BASE 0.54 106 3.34 118 -0.7 100 -0.7 0 0 999.1 NA 0.0000 9999 6990 7780 0 0
2017/11/07 02:34:00 BASE 0.05 104 3.34 118 -0.6 100 -0.6 0 0 999.1 NA 0.0000 9999 6890 0 0 0
2017/11/07 02:35:00 BASE 0.00 117 3.34 118 -0.5 100 -0.5 0 0 999.1 NA 0.0000 9999 6560 0 0 0
2017/11/07 02:36:00 BASE 0.17 121 3.34 118 -0.4 100 -0.4 0 0 999.1 NA 0.0000 9999 4400 0 0 0
2017/11/07 02:37:00 BASE 0.56 125 3.34 118 -0.4 100 -0.4 0 0 999.1 NA 0.0000 9999 6100 0 0 0
2017/11/07 02:38:00 BASE 0.74 123 3.34 118 -0.3 100 -0.3 0 0 999.1 NA 0.0000 9999 6070 0 0 0
2017/11/07 02:39:00 BASE 0.40 111 2.83 119 -0.3 100 -0.3 0 0 999.1 NA 0.0000 9999 6140 0 0 0
2017/11/07 02:40:00 BASE 0.04 100 2.83 119 -0.3 100 -0.3 0 0 999.1 NA 0.0000 9999 6000 0 0 0
2017/11/07 02:41:00 BASE 0.00 83 2.26 113 -0.2 100 -0.2 0 0 999.1 NA 0.0000 9999 6040 0 0 0
2017/11/07 02:42:00 BASE 0.00 66 1.44 124 -0.2 100 -0.2 0 0 999.1 NA 0.0000 9999 5970 0 0 0
2017/11/07 02:43:00 BASE 0.00 49 1.44 124 -0.1 100 -0.1 0 0 999.1 NA 0.0000 9999 5810 0 0 0
2017/11/07 02:44:00 BASE 0.00 22 1.44 124 -0.1 100 -0.1 0 0 999.1 NA 0.0000 9999 5810 0 0 0
2017/11/07 02:45:00 BASE 0.00 344 1.44 124 -0.1 100 -0.1 0 0 999.1 NA 0.0000 9999 490 5810 0 0
2017/11/07 02:46:00 BASE 0.00 316 1.44 124 -0.1 100 -0.1 0 0 999.1 NA 0.0000 9999 430 5870 0 0
2017/11/07 02:47:00 BASE 0.00 314 1.44 124 -0.1 100 -0.1 0 0 999.1 NA 0.0000 9999 5680 0 0 0
2017/11/07 02:48:00 BASE 0.00 306 1.03 99 -0.1 100 -0.1 0 0 999.1 NA 0.0000 9999 5680 0 0 0
2017/11/07 02:49:00 BASE 0.00 303 M M -0.1 100 -0.1 0 0 999.1 NA 0.0000 9999 430 5680 0 0
2017/11/07 02:50:00 BASE 0.00 303 M M -0.1 100 -0.1 0 0 999.1 NA 0.0000 9999 390 5770 0 0
2017/11/07 02:51:00 BASE 0.20 308 1.39 315 -0.1 100 -0.1 0 0 999.1 NA 0.0000 9999 390 6200 0 0
2017/11/07 02:52:00 BASE 0.92 314 1.54 310 -0.1 100 -0.1 0 0 999.1 NA 0.0000 9999 360 6140 0 0
2017/11/07 02:53:00 BASE 1.57 312 1.85 315 -0.1 100 -0.1 0 0 999.1 NA 0.0000 9999 360 6040 0 0
2017/11/07 02:54:00 BASE 1.76 306 1.95 300 -0.1 100 -0.1 0 0 999.1 NA 0.0000 9999 5940 0 0 0
2017/11/07 02:55:00 BASE 1.79 299 2.01 298 -0.2 100 -0.2 0 0 999.1 NA 0.0000 9999 5870 0 0 0
2017/11/07 02:56:00 BASE 1.63 293 2.01 298 -0.2 100 -0.2 0 0 999.1 NA 0.0000 9999 5810 0 0 0
2017/11/07 02:57:00 BASE 1.63 286 2.01 287 -0.3 100 -0.3 0 0 999.1 NA 0.0000 9999 5870 0 0 0
2017/11/07 02:58:00 BASE 1.73 277 2.16 269 -0.3 100 -0.3 0 0 999.1 NA 0.0000 9999 5970 0 0 0
2017/11/07 02:59:00 BASE 1.51 261 2.16 269 -0.3 100 -0.3 0 0 999.1 NA 0.0000 9999 260 5870 0 0
2017/11/07 03:00:00 BASE 0.64 253 2.16 269 -0.3 100 -0.3 0 0 999.1 NA 0.0000 9999 260 5840 0 0
2017/11/07 03:01:00 BASE 0.00 276 2.16 269 -0.3 100 -0.3 0 0 999.1 NA 0.0000 9999 260 5840 0 0
2017/11/07 03:02:00 BASE 0.13 288 2.16 269 -0.3 100 -0.3 0 0 999.0 NA 0.0000 9999 200 5940 0 0
2017/11/07 03:03:00 BASE 0.13 290 2.16 269 -0.3 100 -0.3 0 0 999.0 NA 0.0000 9999 200 5970 0 0
2017/11/07 03:04:00 BASE 0.00 289 2.16 269 -0.4 100 -0.4 0 0 999.0 NA 0.0000 9999 230 6170 0 0
2017/11/07 03:05:00 BASE 0.00 283 2.16 269 -0.4 100 -0.4 0 0 998.9 NA 0.0000 9999 260 6100 0 0
2017/11/07 03:06:00 BASE 0.00 275 2.16 269 -0.4 100 -0.4 0 0 998.9 NA 0.0000 9999 260 6100 0 0
2017/11/07 03:07:00 BASE 0.00 264 2.16 269 -0.4 100 -0.4 0 0 998.9 NA 0.0000 9999 260 6040 0 0
2017/11/07 03:08:00 BASE 0.00 264 1.75 255 -0.4 100 -0.4 0 0 998.9 NA 0.0000 9999 230 6100 0 0
2017/11/07 03:09:00 BASE 0.00 264 1.08 290 -0.4 100 -0.4 0 0 998.9 NA 0.0000 9999 230 5970 0 0
2017/11/07 03:10:00 BASE 0.00 264 1.08 290 -0.4 100 -0.4 0 0 998.9 NA 0.0000 9999 230 6000 0 0
2017/11/07 03:11:00 BASE 0.00 257 1.08 290 -0.4 100 -0.4 0 0 998.8 NA 0.0000 9999 5940 0 0 0
2017/11/07 03:12:00 BASE 0.00 214 M M -0.4 100 -0.4 0 0 998.8 NA 0.0000 9999 6040 0 0 0
2017/11/07 03:13:00 BASE 0.00 184 M M -0.3 100 -0.3 0 0 998.8 NA 0.0000 9999 5910 0 0 0
2017/11/07 03:14:00 BASE 0.00 184 M M -0.3 100 -0.3 0 0 998.8 NA 0.0000 9999 5840 0 0 0
2017/11/07 03:15:00 BASE 0.00 181 M M -0.3 100 -0.3 0 0 998.8 NA 0.0000 9999 6040 0 0 0
2017/11/07 03:16:00 BASE 0.00 180 M M -0.3 100 -0.3 0 0 998.7 NA 0.0000 9999 5740 0 0 0
2017/11/07 03:17:00 BASE 0.00 186 M M -0.3 100 -0.3 0 0 998.7 NA 0.0000 9999 5680 0 0 0
2017/11/07 03:18:00 BASE 0.00 188 M M -0.3 100 -0.3 0 0 998.6 NA 0.0000 9999 5580 0 0 0
2017/11/07 03:19:00 BASE 0.10 176 1.18 160 -0.3 100 -0.3 0 0 998.6 NA 0.0000 9999 5510 0 0 0
2017/11/07 03:20:00 BASE 0.61 158 1.29 144 -0.3 100 -0.3 0 0 998.6 NA 0.0000 9999 5580 6040 0 0
2017/11/07 03:21:00 BASE 1.08 145 1.39 140 -0.3 100 -0.3 0 0 998.5 NA 0.0000 9999 5610 0 0 0
2017/11/07 03:22:00 BASE 1.15 140 1.39 140 -0.3 100 -0.3 0 0 998.5 NA 0.0000 9999 5540 0 0 0
2017/11/07 03:23:00 BASE 0.98 145 1.39 140 -0.3 100 -0.3 0 0 998.5 NA 0.0000 9999 5510 0 0 0
2017/11/07 03:24:00 BASE 1.02 150 1.39 151 -0.3 100 -0.3 0 0 998.5 NA 0.0000 9999 5540 0 0 0
2017/11/07 03:25:00 BASE 1.25 151 1.39 151 -0.3 100 -0.3 0 0 998.5 NA 0.0000 9999 5580 0 0 0
2017/11/07 03:26:00 BASE 1.37 151 1.80 145 -0.3 100 -0.3 0 0 998.5 NA 0.0000 9999 5580 0 0 0
2017/11/07 03:27:00 BASE 1.75 147 2.21 140 -0.3 100 -0.3 0 0 998.4 NA 0.0000 9999 5640 0 0 0
2017/11/07 03:28:00 BASE 2.13 143 2.31 144 -0.3 100 -0.3 0 0 998.4 NA 0.0000 9999 5480 0 0 0
2017/11/07 03:29:00 BASE 2.16 143 2.31 144 -0.4 100 -0.4 0 0 998.4 NA 0.0000 9999 5480 6960 0 0
2017/11/07 03:30:00 BASE 2.11 143 2.31 144 -0.4 100 -0.5 0 0 998.4 NA 0.0000 9999 5540 6230 7090 0
2017/11/07 03:31:00 BASE 2.18 143 2.31 142 -0.5 100 -0.5 0 0 998.4 NA 0.0000 9999 5510 6170 6960 0
2017/11/07 03:32:00 BASE 2.12 141 2.31 142 -0.6 100 -0.6 0 0 998.4 NA 0.0000 9999 5480 0 0 0
2017/11/07 03:33:00 BASE 2.04 138 2.31 142 -0.6 100 -0.6 0 0 998.3 NA 0.0000 9999 5810 0 0 0
2017/11/07 03:34:00 BASE 2.09 138 2.31 142 -0.6 100 -0.6 0 0 998.3 NA 0.0000 9999 5810 0 0 0
2017/11/07 03:35:00 BASE 2.14 140 2.31 142 -0.6 100 -0.6 0 0 998.3 NA 0.0000 9999 5380 0 0 0
2017/11/07 03:36:00 BASE 2.16 145 2.42 146 -0.5 100 -0.5 0 0 998.3 NA 0.0000 9999 5540 0 0 0
2017/11/07 03:37:00 BASE 2.24 147 2.42 146 -0.5 100 -0.5 0 0 998.3 NA 0.0000 9999 5320 0 0 0
2017/11/07 03:38:00 BASE 2.11 146 2.42 146 -0.5 100 -0.5 0 0 998.3 NA 0.0000 9999 5380 6040 6960 0
2017/11/07 03:39:00 BASE 1.97 146 2.42 146 -0.4 100 -0.4 0 0 998.3 NA 0.0000 9999 5770 6920 0 0
2017/11/07 03:40:00 BASE 2.05 144 2.42 146 -0.4 100 -0.4 0 0 998.2 NA 0.0000 9999 5450 0 0 0
2017/11/07 03:41:00 BASE 2.12 145 2.42 146 -0.4 100 -0.4 0 0 998.2 NA 0.0000 9999 5350 5870 0 0
2017/11/07 03:42:00 BASE 2.11 148 2.42 146 -0.4 100 -0.4 0 0 998.1 NA 0.0000 9999 5320 0 0 0
2017/11/07 03:43:00 BASE 2.28 148 2.68 144 -0.4 100 -0.4 0 0 998.0 NA 0.0000 9999 5280 0 0 0
2017/11/07 03:44:00 BASE 2.59 143 2.88 134 -0.4 100 -0.4 0 0 998.0 NA 0.0000 9999 5250 0 0 0
2017/11/07 03:45:00 BASE 2.62 136 2.88 136 -0.4 100 -0.4 0 0 998.0 NA 0.0000 9999 5350 0 0 0
2017/11/07 03:46:00 BASE 1.84 126 2.88 136 -0.3 100 -0.3 0 0 998.0 NA 0.0000 9999 5580 6270 0 0
2017/11/07 03:47:00 BASE 0.58 106 2.88 136 -0.3 100 -0.3 0 0 998.0 NA 0.0000 9999 5320 0 0 0
2017/11/07 03:48:00 BASE 0.00 95 2.88 136 -0.2 100 -0.2 0 0 998.0 NA 0.0000 9999 5480 0 0 0
2017/11/07 03:49:00 BASE 0.10 109 2.88 136 -0.2 100 -0.2 0 0 997.9 NA 0.0000 9999 5510 0 0 0
2017/11/07 03:50:00 BASE 0.53 125 2.88 136 -0.1 100 -0.1 0 0 997.9 NA 0.0000 9999 5250 6000 0 0
2017/11/07 03:51:00 BASE 1.48 131 2.88 136 -0.1 100 -0.1 0 0 997.9 NA 0.0000 9999 5320 0 0 0
2017/11/07 03:52:00 BASE 1.96 131 2.88 136 -0.1 100 -0.1 0 0 997.9 NA 0.0000 9999 5280 0 0 0
2017/11/07 03:53:00 BASE 1.83 128 2.88 136 -0.1 100 -0.1 0 0 998.0 NA 0.0000 9999 5280 5740 0 0
2017/11/07 03:54:00 BASE 0.99 111 2.88 136 -0.1 100 -0.1 0 0 998.0 NA 0.0000 9999 5350 0 0 0
2017/11/07 03:55:00 BASE 0.07 56 2.42 124 -0.1 100 -0.1 0 0 998.0 NA 0.0000 9999 5180 0 0 0
2017/11/07 03:56:00 BASE 0.00 31 2.42 124 -0.1 100 -0.1 0 0 998.0 NA 0.0000 9999 5220 0 0 0
2017/11/07 03:57:00 BASE 0.00 44 2.42 124 -0.1 100 -0.1 0 0 998.0 NA 0.0000 9999 5120 0 0 0
2017/11/07 03:58:00 BASE 0.00 29 2.42 124 -0.2 100 -0.2 0 0 998.1 NA 0.0000 9999 5250 0 0 0
2017/11/07 03:59:00 BASE 0.00 7 2.42 124 -0.2 100 -0.2 0 0 998.2 NA 0.0000 9999 5220 0 0 0
2017/11/07 04:00:00 BASE 0.00 350 2.42 124 -0.3 100 -0.3 0 0 998.2 NA 0.0000 9999 5180 0 0 0
2017/11/07 04:01:00 BASE 0.00 345 2.42 124 -0.3 100 -0.3 0 0 998.2 NA 0.0000 9999 5090 0 0 0
2017/11/07 04:02:00 BASE 0.00 345 2.42 124 -0.3 100 -0.3 0 0 998.2 NA 0.0000 9999 5120 5680 0 0
2017/11/07 04:03:00 BASE 0.00 342 1.70 130 -0.3 100 -0.3 0 0 998.3 NA 0.0000 9999 5250 0 0 0
2017/11/07 04:04:00 BASE 0.04 321 1.03 308 -0.3 100 -0.3 0 0 998.3 NA 0.0000 9999 5320 0 0 0
2017/11/07 04:05:00 BASE 0.04 257 1.03 308 -0.3 100 -0.3 0 0 998.4 NA 0.0000 9999 5180 0 0 0
2017/11/07 04:06:00 BASE 0.00 224 1.03 308 -0.3 100 -0.3 0 0 998.4 NA 0.0000 9999 5150 5610 0 0
2017/11/07 04:07:00 BASE 0.00 255 1.03 308 -0.3 100 -0.3 0 0 998.4 NA 0.0000 9999 5180 0 0 0
2017/11/07 04:08:00 BASE 0.00 313 1.03 308 -0.3 100 -0.3 0 0 998.4 NA 0.0000 9999 5050 0 0 0
2017/11/07 04:09:00 BASE 0.00 25 1.03 308 -0.3 100 -0.3 0 0 998.4 NA 0.0000 9999 5050 0 0 0
2017/11/07 04:10:00 BASE 0.00 33 1.03 308 -0.3 100 -0.3 0 0 998.4 NA 0.0000 9999 5220 0 0 0
2017/11/07 04:11:00 BASE 0.00 21 1.03 308 -0.3 100 -0.3 0 0 998.5 NA 0.0000 9999 5350 5840 0 0
2017/11/07 04:12:00 BASE 0.00 4 1.03 308 -0.3 100 -0.3 0 0 998.5 NA 0.0000 9999 5380 0 0 0
2017/11/07 04:13:00 BASE 0.18 3 1.13 17 -0.3 100 -0.3 0 0 998.4 NA 0.0000 9999 5050 0 0 0
2017/11/07 04:14:00 BASE 0.18 17 1.13 17 -0.3 100 -0.3 0 0 998.5 NA 0.0000 9999 5280 0 0 0
2017/11/07 04:15:00 BASE 0.00 15 1.13 17 -0.3 100 -0.3 0 0 998.5 NA 0.0000 9999 4230 5150 0 0
2017/11/07 04:16:00 BASE 0.00 9 1.13 17 -0.3 100 -0.3 0 0 998.5 NA 0.0000 9999 5090 0 0 0
2017/11/07 04:17:00 BASE 0.00 9 1.13 17 -0.3 100 -0.3 0 0 998.5 NA 0.0000 9999 4200 5090 0 0
2017/11/07 04:18:00 BASE 0.00 9 1.13 17 -0.3 100 -0.3 0 0 998.5 NA 0.0000 9999 5120 0 0 0
2017/11/07 04:19:00 BASE 0.00 9 1.13 17 -0.3 100 -0.3 0 0 998.5 NA 0.0000 9999 4200 5090 0 0
2017/11/07 04:20:00 BASE 0.00 9 1.13 17 -0.3 100 -0.3 0 0 998.5 NA 0.0000 9999 4170 5150 0 0
2017/11/07 04:21:00 BASE 0.09 11 1.13 17 -0.2 100 -0.2 0 0 998.5 NA 0.0000 9999 4170 0 0 0
2017/11/07 04:22:00 BASE 0.67 15 1.23 17 -0.2 100 -0.2 0 0 998.5 NA 0.0000 9999 4130 5280 0 0
2017/11/07 04:23:00 BASE 0.78 17 1.34 17 -0.2 100 -0.2 0 0 998.5 NA 0.0000 9999 4130 0 0 0
2017/11/07 04:24:00 BASE 0.20 17 1.34 17 -0.2 100 -0.2 0 0 998.5 NA 0.0000 9999 4130 0 0 0
2017/11/07 04:25:00 BASE 0.00 17 1.34 17 -0.2 100 -0.2 0 0 998.5 NA 0.0000 9999 4270 0 0 0
2017/11/07 04:26:00 BASE 0.00 17 1.34 17 -0.1 100 -0.1 0 0 998.5 NA 0.0000 9999 4270 0 0 0
2017/11/07 04:27:00 BASE 0.00 17 1.34 17 -0.1 100 -0.1 0 0 998.5 NA 0.0000 9999 4200 0 0 0
2017/11/07 04:28:00 BASE 0.00 18 1.34 17 -0.1 100 -0.1 0 0 998.5 NA 0.0000 9999 4130 0 0 0
2017/11/07 04:29:00 BASE 0.00 26 1.34 17 -0.0 100 -0.0 0 0 998.5 NA 0.0000 9999 4040 0 0 0
2017/11/07 04:30:00 BASE 0.00 33 1.34 17 0.0 100 0.0 0 0 998.5 NA 0.0000 9999 4100 0 0 0
2017/11/07 04:31:00 BASE 0.00 33 1.34 17 0.1 100 0.1 0 0 998.5 NA 0.0000 9999 4100 0 0 0
2017/11/07 04:32:00 BASE 0.00 34 1.34 17 0.1 100 0.1 0 0 998.5 NA 0.0000 9999 4040 0 0 0
2017/11/07 04:33:00 BASE 0.00 38 M M 0.1 100 0.1 0 0 998.5 NA 0.0000 9999 4130 0 0 0
2017/11/07 04:34:00 BASE 0.00 37 M M 0.1 100 0.1 0 0 998.6 NA 0.0000 9999 4130 0 0 0
2017/11/07 04:35:00 BASE 0.00 25 M M 0.1 100 0.1 0 0 998.6 NA 0.0000 9999 3350 4170 0 0
2017/11/07 04:36:00 BASE 0.00 14 M M 0.1 100 0.1 0 0 998.5 NA 0.0000 9999 4070 0 0 0
2017/11/07 04:37:00 BASE 0.00 14 M M 0.1 100 0.1 0 0 998.5 NA 0.0000 9999 4070 0 0 0
2017/11/07 04:38:00 BASE 0.00 21 M M 0.1 100 0.1 0 0 998.5 NA 0.0000 9999 4040 0 0 0
2017/11/07 04:39:00 BASE 0.00 27 M M 0.1 100 0.1 0 0 998.5 NA 0.0000 9999 4040 0 0 0
2017/11/07 04:40:00 BASE 0.00 31 M M 0.1 100 0.1 0 0 998.5 NA 0.0000 9999 4100 0 0 0
2017/11/07 04:41:00 BASE 0.00 32 M M 0.1 100 0.1 0 0 998.5 NA 0.0000 9999 4040 0 0 0
2017/11/07 04:42:00 BASE 0.00 31 M M 0.2 100 0.2 0 0 998.5 NA 0.0000 9999 4070 0 0 0
2017/11/07 04:43:00 BASE 0.00 32 M M 0.2 100 0.2 0 0 998.4 NA 0.0000 9999 3970 0 0 0
2017/11/07 04:44:00 BASE 0.00 34 M M 0.2 100 0.2 0 0 998.4 NA 0.0000 9999 3940 0 0 0
2017/11/07 04:45:00 BASE 0.00 34 M M 0.2 100 0.2 0 0 998.4 NA 0.0000 9999 3970 0 0 0
2017/11/07 04:46:00 BASE 0.00 41 M M 0.2 100 0.2 0 0 998.4 NA 0.0000 9999 3970 0 0 0
2017/11/07 04:47:00 BASE 0.00 52 M M 0.2 100 0.2 0 0 998.4 NA 0.0000 9999 3940 0 0 0
2017/11/07 04:48:00 BASE 0.00 53 M M 0.3 100 0.3 0 0 998.4 NA 0.0000 9999 3940 0 0 0
2017/11/07 04:49:00 BASE 0.00 51 M M 0.3 100 0.3 0 0 998.4 NA 0.0000 9999 3870 4790 0 0
2017/11/07 04:50:00 BASE 0.00 51 M M 0.3 100 0.3 0 0 998.4 NA 0.0000 9999 3840 0 0 0
2017/11/07 04:51:00 BASE 0.00 51 M M 0.3 100 0.3 0 0 998.4 NA 0.0000 9999 3900 0 0 0
2017/11/07 04:52:00 BASE 0.00 51 M M 0.4 100 0.4 0 0 998.4 NA 0.0000 9999 3840 0 0 0
2017/11/07 04:53:00 BASE 0.00 52 M M 0.4 100 0.4 0 0 998.3 NA 0.0000 9999 3610 4790 0 0
2017/11/07 04:54:00 BASE 0.00 65 M M 0.4 100 0.4 0 0 998.3 NA 0.0000 9999 3610 0 0 0
2017/11/07 04:55:00 BASE 0.00 78 M M 0.4 100 0.4 0 0 998.3 NA 0.0000 9999 3580 0 0 0
2017/11/07 04:56:00 BASE 0.00 82 M M 0.5 100 0.5 0 0 998.3 NA 0.0000 9999 3540 0 0 0
2017/11/07 04:57:00 BASE 0.00 82 M M 0.5 100 0.5 0 0 998.3 NA 0.0000 9999 3610 0 0 0
2017/11/07 04:58:00 BASE 0.00 79 M M 0.6 100 0.6 0 0 998.3 NA 0.0000 9999 3580 0 0 0
2017/11/07 04:59:00 BASE 0.00 75 M M 0.6 100 0.6 0 0 998.3 NA 0.0000 9999 3480 0 0 0
2017/11/07 05:00:00 BASE 0.00 82 M M 0.6 100 0.6 0 0 998.2 NA 0.0000 9999 3480 0 0 0
2017/11/07 05:01:00 BASE 0.32 90 1.18 91 0.7 100 0.7 0 0 998.2 NA 0.0000 9999 3450 0 0 0
2017/11/07 05:02:00 BASE 0.86 91 1.18 91 0.6 100 0.6 0 0 998.2 NA 0.0000 9999 3410 0 0 0
2017/11/07 05:03:00 BASE 1.10 95 1.23 99 0.6 100 0.6 0 0 998.2 NA 0.0000 9999 3410 0 0 0
2017/11/07 05:04:00 BASE 0.94 100 1.29 102 0.6 100 0.6 0 0 998.1 NA 0.0000 9999 3410 0 0 0
2017/11/07 05:05:00 BASE 1.12 100 1.75 99 0.6 100 0.6 0 0 998.0 NA 0.0000 9999 3380 0 0 0
2017/11/07 05:06:00 BASE 1.45 101 1.75 99 0.6 100 0.6 0 0 998.0 NA 0.0000 9999 3310 0 0 0
2017/11/07 05:07:00 BASE 1.22 106 1.75 99 0.6 100 0.6 0 0 998.0 NA 0.0000 9999 3350 0 0 0
2017/11/07 05:08:00 BASE 0.65 110 1.75 99 0.7 100 0.7 0 0 998.0 NA 0.0000 9999 3410 0 0 0
2017/11/07 05:09:00 BASE 0.36 103 1.75 99 0.8 100 0.8 0 0 998.0 NA 0.0000 9999 3410 0 0 0
2017/11/07 05:10:00 BASE 0.44 103 1.75 99 0.9 100 0.9 0 0 998.0 NA 0.0000 9999 3480 4200 0 0
2017/11/07 05:11:00 BASE 0.63 108 1.75 99 1.0 100 1.0 0 0 998.0 NA 0.0000 9999 3510 0 0 0
2017/11/07 05:12:00 BASE 0.53 102 1.75 99 1.1 100 1.1 0 0 998.0 NA 0.0000 9999 3510 0 0 0
2017/11/07 05:13:00 BASE 0.13 89 1.75 99 1.1 100 1.1 0 0 998.0 NA 0.0000 9999 3510 0 0 0
2017/11/07 05:14:00 BASE 0.00 83 1.75 99 1.2 100 1.2 0 0 998.0 NA 0.0000 9999 3510 0 0 0
2017/11/07 05:15:00 BASE 0.00 80 1.65 103 1.2 100 1.2 0 0 998.0 NA 0.0000 9999 3540 0 0 0
2017/11/07 05:16:00 BASE 0.04 79 1.59 109 1.2 100 1.2 0 0 998.1 NA 0.0000 9999 3540 0 0 0
2017/11/07 05:17:00 BASE 0.43 89 1.44 105 1.3 100 1.3 0 0 998.1 NA 0.0000 9999 3580 0 0 0
2017/11/07 05:18:00 BASE 1.06 90 1.44 90 1.3 100 1.3 0 0 998.1 NA 0.0000 9999 3580 0 0 0
2017/11/07 05:19:00 BASE 1.44 88 1.80 96 1.3 100 1.3 0 0 998.0 NA 0.0000 9999 3410 0 0 0
2017/11/07 05:20:00 BASE 1.57 94 1.80 97 1.3 100 1.3 0 0 998.0 NA 0.0000 9999 3350 0 0 0
2017/11/07 05:21:00 BASE 1.38 93 1.80 97 1.2 100 1.2 0 0 998.0 NA 0.0000 9999 3350 0 0 0
2017/11/07 05:22:00 BASE 1.18 92 1.80 97 1.2 100 1.2 0 0 998.0 NA 0.0000 9999 3310 0 0 0
2017/11/07 05:23:00 BASE 0.93 100 1.80 97 1.2 100 1.2 0 0 998.0 NA 0.0000 9999 3310 0 0 0
2017/11/07 05:24:00 BASE 0.78 106 1.80 97 1.1 100 1.1 0 0 997.9 NA 0.0000 9999 3350 0 0 0
2017/11/07 05:25:00 BASE 1.03 109 1.80 97 1.1 100 1.1 0 0 997.9 NA 0.0000 9999 3410 0 0 0
2017/11/07 05:26:00 BASE 1.06 116 1.80 97 1.2 100 1.2 0 0 997.9 NA 0.0000 9999 3380 0 0 0
2017/11/07 05:27:00 BASE 1.10 122 1.80 97 1.2 100 1.2 0 0 997.9 NA 0.0000 9999 3280 0 0 0
2017/11/07 05:28:00 BASE 1.24 120 1.80 97 1.3 100 1.3 0 0 997.9 NA 0.0000 9999 3250 0 0 0
2017/11/07 05:29:00 BASE 0.88 124 1.80 97 1.3 100 1.3 0 0 997.9 NA 0.0000 9999 3280 0 0 0
2017/11/07 05:30:00 BASE 0.90 124 1.70 140 1.3 100 1.3 0 0 997.9 NA 0.0000 9999 3280 0 0 0
2017/11/07 05:31:00 BASE 1.49 118 2.01 113 1.3 100 1.3 0 0 997.9 NA 0.0000 9999 3280 0 0 0
2017/11/07 05:32:00 BASE 1.51 125 2.01 113 1.2 100 1.2 0 0 997.9 NA 0.0000 9999 3050 0 0 0
2017/11/07 05:33:00 BASE 1.56 135 2.06 138 1.1 100 1.1 0 0 997.9 NA 0.0000 9999 3350 0 0 0
2017/11/07 05:34:00 BASE 1.71 135 2.06 138 1.0 100 1.0 0 0 997.9 NA 0.0000 9999 3410 0 0 0
2017/11/07 05:35:00 BASE 1.57 135 2.06 138 0.9 100 0.9 0 0 997.9 NA 0.0000 9999 3480 0 0 0
2017/11/07 05:36:00 BASE 1.19 141 2.06 138 0.7 100 0.7 0 0 997.9 NA 0.0000 9999 3480 0 0 0
2017/11/07 05:37:00 BASE 0.93 150 2.06 138 0.6 100 0.6 0 0 997.9 NA 0.0000 9999 3450 0 0 0
2017/11/07 05:38:00 BASE 0.57 149 2.06 138 0.5 100 0.5 0 0 997.9 NA 0.0000 9999 3510 0 0 0
2017/11/07 05:39:01 BASE 0.09 163 2.06 138 0.4 100 0.4 0 0 997.9 NA 0.0000 9999 3480 0 0 0
2017/11/07 05:40:00 BASE 0.00 171 2.06 138 0.3 100 0.3 0 0 997.9 NA 0.0000 9999 3410 0 0 0
2017/11/07 05:41:00 BASE 0.14 168 2.06 138 0.3 100 0.3 0 0 997.8 NA 0.0000 9999 3310 0 0 0
2017/11/07 05:42:00 BASE 0.31 171 2.06 138 0.3 100 0.3 0 0 997.8 NA 0.0000 9999 3250 0 0 0
2017/11/07 05:43:00 BASE 0.27 168 1.85 132 0.3 100 0.3 0 0 997.8 NA 0.0000 9999 3250 0 0 0
2017/11/07 05:44:00 BASE 0.51 163 1.75 158 0.3 100 0.3 0 0 997.8 NA 0.0000 9999 3150 0 0 0
2017/11/07 05:45:00 BASE 1.31 153 2.11 152 0.3 100 0.3 0 0 997.8 NA 0.0000 9999 3150 0 0 0
2017/11/07 05:46:00 BASE 1.82 142 2.26 120 0.3 100 0.3 0 0 997.8 NA 0.0000 9999 3150 0 0 0
2017/11/07 05:47:00 BASE 2.00 138 2.47 142 0.4 100 0.4 0 0 997.8 NA 0.0000 9999 3120 0 0 0
2017/11/07 05:48:00 BASE 2.20 141 2.47 142 0.4 100 0.4 0 0 997.8 NA 0.0000 9999 3080 0 0 0
2017/11/07 05:49:00 BASE 2.37 136 2.62 134 0.5 100 0.5 0 0 997.8 NA 0.0000 9999 3050 0 0 0
2017/11/07 05:50:00 BASE 2.50 130 2.62 117 0.5 100 0.5 0 0 997.9 NA 0.0000 9999 2990 0 0 0
2017/11/07 05:51:00 BASE 2.46 124 2.88 105 0.5 100 0.5 0 0 997.8 NA 0.0000 9999 2950 0 0 0
2017/11/07 05:52:00 BASE 2.65 114 3.09 109 0.6 100 0.6 0 0 997.8 NA 0.0000 9999 2920 0 0 0
2017/11/07 05:53:00 BASE 2.89 108 3.09 101 0.7 100 0.7 0 0 997.8 NA 0.0000 9999 2920 0 0 0
2017/11/07 05:54:00 BASE 2.88 109 3.09 101 0.8 100 0.8 0 0 997.9 NA 0.0000 9999 2890 0 0 0
2017/11/07 05:55:00 BASE 2.86 110 3.09 101 1.1 100 1.1 0 0 997.9 NA 0.0000 9999 2950 0 0 0
2017/11/07 05:56:00 BASE 2.77 110 3.09 101 1.3 100 1.3 0 0 997.9 NA 0.0000 9999 2920 0 0 0
2017/11/07 05:57:00 BASE 2.57 114 3.09 101 1.5 100 1.5 0 0 997.9 NA 0.0000 9999 2890 0 0 0
2017/11/07 05:58:00 BASE 2.41 126 3.09 101 1.5 100 1.5 0 0 997.9 NA 0.0000 9999 2850 0 0 0
2017/11/07 05:59:00 BASE 2.25 129 3.09 101 1.4 100 1.4 0 0 997.8 NA 0.0000 9999 2820 0 0 0
2017/11/07 06:00:00 BASE 1.99 122 3.09 101 1.2 100 1.2 0 0 997.9 NA 0.0000 9999 2890 0 0 0
2017/11/07 06:01:00 BASE 1.70 115 3.09 101 1.0 100 1.0 0 0 997.9 NA 0.0000 9999 2920 0 0 0
2017/11/07 06:02:00 BASE 1.87 105 3.09 101 0.9 100 0.9 0 0 997.9 NA 0.0000 9999 2950 0 0 0
2017/11/07 06:03:00 BASE 2.39 105 2.98 109 0.9 100 0.9 0 0 997.9 NA 0.0000 9999 2990 0 0 0
2017/11/07 06:04:00 BASE 2.60 110 2.98 109 1.0 100 1.0 0 0 997.8 NA 0.0000 9999 2890 0 0 0
2017/11/07 06:05:00 BASE 2.58 110 2.88 109 1.1 100 1.1 0 0 997.8 NA 0.0000 9999 2920 0 0 0
2017/11/07 06:06:00 BASE 2.58 109 2.93 111 1.3 100 1.3 0 0 997.8 NA 0.0000 9999 2920 0 0 0
2017/11/07 06:07:00 BASE 2.20 116 2.93 111 1.5 100 1.5 0 0 997.8 NA 0.0000 9999 2890 0 0 0
2017/11/07 06:08:00 BASE 1.54 143 2.93 111 1.4 100 1.4 0 0 997.8 NA 0.0000 9999 2820 0 0 0
2017/11/07 06:09:00 BASE 1.39 163 2.93 111 1.3 100 1.3 0 0 997.8 NA 0.0000 9999 2850 0 0 0
2017/11/07 06:10:00 BASE 2.62 158 4.84 134 1.1 100 1.1 0 0 997.8 NA 0.0000 9999 2850 0 0 0
2017/11/07 06:11:00 BASE 3.65 141 4.84 134 0.8 100 0.8 0 0 997.8 NA 0.0000 9999 2890 0 0 0
2017/11/07 06:12:00 BASE 3.85 134 4.94 130 0.5 100 0.5 0 0 997.8 NA 0.0000 9999 2890 0 0 0
2017/11/07 06:13:00 BASE 4.04 128 4.94 130 0.4 100 0.4 0 0 997.8 NA 0.0000 9999 2920 0 0 0
2017/11/07 06:14:00 BASE 3.28 122 4.94 130 0.2 100 0.2 0 0 997.8 NA 0.0000 9999 2820 0 0 0
2017/11/07 06:15:00 BASE 3.51 123 5.25 120 0.1 100 0.1 0 0 997.8 NA 0.0000 9999 2790 0 0 0
2017/11/07 06:16:00 BASE 4.15 117 5.25 120 0.1 100 0.1 0 0 997.8 NA 0.0000 9999 2820 0 0 0
2017/11/07 06:17:00 BASE 3.78 115 5.25 120 0.1 100 0.1 0 0 997.8 NA 0.0000 9999 2760 0 0 0
2017/11/07 06:18:00 BASE 3.96 115 5.25 120 0.1 100 0.1 0 0 997.8 NA 0.0000 9999 2790 0 0 0
2017/11/07 06:19:00 BASE 4.33 112 5.25 120 0.1 100 0.1 0 0 997.8 NA 0.0000 9999 2790 0 0 0
2017/11/07 06:20:00 BASE 4.19 110 5.25 120 0.1 100 0.1 0 0 997.8 NA 0.0000 9999 2760 0 0 0
2017/11/07 06:21:00 BASE 4.08 111 5.25 120 0.1 100 0.1 0 0 997.8 NA 0.0000 9999 2760 0 0 0
2017/11/07 06:22:00 BASE 4.33 112 5.25 120 0.2 100 0.2 0 0 997.8 NA 0.0000 9999 2760 0 0 0
2017/11/07 06:23:00 BASE 4.29 112 5.25 120 0.2 100 0.2 0 0 997.8 NA 0.0000 9999 2760 0 0 0
2017/11/07 06:24:00 BASE 4.12 114 5.25 120 0.3 100 0.3 0 0 997.8 NA 0.0000 9999 2720 0 0 0
2017/11/07 06:25:00 BASE 4.43 115 4.99 115 0.3 100 0.3 0 0 997.7 NA 0.0000 9999 2690 0 0 0
2017/11/07 06:26:00 BASE 4.62 114 5.04 113 0.4 100 0.4 0 0 997.7 NA 0.0000 9999 2690 0 0 0
2017/11/07 06:27:00 BASE 4.32 115 5.04 113 0.4 100 0.4 0 0 997.8 NA 0.0000 9999 2690 0 0 0
2017/11/07 06:28:00 BASE 4.09 117 5.04 113 0.4 100 0.4 0 0 997.8 NA 0.0000 9999 2720 0 0 0
2017/11/07 06:29:00 BASE 3.93 117 5.04 113 0.4 100 0.4 0 0 997.7 NA 0.0000 9999 2720 0 0 0
2017/11/07 06:30:00 BASE 3.85 118 5.04 113 0.4 100 0.4 0 0 997.7 NA 0.0000 9999 2590 0 0 0
2017/11/07 06:31:00 BASE 4.05 116 5.04 113 0.5 100 0.5 0 0 997.7 NA 0.0000 9999 2620 0 0 0
2017/11/07 06:32:00 BASE 4.30 114 5.04 113 0.5 100 0.5 0 0 997.6 NA 0.0000 9999 2620 0 0 0
2017/11/07 06:33:00 BASE 4.41 117 5.04 113 0.5 100 0.5 0 0 997.6 NA 0.0000 9999 2590 0 0 0
2017/11/07 06:34:00 BASE 4.15 118 5.04 113 0.6 100 0.6 0 0 997.6 NA 0.0000 9999 2560 0 0 0
2017/11/07 06:35:00 BASE 3.96 117 5.04 113 0.6 100 0.6 0 0 997.7 NA 0.0000 9999 2660 0 0 0
2017/11/07 06:36:00 BASE 4.05 114 4.78 119 0.6 100 0.6 0 0 997.6 NA 0.0000 9999 2560 0 0 0
2017/11/07 06:37:00 BASE 3.85 113 4.78 119 0.6 100 0.6 0 0 997.6 NA 0.0000 9999 2590 0 0 0
2017/11/07 06:38:00 BASE 3.55 114 4.78 119 0.7 100 0.7 0 0 997.6 NA 0.0000 9999 2660 0 0 0
2017/11/07 06:39:00 BASE 3.52 113 4.78 119 0.7 100 0.7 0 0 997.6 NA 0.0000 9999 2620 0 0 0
2017/11/07 06:40:00 BASE 3.47 114 4.78 119 0.8 100 0.8 0 0 997.5 NA 0.0000 9999 2560 0 0 0
2017/11/07 06:41:00 BASE 3.31 115 4.78 119 0.8 100 0.8 0 0 997.5 NA 0.0000 9999 2590 0 0 0
2017/11/07 06:42:00 BASE 3.25 113 4.78 119 0.8 100 0.8 0 0 997.5 NA 0.0000 9999 2560 0 0 0
2017/11/07 06:43:00 BASE 3.07 113 4.48 119 0.9 100 0.9 0 0 997.5 NA 0.0000 9999 2560 0 0 0
2017/11/07 06:44:00 BASE 2.64 118 4.42 118 0.9 100 0.9 0 0 997.5 NA 0.0000 9999 2590 0 0 0
2017/11/07 06:45:00 BASE 2.48 125 4.42 118 1.0 100 1.0 0 1 997.5 NA 0.0000 9999 2590 0 0 0
2017/11/07 06:46:00 BASE 2.82 120 4.06 112 1.0 100 1.0 0 1 997.5 NA 0.0000 9999 2560 0 0 0
2017/11/07 06:47:00 BASE 3.18 106 3.96 117 1.1 100 1.1 0 1 997.4 NA 0.0000 9999 2400 0 0 0
2017/11/07 06:48:00 BASE 3.01 102 3.86 116 1.1 100 1.1 0 1 997.4 NA 0.0000 9999 2460 0 0 0
2017/11/07 06:49:00 BASE 3.13 100 4.01 98 1.1 100 1.1 0 1 997.4 NA 0.0000 9999 2460 0 0 0
2017/11/07 06:50:00 BASE 3.93 95 4.53 90 1.2 100 1.2 0 1 997.3 NA 0.0000 9999 2260 0 0 0
2017/11/07 06:51:00 BASE 4.38 90 4.53 90 1.3 100 1.3 0 1 997.3 NA 0.0000 9999 2360 0 0 0
2017/11/07 06:52:00 BASE 4.30 91 4.53 90 1.4 100 1.4 0 1 997.3 NA 0.0000 9999 2360 0 0 0
2017/11/07 06:53:00 BASE 4.30 97 4.53 101 1.6 100 1.6 0 1 997.2 NA 0.0000 9999 2300 0 0 0
2017/11/07 06:54:00 BASE 4.44 102 4.78 103 1.7 100 1.7 0 1 997.2 NA 0.0000 9999 2230 0 0 0
2017/11/07 06:55:00 BASE 4.60 106 5.14 109 1.9 100 1.9 0 1 997.2 NA 0.0000 9999 2170 0 0 0
2017/11/07 06:56:00 BASE 4.57 106 5.14 109 2.1 100 2.1 0 1 997.2 NA 0.0000 9999 2200 0 0 0
2017/11/07 06:57:00 BASE 4.67 105 5.35 102 2.3 100 2.3 0 1 997.2 NA 0.0000 9999 2300 0 0 0
2017/11/07 06:58:00 BASE 4.98 105 5.66 109 2.4 100 2.4 0 1 997.1 NA 0.0000 9999 2330 0 0 0
2017/11/07 06:59:00 BASE 5.21 107 5.66 109 2.6 100 2.6 0 1 997.1 NA 0.0000 9999 2230 0 0 0
2017/11/07 07:00:00 BASE 5.23 106 5.66 109 2.7 100 2.7 0 1 997.1 NA 0.0000 9999 2230 0 0 0
2017/11/07 07:01:00 BASE 5.17 104 5.66 109 2.8 100 2.8 0 1 997.1 NA 0.0000 9999 2230 0 0 0
2017/11/07 07:02:00 BASE 5.12 100 5.66 109 2.9 100 2.9 0 1 997.1 NA 0.0000 9999 2230 0 0 0
2017/11/07 07:03:00 BASE 5.15 97 5.81 107 2.9 100 2.9 0 1 997.0 NA 0.0000 9999 2260 0 0 0
2017/11/07 07:04:00 BASE 5.37 99 5.81 107 3.0 100 2.9 0 2 997.0 NA 0.0000 9999 2300 0 0 0
2017/11/07 07:05:00 BASE 5.54 101 5.92 100 3.1 99 3.0 0 2 997.0 NA 0.0000 9999 2260 0 0 0
2017/11/07 07:06:00 BASE 5.58 98 6.02 93 3.1 99 2.9 0 2 997.0 NA 0.0000 9999 2230 0 0 0
2017/11/07 07:07:00 BASE 5.83 91 6.28 84 3.1 98 2.8 0 2 997.0 NA 0.0000 9999 2260 0 0 0
2017/11/07 07:08:00 BASE 6.00 83 6.28 84 3.1 98 2.7 0 2 997.0 NA 0.0000 9999 2260 0 0 0
2017/11/07 07:09:00 BASE 6.01 81 6.28 84 3.0 97 2.6 1 2 997.0 NA 0.0000 9999 2260 0 0 0
2017/11/07 07:10:00 BASE 6.01 80 6.28 80 2.9 97 2.5 1 2 997.0 NA 0.0000 9999 2130 0 0 0
2017/11/07 07:11:00 BASE 5.82 82 6.38 91 2.9 97 2.4 1 2 996.9 NA 0.0000 9999 2200 0 0 0
2017/11/07 07:12:00 BASE 6.01 89 6.53 91 2.8 97 2.4 1 2 996.8 NA 0.0000 9999 2260 0 0 0
2017/11/07 07:13:00 BASE 6.24 98 6.74 106 2.8 97 2.4 1 3 996.8 NA 0.0000 9999 2260 0 0 0
2017/11/07 07:14:00 BASE 6.40 102 7.25 103 2.9 97 2.4 1 3 996.8 NA 0.0000 9999 2130 0 0 0
2017/11/07 07:15:00 BASE 6.42 99 7.25 103 3.0 97 2.5 1 3 996.8 NA 0.0000 9999 2200 0 0 0
2017/11/07 07:16:00 BASE 6.35 99 7.25 103 3.1 96 2.5 1 3 996.7 NA 0.0000 9999 2170 0 0 0
2017/11/07 07:17:00 BASE 6.59 103 7.25 103 3.2 96 2.6 1 3 996.7 NA 0.0000 9999 2130 0 0 0
2017/11/07 07:18:00 BASE 6.36 104 7.25 103 3.4 95 2.7 1 3 996.7 NA 0.0000 9999 2130 0 0 0
2017/11/07 07:19:00 BASE 6.10 104 7.25 103 3.5 94 2.6 1 3 996.7 NA 0.0000 9999 1480 0 0 0
2017/11/07 07:20:00 BASE 6.36 103 7.25 103 3.6 93 2.6 1 3 996.6 NA 0.0000 9999 2230 0 0 0
2017/11/07 07:21:00 BASE 6.68 102 7.25 103 3.6 93 2.5 1 4 996.6 NA 0.0000 9999 2170 0 0 0
2017/11/07 07:22:00 BASE 6.58 100 7.25 103 3.6 92 2.5 1 4 996.6 NA 0.0000 9999 2000 0 0 0
2017/11/07 07:23:00 BASE 6.15 95 7.25 103 3.6 92 2.4 1 4 996.7 NA 0.0000 9999 1020 0 0 0
2017/11/07 07:24:00 BASE 5.79 95 7.20 100 3.6 91 2.3 1 4 996.7 NA 0.0000 9999 2170 0 0 0
2017/11/07 07:25:00 BASE 4.92 93 7.20 100 3.6 91 2.3 1 4 996.8 NA 0.0000 UP 7000 2130 0 0 0
2017/11/07 07:26:00 BASE 4.37 94 7.20 100 3.6 91 2.2 1 4 996.7 NA 0.0000 UP 5000 460 0 0 0
2017/11/07 07:27:00 BASE 4.48 97 7.20 100 3.6 90 2.2 1 4 996.7 NA 0.0000 UP BR 5000 2300 0 0 0
2017/11/07 07:28:00 BASE 4.12 94 7.20 100 3.6 90 2.2 1 5 996.7 NA 0.0000 UP BR 4700 2200 0 0 0
2017/11/07 07:29:00 BASE 3.26 88 7.20 100 3.7 90 2.3 1 5 996.7 NA 0.0000 UP BR 5000 2200 0 0 0
2017/11/07 07:30:00 BASE 2.40 69 7.20 100 3.8 90 2.4 1 5 996.7 NA 0.0000 UP BR 6000 2230 0 0 0
2017/11/07 07:31:00 BASE 2.01 53 7.05 98 3.9 91 2.5 1 5 996.7 NA 0.0000 UP BR 8000 2170 0 0 0
2017/11/07 07:32:00 BASE 1.86 64 6.38 90 4.0 91 2.6 1 5 996.7 NA 0.0000 UP BR 9999 2200 0 0 0
2017/11/07 07:33:00 BASE 1.87 80 6.12 103 4.3 91 2.9 1 5 996.7 NA 0.0000 UP BR 9999 2200 0 0 0
2017/11/07 07:34:00 BASE 1.80 100 6.12 103 4.5 91 3.1 1 5 996.7 NA 0.0000 UP BR 9999 2300 0 0 0
2017/11/07 07:35:00 BASE 1.50 100 4.99 103 4.6 90 3.1 1 6 996.8 NA 0.0000 UP BR 9999 2200 0 0 0
2017/11/07 07:36:00 BASE 2.07 2 4.89 91 4.5 89 2.8 1 6 996.8 NA 0.0000 UP BR 9999 2260 0 0 0
2017/11/07 07:37:00 BASE 3.11 326 4.48 90 4.1 89 2.4 1 5 996.8 NA 0.0000 UP BR 9999 2330 0 0 0
2017/11/07 07:38:00 BASE 3.10 317 4.12 318 3.4 89 1.8 1 6 996.8 NA 0.0000 BR 9999 2330 0 0 0
2017/11/07 07:39:00 BASE 2.90 304 4.12 318 2.7 90 1.3 1 6 996.8 NA 0.0000 9999 2330 0 0 0
2017/11/07 07:40:00 BASE 2.97 303 4.12 318 2.1 92 1.0 1 6 996.8 NA 0.0000 9999 2330 0 0 0
2017/11/07 07:41:00 BASE 3.51 305 4.37 308 1.6 94 0.8 2 6 996.8 NA 0.0000 9999 2230 0 0 0
2017/11/07 07:42:00 BASE 4.08 309 4.68 305 1.4 96 0.8 2 7 996.8 NA 0.0000 9999 2260 0 0 0
2017/11/07 07:43:00 BASE 4.26 308 4.68 305 1.2 97 0.8 2 7 996.8 NA 0.0000 9999 2260 0 0 0
2017/11/07 07:44:00 BASE 4.58 305 5.14 304 1.0 98 0.8 2 7 996.8 NA 0.0000 9999 2100 0 0 0
2017/11/07 07:45:00 BASE 4.82 302 5.14 304 0.8 99 0.7 2 8 996.8 NA 0.0000 9999 1870 0 0 0
2017/11/07 07:46:00 BASE 4.85 299 5.14 304 0.7 99 0.6 2 8 996.8 NA 0.0000 9999 1150 0 0 0
2017/11/07 07:47:00 BASE 4.60 295 5.14 304 0.6 100 0.6 2 8 996.8 NA 0.0000 9999 890 2300 0 0
2017/11/07 07:48:00 BASE 4.27 296 5.14 304 0.5 100 0.5 2 8 996.9 NA 0.0000 9999 590 0 0 0
2017/11/07 07:49:00 BASE 4.28 301 5.14 304 0.4 100 0.4 2 8 997.0 NA 0.0000 9999 1640 0 0 0
2017/11/07 07:50:00 BASE 4.54 304 5.14 304 0.4 100 0.4 2 9 997.0 NA 0.0000 9999 1440 0 0 0
2017/11/07 07:51:00 BASE 4.55 306 5.14 304 0.3 100 0.3 3 10 997.0 NA 0.0000 9999 2200 0 0 0
2017/11/07 07:52:00 BASE 4.11 304 5.14 304 0.3 100 0.3 3 11 997.0 NA 0.0000 9999 2300 0 0 0
2017/11/07 07:53:00 BASE 3.90 306 5.14 304 0.3 100 0.3 3 11 997.0 NA 0.0000 9999 2260 0 0 0
2017/11/07 07:54:01 BASE 4.32 314 5.04 297 0.3 100 0.3 3 12 997.0 NA 0.0000 9999 2230 0 0 0
2017/11/07 07:55:00 BASE 4.85 316 5.97 314 0.3 100 0.3 4 13 997.0 NA 0.0000 9999 2230 0 0 0
2017/11/07 07:56:00 BASE 5.84 314 7.05 313 0.3 100 0.3 4 13 997.0 NA 0.0000 9999 2230 0 0 0
2017/11/07 07:57:00 BASE 6.40 315 7.05 313 0.2 100 0.2 4 14 997.0 NA 0.0000 9999 2170 0 0 0
2017/11/07 07:58:00 BASE 5.76 315 7.05 313 0.2 100 0.2 5 15 997.0 NA 0.0000 9999 2170 0 0 0
2017/11/07 07:59:00 BASE 4.83 314 7.05 313 0.1 100 0.1 5 16 997.0 NA 0.0000 9999 2170 0 0 0
2017/11/07 08:00:00 BASE 4.07 312 7.05 313 0.1 100 0.1 5 17 997.0 NA 0.0000 9999 2170 0 0 0
2017/11/07 08:01:00 BASE 3.77 309 7.05 313 0.0 100 0.0 5 17 997.0 NA 0.0000 9999 2130 0 0 0
2017/11/07 08:02:00 BASE 3.97 311 7.05 313 0.0 100 -0.0 5 17 997.0 NA 0.0000 9999 2170 0 0 0
2017/11/07 08:03:00 BASE 4.13 318 7.05 313 -0.0 100 -0.0 5 17 997.1 NA 0.0000 9999 2230 0 0 0
2017/11/07 08:04:00 BASE 3.97 320 7.05 313 -0.0 100 -0.0 5 17 997.0 NA 0.0000 9999 2300 0 0 0
2017/11/07 08:05:00 BASE 3.61 315 7.05 313 -0.1 100 -0.1 5 18 997.0 NA 0.0000 9999 2230 0 0 0
2017/11/07 08:06:00 BASE 3.17 309 6.74 317 -0.1 100 -0.1 5 18 997.0 NA 0.0000 9999 2260 0 0 0
2017/11/07 08:07:00 BASE 3.04 305 6.07 321 -0.1 100 -0.1 5 18 997.1 NA 0.0000 9999 2330 0 0 0
2017/11/07 08:08:00 BASE 3.08 304 4.89 315 -0.1 100 -0.1 5 18 997.1 NA 0.0000 9999 2300 0 0 0
2017/11/07 08:09:00 BASE 3.23 303 4.48 302 -0.1 100 -0.1 5 19 997.1 NA 0.0000 9999 2300 0 0 0
2017/11/07 08:10:00 BASE 3.27 298 4.48 302 -0.1 100 -0.1 6 20 997.0 NA 0.0000 9999 2300 0 0 0
2017/11/07 08:11:00 BASE 3.24 294 4.37 320 -0.1 100 -0.1 6 20 997.0 NA 0.0000 9999 2170 0 0 0
2017/11/07 08:12:00 BASE 3.30 296 4.32 318 -0.1 100 -0.1 6 21 997.0 NA 0.0000 9999 2230 0 0 0
2017/11/07 08:13:00 BASE 3.19 298 4.17 318 -0.2 100 -0.2 6 21 997.0 NA 0.0000 9999 2170 0 0 0
2017/11/07 08:14:00 BASE 2.94 298 3.76 310 -0.2 100 -0.2 6 22 997.0 NA 0.0000 9999 2200 0 0 0
2017/11/07 08:15:00 BASE 2.80 298 3.65 301 -0.2 100 -0.2 6 21 997.0 NA 0.0000 9999 2230 0 0 0
2017/11/07 08:16:00 BASE 2.90 298 3.65 301 -0.2 100 -0.2 6 20 997.0 NA 0.0000 9999 2200 0 0 0
2017/11/07 08:17:00 BASE 2.91 298 3.65 301 -0.2 100 -0.2 6 21 997.0 NA 0.0000 9999 2170 0 0 0
2017/11/07 08:18:00 BASE 2.68 295 3.65 301 -0.2 100 -0.2 6 21 997.0 NA 0.0000 9999 2200 0 0 0
2017/11/07 08:19:00 BASE 2.22 291 3.55 293 -0.2 100 -0.2 6 21 997.0 NA 0.0000 9999 2200 0 0 0
2017/11/07 08:20:00 BASE 1.84 291 3.55 293 -0.2 100 -0.2 6 22 997.0 NA 0.0000 9999 2200 0 0 0
2017/11/07 08:21:00 BASE 1.75 290 3.45 297 -0.2 100 -0.2 6 22 997.0 NA 0.0000 9999 2200 0 0 0
2017/11/07 08:22:00 BASE 1.54 295 3.24 296 -0.2 100 -0.2 7 22 997.0 NA 0.0000 9999 2100 0 0 0
2017/11/07 08:23:00 BASE 1.39 301 3.09 298 -0.2 100 -0.2 7 23 997.0 NA 0.0000 9999 2070 0 0 0
2017/11/07 08:24:00 BASE 1.47 313 3.09 298 -0.3 100 -0.3 7 24 997.0 NA 0.0000 9999 2000 0 0 0
2017/11/07 08:25:00 BASE 1.35 327 3.09 298 -0.3 100 -0.3 8 26 997.0 NA 0.0000 9999 2100 0 0 0
2017/11/07 08:26:00 BASE 1.14 330 3.09 298 -0.3 100 -0.3 9 28 997.0 NA 0.0000 9999 2030 0 0 0
2017/11/07 08:27:00 BASE 1.12 327 2.68 286 -0.3 100 -0.3 10 30 997.0 NA 0.0000 9999 2100 0 0 0
2017/11/07 08:28:00 BASE 1.24 330 2.31 288 -0.3 100 -0.3 10 32 997.0 NA 0.0000 9999 2070 0 0 0
2017/11/07 08:29:01 BASE 1.50 346 2.06 360 -0.3 100 -0.3 11 34 996.9 NA 0.0000 9999 2100 0 0 0
2017/11/07 08:30:00 BASE 1.63 357 2.06 360 -0.3 100 -0.3 12 37 996.8 NA 0.0000 9999 2100 0 0 0
2017/11/07 08:31:00 BASE 1.55 8 2.06 360 -0.3 100 -0.3 14 40 996.8 NA 0.0000 9999 2070 0 0 0
2017/11/07 08:32:00 BASE 1.46 18 2.06 360 -0.3 100 -0.3 15 44 996.8 NA 0.0000 9999 1970 0 0 0
2017/11/07 08:33:00 BASE 0.75 20 2.06 360 -0.2 100 -0.2 17 48 996.8 NA 0.0000 9999 1970 0 0 0
2017/11/07 08:34:00 BASE 0.04 18 2.06 360 -0.1 100 -0.1 18 50 996.8 NA 0.0000 9999 2000 0 0 0
2017/11/07 08:35:00 BASE 0.49 15 2.06 360 -0.1 100 -0.1 18 52 996.8 NA 0.0000 9999 2030 0 0 0
2017/11/07 08:36:00 BASE 1.34 16 2.06 360 -0.0 100 -0.0 19 52 996.8 NA 0.0000 9999 1970 0 0 0
2017/11/07 08:37:00 BASE 1.11 11 2.06 360 0.0 100 0.0 19 53 996.8 NA 0.0000 9999 2000 0 0 0
2017/11/07 08:38:00 BASE 0.26 4 2.06 360 0.1 100 0.1 19 54 996.8 NA 0.0000 9999 1970 0 0 0
2017/11/07 08:39:00 BASE 0.00 6 1.95 24 0.3 100 0.3 20 57 996.7 NA 0.0000 9999 1840 0 0 0
2017/11/07 08:40:00 BASE 0.00 151 1.95 24 0.5 100 0.5 22 61 996.7 NA 0.0000 9999 2030 0 0 0
2017/11/07 08:41:00 BASE 0.00 159 1.95 24 0.6 100 0.6 23 65 996.7 NA 0.0000 9999 2000 0 0 0
2017/11/07 08:42:00 BASE 0.34 128 1.95 24 0.8 100 0.8 25 68 996.7 NA 0.0000 9999 1970 0 0 0
2017/11/07 08:43:00 BASE 1.29 69 2.11 67 0.7 100 0.7 26 71 996.6 NA 0.0000 9999 1970 0 0 0
2017/11/07 08:44:00 BASE 1.72 77 2.11 67 0.7 100 0.7 27 72 996.6 NA 0.0000 9999 2000 0 0 0
2017/11/07 08:45:00 BASE 1.18 120 2.11 67 0.7 100 0.7 26 71 996.7 NA 0.0000 9999 1940 0 0 0
2017/11/07 08:46:00 BASE 0.40 172 2.11 67 0.7 100 0.7 24 69 996.8 NA 0.0000 9999 2100 0 0 0
2017/11/07 08:47:00 BASE 0.05 191 2.11 67 0.8 100 0.8 23 67 996.8 NA 0.0000 9999 2070 0 0 0
2017/11/07 08:48:00 BASE 0.19 194 2.11 67 1.0 100 1.0 22 64 996.8 NA 0.0000 9999 2030 0 0 0
2017/11/07 08:49:00 BASE 0.87 196 2.11 67 1.1 100 1.1 21 62 996.8 NA 0.0000 9999 2070 0 0 0
2017/11/07 08:50:00 BASE 1.60 179 2.16 171 1.2 100 1.2 20 60 996.8 NA 0.0000 9999 2100 0 0 0
2017/11/07 08:51:00 BASE 1.74 172 2.16 171 1.3 100 1.3 19 57 996.8 NA 0.0000 9999 2070 0 0 0
2017/11/07 08:52:00 BASE 1.31 175 2.16 171 1.3 100 1.3 18 56 996.8 NA 0.0000 9999 2070 0 0 0
2017/11/07 08:53:00 BASE 0.44 197 2.16 171 1.3 100 1.3 19 58 996.8 NA 0.0000 9999 2070 0 0 0
2017/11/07 08:54:00 BASE 0.00 234 2.16 171 1.2 100 1.2 20 60 996.8 NA 0.0000 9999 2100 0 0 0
2017/11/07 08:55:00 BASE 0.00 235 2.16 171 1.1 100 1.1 19 60 996.8 NA 0.0000 9999 2070 0 0 0
2017/11/07 08:56:00 BASE 0.00 227 2.16 171 1.1 100 1.1 19 60 996.8 NA 0.0000 9999 2000 0 0 0
2017/11/07 08:57:00 BASE 0.23 269 2.16 171 1.0 100 1.0 20 61 996.8 NA 0.0000 9999 2030 0 0 0
2017/11/07 08:58:00 BASE 0.56 344 2.16 171 0.9 100 0.9 20 61 996.8 NA 0.0000 9999 2000 0 0 0
2017/11/07 08:59:00 BASE 0.98 1 2.16 171 0.8 100 0.8 20 61 996.8 NA 0.0000 9999 2000 0 0 0
2017/11/07 09:00:00 BASE 0.87 354 1.95 172 0.7 100 0.7 20 62 996.8 NA 0.0000 9999 2000 0 0 0
2017/11/07 09:01:00 BASE 0.42 319 1.75 211 0.7 100 0.7 20 61 996.8 NA 0.0000 9999 2000 0 0 0
2017/11/07 09:02:00 BASE 1.01 226 2.11 211 0.7 100 0.7 19 60 996.8 NA 0.0000 9999 1970 0 0 0
2017/11/07 09:03:00 BASE 1.69 208 2.11 211 0.8 100 0.8 19 58 996.7 NA 0.0000 9999 1970 0 0 0
2017/11/07 09:04:00 BASE 0.99 205 2.11 211 0.9 100 0.9 18 58 996.8 NA 0.0000 9999 1940 0 0 0
2017/11/07 09:05:00 BASE 0.37 208 2.11 211 1.0 100 1.0 18 58 996.8 NA 0.0000 9999 1900 0 0 0
2017/11/07 09:06:00 BASE 0.34 221 2.11 211 1.1 100 1.1 19 59 996.8 NA 0.0000 9999 1900 0 0 0
2017/11/07 09:07:00 BASE 0.10 230 2.11 211 1.2 100 1.2 20 62 996.8 NA 0.0000 9999 1900 0 0 0
2017/11/07 09:08:00 BASE 0.09 235 2.11 211 1.1 100 1.1 22 66 996.8 NA 0.0000 9999 1940 0 0 0
2017/11/07 09:09:00 BASE 0.09 240 2.11 211 1.1 100 1.1 23 69 996.8 NA 0.0000 9999 1940 0 0 0
2017/11/07 09:10:00 BASE 0.00 238 2.11 211 1.0 100 1.0 23 71 996.8 NA 0.0000 9999 1940 0 0 0
2017/11/07 09:11:00 BASE 0.00 238 2.11 211 1.0 100 1.0 24 71 996.8 NA 0.0000 9999 1940 0 0 0
2017/11/07 09:12:00 BASE 0.26 241 2.06 204 1.0 100 1.0 24 72 996.8 NA 0.0000 9999 2000 0 0 0
2017/11/07 09:13:00 BASE 0.93 240 1.59 209 0.9 100 0.9 24 73 996.8 NA 0.0000 9999 1940 0 0 0
2017/11/07 09:14:00 BASE 1.25 219 1.65 192 0.8 100 0.8 25 75 996.7 NA 0.0000 9999 1970 0 0 0
2017/11/07 09:15:00 BASE 0.71 185 1.65 192 0.6 100 0.6 26 79 996.7 NA 0.0000 9999 1940 0 0 0
2017/11/07 09:16:00 BASE 0.13 160 1.65 192 0.5 100 0.5 28 82 996.7 NA 0.0000 9999 1940 0 0 0
2017/11/07 09:17:00 BASE 0.00 149 1.65 192 0.4 100 0.4 28 84 996.8 NA 0.0000 9999 1870 0 0 0
2017/11/07 09:18:00 BASE 0.00 157 1.65 192 0.3 100 0.3 29 86 996.8 NA 0.0000 9999 1480 0 0 0
2017/11/07 09:19:00 BASE 0.09 176 1.65 192 0.3 100 0.3 30 89 996.8 NA 0.0000 9999 1870 0 0 0
2017/11/07 09:20:00 BASE 0.09 187 1.65 192 0.3 100 0.3 31 92 996.8 NA 0.0000 9999 1870 0 0 0
2017/11/07 09:21:00 BASE 0.05 186 1.65 192 0.3 100 0.3 33 95 996.8 NA 0.0000 9999 1840 0 0 0
2017/11/07 09:22:00 BASE 0.28 179 1.65 192 0.3 100 0.3 34 100 996.8 NA 0.0000 9999 1840 0 0 0
2017/11/07 09:23:00 BASE 0.91 169 1.85 173 0.3 100 0.3 37 105 996.8 NA 0.0000 9999 1800 0 0 0
2017/11/07 09:24:00 BASE 1.47 156 2.16 161 0.4 100 0.4 40 112 996.8 NA 0.0000 9999 1800 0 0 0
2017/11/07 09:25:00 BASE 1.64 160 2.16 161 0.4 100 0.4 44 121 996.7 NA 0.0000 9999 1870 0 0 0
2017/11/07 09:26:00 BASE 1.50 164 2.16 161 0.4 100 0.4 46 126 996.8 NA 0.0000 9999 1940 0 0 0
2017/11/07 09:27:00 BASE 1.31 164 2.16 161 0.4 100 0.4 46 126 996.8 NA 0.0000 9999 1970 0 0 0
2017/11/07 09:28:00 BASE 1.40 169 2.16 161 0.4 100 0.4 45 125 996.8 NA 0.0000 9999 1970 0 0 0
2017/11/07 09:29:00 BASE 1.64 161 2.16 161 0.5 100 0.5 45 125 996.8 NA 0.0000 9999 1940 0 0 0
2017/11/07 09:30:00 BASE 1.85 158 2.37 168 0.5 100 0.5 45 125 996.8 NA 0.0000 9999 1940 0 0 0
2017/11/07 09:31:00 BASE 1.84 157 2.37 168 0.5 100 0.5 45 125 996.8 NA 0.0000 9999 1940 0 0 0
2017/11/07 09:32:00 BASE 1.59 153 2.37 168 0.5 100 0.5 45 126 996.8 NA 0.0000 9999 1940 0 0 0
2017/11/07 09:33:00 BASE 1.41 148 2.37 168 0.5 100 0.4 46 130 996.8 NA 0.0000 9999 1940 0 0 0
2017/11/07 09:34:00 BASE 1.11 139 2.37 168 0.4 100 0.4 47 131 996.8 NA 0.0000 9999 1970 0 0 0
2017/11/07 09:35:00 BASE 0.42 128 2.37 168 0.4 100 0.4 47 131 997.0 NA 0.0000 9999 1940 0 0 0
2017/11/07 09:36:00 BASE 0.00 128 2.37 168 0.4 100 0.4 48 134 997.0 NA 0.0000 9999 1900 0 0 0
2017/11/07 09:37:00 BASE 0.00 249 2.37 168 0.4 100 0.4 49 136 997.0 NA 0.0000 9999 1900 0 0 0
2017/11/07 09:38:00 BASE 0.00 300 2.37 168 0.4 100 0.4 49 136 997.0 NA 0.0000 9999 1940 0 0 0
2017/11/07 09:39:00 BASE 0.00 289 2.37 168 0.4 100 0.4 49 137 997.0 NA 0.0000 9999 1940 0 0 0
2017/11/07 09:40:00 BASE 0.43 220 2.31 166 0.4 100 0.4 50 138 997.0 NA 0.0000 9999 1940 0 0 0
2017/11/07 09:41:00 BASE 0.86 199 1.65 153 0.4 100 0.4 52 143 997.0 NA 0.0000 9999 1900 0 0 0
2017/11/07 09:42:00 BASE 0.48 213 1.65 153 0.4 100 0.4 55 150 997.1 NA 0.0000 9999 1900 0 0 0
2017/11/07 09:43:00 BASE 0.04 222 1.44 140 0.4 100 0.4 56 153 997.1 NA 0.0000 9999 1940 0 0 0
2017/11/07 09:44:00 BASE 0.41 231 1.49 244 0.4 100 0.4 57 156 997.1 NA 0.0000 9999 1900 0 0 0
2017/11/07 09:45:00 BASE 1.05 235 1.49 244 0.4 100 0.4 60 162 997.1 NA 0.0000 9999 1870 0 0 0
2017/11/07 09:46:00 BASE 1.19 218 1.54 196 0.4 100 0.4 60 162 997.1 NA 0.0000 9999 1900 0 0 0
2017/11/07 09:47:00 BASE 1.25 196 1.80 188 0.4 100 0.4 58 161 997.1 NA 0.0000 9999 1870 0 0 0
2017/11/07 09:48:00 BASE 1.34 170 1.85 152 0.4 100 0.4 58 160 997.1 NA 0.0000 9999 1900 0 0 0
2017/11/07 09:49:00 BASE 0.63 157 1.85 152 0.4 100 0.4 58 160 997.1 NA 0.0000 9999 1900 0 0 0
2017/11/07 09:50:00 BASE 0.00 166 1.85 152 0.4 100 0.4 60 165 997.1 NA 0.0000 9999 1900 0 0 0
2017/11/07 09:51:00 BASE 0.00 178 1.85 152 0.5 100 0.5 63 173 997.1 NA 0.0000 9999 1900 0 0 0
2017/11/07 09:52:00 BASE 0.33 181 1.85 152 0.5 100 0.5 65 177 997.1 NA 0.0000 9999 1870 0 0 0
2017/11/07 09:53:00 BASE 1.09 182 1.95 185 0.5 100 0.5 65 178 997.1 NA 0.0000 9999 1900 0 0 0
2017/11/07 09:54:00 BASE 1.50 180 2.06 163 0.5 100 0.5 64 176 997.1 NA 0.0000 9999 1900 0 0 0
2017/11/07 09:55:00 BASE 1.40 165 2.06 163 0.6 100 0.6 64 177 997.1 NA 0.0000 9999 1900 0 0 0
2017/11/07 09:56:00 BASE 0.99 154 2.06 163 0.6 100 0.6 66 182 997.1 NA 0.0000 9999 1940 0 0 0
2017/11/07 09:57:00 BASE 0.37 147 2.06 163 0.6 100 0.6 67 183 997.1 NA 0.0000 9999 1900 0 0 0
2017/11/07 09:58:00 BASE 0.05 163 2.06 163 0.6 100 0.6 63 175 997.2 NA 0.0000 9999 1970 0 0 0
2017/11/07 09:59:00 BASE 0.00 151 2.06 163 0.6 100 0.6 62 175 997.2 NA 0.0000 9999 1940 0 0 0
2017/11/07 10:00:00 BASE 0.00 106 2.06 163 0.6 100 0.6 64 178 997.2 NA 0.0000 9999 1900 0 0 0
2017/11/07 10:01:00 BASE 0.00 98 2.06 163 0.6 100 0.6 65 182 997.1 NA 0.0000 9999 1900 0 0 0
2017/11/07 10:02:00 BASE 0.00 109 2.06 163 0.6 100 0.6 67 186 997.1 NA 0.0000 9999 1900 0 0 0
2017/11/07 10:03:00 BASE 0.00 137 2.06 163 0.6 100 0.6 68 188 997.1 NA 0.0000 9999 1900 0 0 0
2017/11/07 10:04:00 BASE 0.00 124 1.75 157 0.6 100 0.6 69 192 997.1 NA 0.0000 9999 1870 0 0 0
2017/11/07 10:05:00 BASE 0.00 80 1.29 152 0.6 100 0.6 71 196 997.1 NA 0.0000 9999 1870 0 0 0
2017/11/07 10:06:00 BASE 0.00 76 1.08 140 0.6 100 0.6 73 201 997.1 NA 0.0000 9999 1870 0 0 0
2017/11/07 10:07:00 BASE 0.33 114 1.34 128 0.6 100 0.6 76 210 997.1 NA 0.0000 9999 1840 0 0 0
2017/11/07 10:08:00 BASE 1.08 135 1.85 126 0.6 100 0.6 82 221 997.0 NA 0.0000 9999 1800 0 0 0
2017/11/07 10:09:00 BASE 1.74 131 2.37 134 0.7 100 0.7 88 233 996.9 NA 0.0000 9999 1770 0 0 0
2017/11/07 10:10:00 BASE 1.90 124 2.37 134 0.7 100 0.7 90 239 996.8 NA 0.0000 9999 1840 0 0 0
2017/11/07 10:11:00 BASE 1.63 105 2.37 134 0.7 100 0.7 90 238 996.9 NA 0.0000 9999 1840 0 0 0
2017/11/07 10:12:00 BASE 1.30 100 2.37 134 0.7 100 0.7 86 229 996.9 NA 0.0000 9999 1800 0 0 0
2017/11/07 10:13:00 BASE 1.34 108 2.37 134 0.7 100 0.7 82 222 996.9 NA 0.0000 9999 1840 0 0 0
2017/11/07 10:14:00 BASE 1.10 117 2.37 134 0.7 100 0.7 80 217 996.9 NA 0.0000 9999 1840 0 0 0
2017/11/07 10:15:00 BASE 0.34 121 2.37 134 0.7 100 0.7 80 216 997.0 NA 0.0000 9999 1870 0 0 0
2017/11/07 10:16:00 BASE 0.05 117 2.37 134 0.7 100 0.7 80 217 997.0 NA 0.0000 9999 1800 0 0 0
2017/11/07 10:17:00 BASE 0.75 121 2.37 134 0.7 100 0.7 81 218 997.0 NA 0.0000 9999 1870 0 0 0
2017/11/07 10:18:00 BASE 1.50 127 2.37 134 0.7 100 0.7 80 217 997.0 NA 0.0000 9999 1870 0 0 0
2017/11/07 10:19:00 BASE 1.34 134 2.06 105 0.7 100 0.7 79 213 997.0 NA 0.0000 9999 1840 0 0 0
2017/11/07 10:20:00 BASE 0.59 141 1.85 121 0.6 100 0.6 73 200 997.1 NA 0.0000 9999 1640 0 0 0
2017/11/07 10:21:00 BASE 0.42 148 1.85 121 0.6 100 0.6 67 190 997.1 NA 0.0000 9999 1480 0 0 0
2017/11/07 10:22:00 BASE 1.03 162 1.85 121 0.6 100 0.6 64 182 997.1 NA 0.0000 9999 1540 0 0 0
2017/11/07 10:23:00 BASE 1.41 171 1.75 177 0.6 100 0.6 59 172 997.1 NA 0.0000 9999 1900 0 0 0
2017/11/07 10:24:00 BASE 1.58 172 2.01 160 0.5 100 0.5 56 165 997.1 NA 0.0000 9999 1770 19620 0 0
2017/11/07 10:25:00 BASE 1.69 166 2.01 160 0.5 100 0.5 53 158 997.1 NA 0.0000 9999 1740 0 0 0
2017/11/07 10:26:00 BASE 1.52 164 2.01 160 0.5 100 0.5 50 150 997.2 NA 0.0000 9999 1670 0 0 0
2017/11/07 10:27:00 BASE 0.65 174 2.01 160 0.5 100 0.5 47 144 997.2 NA 0.0000 9999 1670 0 0 0
2017/11/07 10:28:00 BASE 0.00 192 2.01 160 0.5 100 0.5 45 140 997.2 NA 0.0000 9999 1710 0 0 0
2017/11/07 10:29:00 BASE 0.00 215 2.01 160 0.5 100 0.5 45 140 997.2 NA 0.0000 9999 1640 0 0 0
2017/11/07 10:30:00 BASE 0.00 217 2.01 160 0.5 100 0.5 46 141 997.2 NA 0.0000 9999 1710 0 0 0
2017/11/07 10:31:00 BASE 0.04 192 2.01 160 0.5 100 0.5 47 143 997.2 NA 0.0000 9999 1670 0 0 0
2017/11/07 10:32:00 BASE 0.04 169 2.01 160 0.5 100 0.5 48 145 997.2 NA 0.0000 9999 1710 0 0 0
2017/11/07 10:33:00 BASE 0.00 149 2.01 160 0.5 100 0.5 49 150 997.3 NA 0.0000 9999 1710 0 0 0
2017/11/07 10:34:00 BASE 0.00 129 1.95 168 0.5 100 0.5 52 157 997.3 NA 0.0000 9999 1710 0 0 0
2017/11/07 10:35:00 BASE 0.00 68 1.65 157 0.5 100 0.5 57 170 997.3 NA 0.0000 9999 1610 0 0 0
2017/11/07 10:36:00 BASE 0.00 31 1.03 167 0.5 100 0.5 63 187 997.3 NA 0.0000 9999 1570 0 0 0
2017/11/07 10:37:00 BASE 0.23 80 1.13 115 0.5 100 0.5 74 213 997.3 NA 0.0000 9999 1480 0 0 0
2017/11/07 10:38:00 BASE 0.74 104 1.29 108 0.6 100 0.6 85 239 997.2 NA 0.0000 9999 1510 0 0 0
2017/11/07 10:39:00 BASE 0.51 80 1.29 108 0.6 100 0.6 94 259 997.3 NA 0.0000 9999 1570 0 0 0
2017/11/07 10:40:00 BASE 0.65 37 1.44 10 0.6 100 0.6 104 283 997.3 NA 0.0000 9999 1640 0 0 0
2017/11/07 10:41:00 BASE 1.47 19 1.90 38 0.6 100 0.6 115 308 997.3 NA 0.0000 9999 1510 0 0 0
2017/11/07 10:42:00 BASE 1.63 34 1.90 38 0.6 100 0.6 121 324 997.3 NA 0.0000 9999 1440 0 0 0
2017/11/07 10:43:00 BASE 1.62 50 2.01 67 0.6 100 0.6 124 334 997.3 NA 0.0000 9999 1380 0 0 0
2017/11/07 10:44:00 BASE 1.69 68 2.01 75 0.6 100 0.6 129 345 997.3 NA 0.0000 9999 1350 0 0 0
2017/11/07 10:45:00 BASE 0.99 79 2.01 75 0.6 100 0.6 135 356 997.3 NA 0.0000 9999 1410 0 0 0
2017/11/07 10:46:00 BASE 0.39 61 2.01 75 0.7 100 0.7 134 355 997.3 NA 0.0000 9999 1380 0 0 0
2017/11/07 10:47:00 BASE 1.10 40 2.01 75 0.7 100 0.7 131 348 997.3 NA 0.0000 9999 1310 0 0 0
2017/11/07 10:48:00 BASE 1.65 38 2.01 75 0.7 100 0.7 126 339 997.3 NA 0.0000 9999 1310 0 0 0
2017/11/07 10:49:00 BASE 1.59 46 2.01 75 0.7 100 0.7 118 321 997.3 NA 0.0000 9999 1250 0 0 0
2017/11/07 10:50:00 BASE 1.45 56 2.01 75 0.7 100 0.7 115 314 997.2 NA 0.0000 9999 1150 0 0 0
2017/11/07 10:51:00 BASE 1.09 70 2.01 75 0.7 100 0.7 118 319 997.2 NA 0.0000 9999 1120 0 0 0
2017/11/07 10:52:00 BASE 0.64 96 2.01 75 0.7 100 0.7 122 328 997.2 NA 0.0000 9999 1050 0 0 0
2017/11/07 10:53:00 BASE 0.75 114 2.01 75 0.7 100 0.7 136 358 997.2 NA 0.0000 9999 1180 1710 0 0
2017/11/07 10:54:00 BASE 1.27 104 1.75 62 0.7 100 0.7 149 384 997.2 NA 0.0000 9999 1570 0 0 0
2017/11/07 10:55:00 BASE 1.66 82 2.42 52 0.8 100 0.8 153 394 997.2 NA 0.0000 9999 1570 0 0 0
2017/11/07 10:56:00 BASE 2.21 61 2.78 50 0.8 100 0.8 161 411 997.2 NA 0.0000 9999 1280 0 0 0
2017/11/07 10:57:00 BASE 2.35 68 2.78 50 0.8 100 0.8 166 422 997.1 NA 0.0000 9999 1710 0 0 0
2017/11/07 10:58:00 BASE 2.32 105 3.34 122 0.9 100 0.9 168 428 997.0 NA 0.0000 9999 1710 0 0 0
2017/11/07 10:59:00 BASE 2.83 120 3.40 123 0.9 100 0.9 167 428 997.0 NA 0.0000 9999 1770 0 0 0
2017/11/07 11:00:00 BASE 2.84 104 3.40 123 0.9 100 0.9 172 438 997.0 NA 0.0000 9999 1740 0 0 0
2017/11/07 11:01:00 BASE 2.29 99 3.40 123 0.9 100 0.9 173 442 997.0 NA 0.0000 9999 1770 0 0 0
2017/11/07 11:02:00 BASE 2.01 106 3.40 123 0.9 100 0.9 177 450 997.0 NA 0.0000 9999 1770 2260 0 0
2017/11/07 11:03:00 BASE 1.86 103 3.40 123 0.9 100 0.9 185 467 997.0 NA 0.0000 9999 1770 0 0 0
2017/11/07 11:04:00 BASE 1.77 116 3.40 123 0.9 100 0.9 187 471 997.0 NA 0.0000 9999 1870 0 0 0
2017/11/07 11:05:00 BASE 2.07 124 3.40 123 1.0 100 1.0 181 460 997.0 NA 0.0000 9999 2100 0 0 0
2017/11/07 11:06:00 BASE 2.38 119 3.40 123 1.0 100 1.0 171 439 997.0 NA 0.0000 9999 1120 2230 0 0
2017/11/07 11:07:00 BASE 2.73 123 3.76 123 1.1 100 1.1 160 416 996.9 NA 0.0000 9999 2230 0 0 0
2017/11/07 11:08:00 BASE 3.29 117 3.86 103 1.1 100 1.1 152 399 997.0 NA 0.0000 9999 1080 2330 0 0
2017/11/07 11:09:00 BASE 3.54 110 3.96 107 1.1 100 1.1 147 390 996.9 NA 0.0000 9999 1020 2100 0 0
2017/11/07 11:10:00 BASE 3.59 112 4.27 108 1.1 100 1.1 141 376 996.9 NA 0.0000 9999 2000 2560 0 0
2017/11/07 11:11:00 BASE 3.87 118 4.78 133 1.1 100 1.1 144 383 996.9 NA 0.0000 9999 950 1940 0 0
2017/11/07 11:12:00 BASE 3.28 99 4.78 133 1.2 100 1.2 146 387 996.9 NA 0.0000 9999 1940 0 0 0
2017/11/07 11:13:00 BASE 1.51 74 4.78 133 1.3 100 1.3 144 384 996.9 NA 0.0000 9999 2030 0 0 0
2017/11/07 11:14:00 BASE 0.39 91 4.78 133 1.4 100 1.4 143 383 997.0 NA 0.0000 9999 1970 0 0 0
2017/11/07 11:15:00 BASE 0.73 295 4.78 133 1.4 100 1.4 140 379 997.0 NA 0.0000 9999 2030 0 0 0
2017/11/07 11:16:00 BASE 0.66 311 4.78 133 1.5 100 1.5 142 383 997.0 NA 0.0000 9999 1800 0 0 0
2017/11/07 11:17:00 BASE 0.50 296 4.78 133 1.5 100 1.5 140 379 997.0 NA 0.0000 9999 1940 0 0 0
2017/11/07 11:18:00 BASE 1.48 279 4.78 133 1.5 100 1.5 135 369 997.0 NA 0.0000 9999 2000 0 0 0
2017/11/07 11:19:00 BASE 1.63 282 4.78 133 1.5 100 1.5 133 365 997.0 NA 0.0000 9999 1800 0 0 0
2017/11/07 11:20:00 BASE 1.94 298 4.78 133 1.6 100 1.6 130 359 997.0 NA 0.0000 9999 1800 0 0 0
2017/11/07 11:21:00 BASE 2.82 320 4.37 335 1.8 100 1.8 132 364 997.0 NA 0.0000 9999 1670 0 0 0
2017/11/07 11:22:00 BASE 3.37 334 4.99 344 1.9 100 1.9 139 379 996.9 NA 0.0000 9999 1610 0 0 0
2017/11/07 11:23:00 BASE 4.56 341 6.43 337 2.2 100 2.2 150 401 996.9 NA 0.0000 9999 1610 0 0 0
2017/11/07 11:24:00 BASE 5.12 338 6.43 337 2.5 100 2.5 163 428 996.9 NA 0.0000 9999 1440 0 0 0
2017/11/07 11:25:00 BASE 4.13 328 6.43 337 2.6 100 2.6 166 436 996.9 NA 0.0000 9999 1280 0 0 0
2017/11/07 11:26:00 BASE 2.69 293 6.43 337 2.6 100 2.6 158 421 997.0 NA 0.0000 9999 1440 0 0 0
2017/11/07 11:27:00 BASE 1.46 265 6.43 337 2.5 100 2.5 151 407 997.0 NA 0.0000 9999 1150 0 0 0
2017/11/07 11:28:00 BASE 1.01 240 6.43 337 2.4 100 2.4 145 396 997.0 NA 0.0000 9999 920 2070 0 0
2017/11/07 11:29:00 BASE 1.75 199 6.43 337 2.1 100 2.1 146 399 997.0 NA 0.0000 9999 1280 0 0 0
2017/11/07 11:30:00 BASE 2.73 186 6.43 337 1.9 100 1.9 152 412 996.9 NA 0.0000 9999 1480 0 0 0
2017/11/07 11:31:00 BASE 2.97 174 6.43 337 1.8 100 1.8 154 417 996.9 NA 0.0000 9999 1350 0 0 0
2017/11/07 11:32:00 BASE 2.91 152 6.43 337 1.7 100 1.7 152 413 996.9 NA 0.0000 9999 1210 22470 0 0
2017/11/07 11:33:00 BASE 2.43 126 5.81 342 1.5 100 1.5 151 414 996.9 NA 0.0000 9999 1350 0 0 0
2017/11/07 11:34:00 BASE 1.76 126 4.42 315 1.6 100 1.6 156 423 996.9 NA 0.0000 9999 1440 0 0 0
2017/11/07 11:35:00 BASE 1.75 143 3.55 193 1.5 100 1.5 161 435 996.8 NA 0.0000 9999 1440 0 0 0
2017/11/07 11:36:00 BASE 2.24 142 3.55 193 1.5 100 1.5 161 436 996.8 NA 0.0000 9999 1440 0 0 0
2017/11/07 11:37:00 BASE 2.73 141 3.86 144 1.5 100 1.5 159 430 996.8 NA 0.0000 9999 1440 21460 0 0
2017/11/07 11:38:00 BASE 2.90 139 3.86 144 1.6 100 1.6 157 425 996.8 NA 0.0000 9999 1480 0 0 0
2017/11/07 11:39:00 BASE 2.96 148 3.86 144 1.6 100 1.6 154 418 996.8 NA 0.0000 9999 1480 0 0 0
2017/11/07 11:40:00 BASE 2.58 154 3.86 144 1.7 100 1.7 152 413 996.8 NA 0.0000 9999 1440 0 0 0
2017/11/07 11:41:00 BASE 2.25 145 3.86 144 1.9 100 1.9 146 400 996.9 NA 0.0000 9999 1480 0 0 0
2017/11/07 11:42:00 BASE 2.16 138 3.86 144 2.1 100 2.1 137 380 997.0 NA 0.0000 9999 1410 24440 0 0
2017/11/07 11:43:00 BASE 2.23 140 3.86 144 2.2 100 2.2 129 364 997.0 NA 0.0000 9999 1410 0 0 0
2017/11/07 11:44:00 BASE 2.36 143 3.86 144 2.2 100 2.2 124 353 997.1 NA 0.0000 9999 1480 0 0 0
2017/11/07 11:45:00 BASE 2.35 138 3.86 144 2.1 100 2.1 117 338 997.1 NA 0.0000 9999 1480 0 0 0
2017/11/07 11:46:00 BASE 3.00 133 4.53 128 2.0 100 2.0 113 329 997.1 NA 0.0000 9999 1440 0 0 0
2017/11/07 11:47:00 BASE 3.89 138 4.73 140 1.9 100 1.9 109 320 997.0 NA 0.0000 9999 1510 0 0 0
2017/11/07 11:48:00 BASE 4.40 133 5.04 131 1.7 100 1.7 104 309 997.1 NA 0.0000 9999 1510 0 0 0
2017/11/07 11:49:00 BASE 3.90 133 5.04 131 1.6 100 1.6 100 297 997.2 NA 0.0000 9999 1510 0 0 0
2017/11/07 11:50:00 BASE 3.41 141 5.04 131 1.5 100 1.5 98 294 997.2 NA 0.0000 9999 1510 0 0 0
2017/11/07 11:51:00 BASE 3.45 142 5.04 131 1.3 100 1.3 103 305 997.1 NA 0.0000 9999 1510 0 0 0
2017/11/07 11:52:00 BASE 3.57 140 5.04 131 1.2 100 1.2 109 319 997.1 NA 0.0000 9999 1510 0 0 0
2017/11/07 11:53:00 BASE 3.87 140 5.04 131 1.1 100 1.1 113 327 997.1 NA 0.0000 9999 1640 0 0 0
2017/11/07 11:54:00 BASE 3.88 141 5.04 131 1.0 100 1.0 118 340 997.0 NA 0.0000 9999 1540 0 0 0
2017/11/07 11:55:00 BASE 3.85 143 5.04 131 0.9 100 0.9 126 360 997.1 NA 0.0000 9999 1540 0 0 0
2017/11/07 11:56:00 BASE 3.80 139 5.04 131 0.9 100 0.9 138 390 997.1 NA 0.0000 9999 1570 0 0 0
2017/11/07 11:57:00 BASE 3.43 130 5.04 131 0.9 100 0.9 149 417 997.1 NA 0.0000 9999 1540 0 0 0
2017/11/07 11:58:00 BASE 2.99 125 4.37 143 0.9 100 0.9 156 436 997.1 NA 0.0000 9999 1570 0 0 0
2017/11/07 11:59:00 BASE 3.00 128 4.37 143 0.8 100 0.8 167 458 997.1 NA 0.0000 9999 1540 0 0 0
2017/11/07 12:00:00 BASE 3.12 132 4.37 143 0.8 100 0.8 174 474 997.0 NA 0.0000 9999 1540 0 0 0
2017/11/07 12:01:00 BASE 3.27 137 4.37 143 0.9 100 0.9 176 477 997.0 NA 0.0000 9999 1540 0 0 0
2017/11/07 12:02:00 BASE 3.48 139 4.37 143 0.9 100 0.9 175 474 997.0 NA 0.0000 9999 1540 0 0 0
2017/11/07 12:03:00 BASE 3.27 133 4.37 143 1.0 100 1.0 172 468 996.9 NA 0.0000 9999 1440 0 0 0
2017/11/07 12:04:00 BASE 3.10 125 4.37 143 1.0 100 1.0 175 473 996.9 NA 0.0000 9999 1480 0 0 0
2017/11/07 12:05:00 BASE 3.07 126 3.96 139 1.1 100 1.1 182 490 997.0 NA 0.0000 9999 1480 0 0 0
2017/11/07 12:06:00 BASE 3.09 131 3.81 146 1.2 100 1.2 189 506 997.0 NA 0.0000 9999 1540 0 0 0
2017/11/07 12:07:00 BASE 3.15 134 3.81 146 1.2 100 1.2 196 521 997.0 NA 0.0000 9999 1510 0 0 0
2017/11/07 12:08:00 BASE 3.12 138 3.81 146 1.3 100 1.3 208 548 997.0 NA 0.0000 9999 1540 0 0 0
2017/11/07 12:09:00 BASE 3.13 141 3.81 146 1.4 100 1.4 231 600 997.0 NA 0.0000 9999 1540 0 0 0
2017/11/07 12:10:00 BASE 3.02 141 3.81 146 1.4 100 1.4 251 648 997.0 NA 0.0000 9999 1540 0 0 0
2017/11/07 12:11:00 BASE 2.92 139 3.81 146 1.3 100 1.3 258 668 997.1 NA 0.0000 9999 1570 0 0 0
2017/11/07 12:12:00 BASE 2.76 136 3.50 122 1.3 100 1.3 257 668 997.1 NA 0.0000 9999 1570 19620 21060 0
2017/11/07 12:13:00 BASE 2.32 135 3.50 122 1.3 100 1.3 244 642 997.2 NA 0.0000 9999 1570 0 0 0
2017/11/07 12:14:00 BASE 1.84 132 3.40 136 1.3 100 1.3 234 619 997.2 NA 0.0000 9999 1570 0 0 0
2017/11/07 12:15:00 BASE 1.72 130 3.40 136 1.3 100 1.3 232 614 997.2 NA 0.0000 9999 1640 0 0 0
2017/11/07 12:16:00 BASE 2.00 135 3.34 141 1.4 100 1.4 238 623 997.2 NA 0.0000 9999 1710 0 0 0
2017/11/07 12:17:00 BASE 2.33 138 3.34 141 1.5 100 1.5 244 635 997.2 NA 0.0000 9999 1640 0 0 0
2017/11/07 12:18:00 BASE 2.56 135 3.34 141 1.5 100 1.5 247 644 997.2 NA 0.0000 9999 1570 0 0 0
2017/11/07 12:19:00 BASE 2.48 134 3.19 134 1.4 100 1.4 251 652 997.2 NA 0.0000 9999 1640 0 0 0
2017/11/07 12:20:00 BASE 2.16 135 3.19 134 1.4 100 1.4 236 622 997.2 NA 0.0000 9999 1670 0 0 0
2017/11/07 12:21:00 BASE 1.85 144 3.19 134 1.4 100 1.4 202 552 997.2 NA 0.0000 9999 1670 0 0 0
2017/11/07 12:22:00 BASE 1.31 162 2.83 134 1.2 100 1.2 186 517 997.2 NA 0.0000 9999 1710 0 0 0
2017/11/07 12:23:00 BASE 1.14 164 2.83 134 1.1 100 1.1 188 521 997.2 NA 0.0000 9999 1670 0 0 0
2017/11/07 12:24:00 BASE 1.15 158 2.83 134 1.0 100 1.0 195 536 997.2 NA 0.0000 9999 1670 0 0 0
2017/11/07 12:25:00 BASE 1.05 169 2.83 134 0.8 100 0.8 208 566 997.2 NA 0.0000 9999 1670 0 0 0
2017/11/07 12:26:00 BASE 0.96 184 2.83 134 0.6 100 0.6 223 602 997.2 NA 0.0000 9999 1670 0 0 0
2017/11/07 12:27:00 BASE 0.67 180 2.83 134 0.4 100 0.4 236 632 997.2 NA 0.0000 9999 1640 0 0 0
2017/11/07 12:28:00 BASE 0.89 163 2.68 139 0.4 100 0.4 250 665 997.2 NA 0.0000 9999 1570 0 0 0
2017/11/07 12:29:00 BASE 1.26 153 2.26 133 0.3 100 0.3 266 699 997.2 NA 0.0000 9999 1610 0 0 0
2017/11/07 12:30:00 BASE 1.40 146 1.95 143 0.4 100 0.4 285 736 997.2 NA 0.0000 9999 1570 0 0 0
2017/11/07 12:31:00 BASE 1.60 146 1.95 158 0.5 100 0.4 288 746 997.2 NA 0.0000 9999 1510 23660 0 0
2017/11/07 12:32:00 BASE 1.59 149 1.95 158 0.5 100 0.5 280 729 997.2 NA 0.0000 9999 1510 0 0 0
2017/11/07 12:33:00 BASE 1.44 141 1.95 158 0.6 100 0.6 257 683 997.2 NA 0.0000 9999 1570 0 0 0
2017/11/07 12:34:00 BASE 1.21 135 1.95 158 0.6 100 0.6 239 649 997.3 NA 0.0000 9999 1480 0 0 0
2017/11/07 12:35:00 BASE 1.15 136 1.95 158 0.7 100 0.7 236 646 997.3 NA 0.0000 9999 1480 0 0 0
2017/11/07 12:36:00 BASE 1.17 131 1.95 158 0.8 100 0.8 226 622 997.3 NA 0.0000 9999 1480 0 0 0
2017/11/07 12:37:00 BASE 1.10 128 1.95 158 0.8 100 0.8 221 610 997.3 NA 0.0000 9999 1480 0 0 0
2017/11/07 12:38:00 BASE 0.57 135 1.95 158 0.8 100 0.8 228 624 997.3 NA 0.0000 9999 1440 0 0 0
2017/11/07 12:39:00 BASE 0.00 151 1.95 158 0.8 100 0.8 227 620 997.3 NA 0.0000 9999 1480 0 0 0
2017/11/07 12:40:00 BASE 0.32 170 1.95 158 0.7 100 0.7 210 579 997.3 NA 0.0000 9999 1440 0 0 0
2017/11/07 12:41:00 BASE 0.32 179 1.59 149 0.6 100 0.6 200 557 997.3 NA 0.0000 9999 1350 0 0 0
2017/11/07 12:42:01 BASE 0.00 180 1.49 142 0.5 100 0.5 214 588 997.3 NA 0.0000 9999 1380 0 0 0
2017/11/07 12:43:01 BASE 0.00 180 1.49 142 0.4 100 0.4 218 599 997.3 NA 0.0000 9999 1440 0 0 0
2017/11/07 12:44:01 BASE 0.00 180 1.49 142 0.4 100 0.4 209 576 997.3 NA 0.0000 9999 1510 0 0 0
2017/11/07 12:45:01 BASE 0.00 157 1.23 131 0.3 100 0.3 193 540 997.3 NA 0.0000 9999 1440 0 0 0
2017/11/07 12:46:01 BASE 0.00 112 1.23 131 0.3 100 0.3 181 513 997.3 NA 0.0000 9999 1480 0 0 0
2017/11/07 12:47:01 BASE 0.14 97 1.18 87 0.3 100 0.3 177 503 997.3 NA 0.0000 9999 1640 0 0 0
2017/11/07 12:48:01 BASE 0.68 97 1.59 101 0.4 100 0.4 180 513 997.3 NA 0.0000 9999 1540 0 0 0
2017/11/07 12:49:01 BASE 0.68 113 1.59 101 0.5 100 0.5 185 524 997.3 NA 0.0000 9999 1640 0 0 0
2017/11/07 12:50:01 BASE 0.14 107 1.59 101 0.6 100 0.6 191 540 997.4 NA 0.0000 9999 1710 0 0 0
2017/11/07 12:51:01 BASE 0.75 34 1.75 14 0.7 100 0.7 207 577 997.5 NA 0.0000 9999 1710 0 0 0
2017/11/07 12:52:01 BASE 1.40 31 1.75 14 0.7 100 0.7 233 633 997.5 NA 0.0000 9999 1740 0 0 0
2017/11/07 12:53:01 BASE 1.53 78 2.21 115 0.8 100 0.8 269 715 997.3 NA 0.0000 9999 1740 0 0 0
2017/11/07 12:54:01 BASE 1.43 109 2.26 114 0.9 100 0.9 284 751 997.4 NA 0.0000 9999 1740 0 0 0
2017/11/07 12:55:01 BASE 0.56 136 2.26 114 0.9 100 0.9 292 768 997.4 NA 0.0000 9999 1800 0 0 0
2017/11/07 12:56:01 BASE 0.58 182 2.26 114 1.0 100 1.0 302 792 997.3 NA 0.0000 9999 1740 21520 0 0
2017/11/07 12:57:01 BASE 1.16 261 2.26 114 1.1 100 1.1 296 782 997.3 NA 0.0000 9999 1710 0 0 0
2017/11/07 12:58:01 BASE 0.59 349 2.26 114 1.1 100 1.1 280 751 997.3 NA 0.0000 9999 1510 0 0 0
2017/11/07 12:59:01 BASE 0.00 340 2.26 114 1.2 100 1.2 280 750 997.3 NA 0.0000 9999 1480 0 0 0
2017/11/07 13:00:01 BASE 0.00 254 2.26 114 1.2 100 1.2 264 714 997.2 NA 0.0000 9999 1510 0 0 0
2017/11/07 13:01:01 BASE 0.25 266 2.26 114 1.3 100 1.3 250 682 997.2 NA 0.0000 9999 1610 0 0 0
2017/11/07 13:02:01 BASE 0.32 280 2.26 114 1.4 100 1.4 237 650 997.2 NA 0.0000 9999 1540 0 0 0
2017/11/07 13:03:01 BASE 0.07 258 2.26 114 1.6 100 1.6 222 614 997.2 NA 0.0000 9999 1510 0 0 0
2017/11/07 13:04:01 BASE 0.14 304 1.95 309 1.7 100 1.7 210 581 997.2 NA 0.0000 9999 1540 0 0 0
2017/11/07 13:05:01 BASE 0.48 319 1.95 309 1.8 100 1.8 195 545 997.2 NA 0.0000 9999 1480 0 0 0
2017/11/07 13:06:01 BASE 0.34 315 1.95 309 1.8 100 1.8 178 507 997.2 NA 0.0000 9999 1570 0 0 0
2017/11/07 13:07:01 BASE 0.00 261 1.65 327 1.7 100 1.7 168 482 997.2 NA 0.0000 9999 1510 2030 0 0
2017/11/07 13:08:01 BASE 0.00 241 1.65 327 1.5 100 1.5 164 472 997.2 NA 0.0000 9999 1410 0 0 0
2017/11/07 13:09:01 BASE 0.00 259 1.65 327 1.4 100 1.4 166 476 997.2 NA 0.0000 9999 1480 0 0 0
2017/11/07 13:10:01 BASE 0.31 287 1.65 327 1.4 100 1.4 175 497 997.2 NA 0.0000 9999 1480 0 0 0
2017/11/07 13:11:01 BASE 0.47 297 1.65 327 1.4 100 1.4 186 522 997.2 NA 0.0000 9999 1440 0 0 0
2017/11/07 13:12:01 BASE 0.61 294 1.85 295 1.4 100 1.4 213 583 997.2 NA 0.0000 9999 1410 0 0 0
2017/11/07 13:13:01 BASE 0.75 327 2.37 284 1.3 100 1.3 234 627 997.2 NA 0.0000 9999 1380 0 0 0
2017/11/07 13:14:01 BASE 1.05 347 2.73 299 1.4 100 1.4 239 638 997.2 NA 0.0000 9999 1350 2000 0 0
2017/11/07 13:15:01 BASE 0.80 300 2.73 299 1.3 100 1.3 259 682 997.2 NA 0.0000 9999 1970 0 0 0
2017/11/07 13:16:01 BASE 0.10 266 2.73 299 1.3 100 1.3 262 691 997.2 NA 0.0000 9999 1410 22020 0 0
2017/11/07 13:17:01 BASE 0.05 329 2.73 299 1.2 100 1.2 271 713 997.2 NA 0.0000 9999 1380 0 0 0
2017/11/07 13:18:01 BASE 0.21 352 2.73 299 1.3 100 1.3 282 739 997.2 NA 0.0000 9999 1440 0 0 0
2017/11/07 13:19:01 BASE 1.20 357 4.22 3 1.3 100 1.3 284 745 997.2 NA 0.0000 9999 1510 0 0 0
2017/11/07 13:20:01 BASE 2.44 3 4.22 3 1.5 100 1.5 267 711 997.2 NA 0.0000 9999 1440 2030 0 0
2017/11/07 13:21:01 BASE 3.47 12 4.78 27 1.9 100 1.9 253 682 997.3 NA 0.0000 9999 1510 0 0 0
2017/11/07 13:22:01 BASE 3.36 7 4.78 27 2.2 100 2.2 244 667 997.3 NA 0.0000 9999 1510 0 0 0
2017/11/07 13:23:01 BASE 2.90 355 4.78 27 2.6 100 2.6 229 636 997.3 NA 0.0000 9999 1480 0 0 0
2017/11/07 13:24:01 BASE 1.79 280 4.78 27 2.8 100 2.8 213 600 997.5 NA 0.0000 9999 1510 0 0 0
2017/11/07 13:25:01 BASE 1.22 191 4.78 27 2.6 100 2.6 207 587 997.5 NA 0.0000 9999 1640 0 0 0
2017/11/07 13:26:01 BASE 2.35 162 4.78 27 2.3 100 2.3 195 558 997.5 NA 0.0000 9999 1640 0 0 0
2017/11/07 13:27:01 BASE 2.70 154 4.78 27 1.8 100 1.8 186 535 997.5 NA 0.0000 9999 1610 0 0 0
2017/11/07 13:28:01 BASE 2.94 155 4.78 27 1.4 100 1.4 181 522 997.5 NA 0.0000 9999 1610 0 0 0
2017/11/07 13:29:01 BASE 3.28 163 4.78 27 1.2 100 1.2 187 534 997.5 NA 0.0000 9999 1710 0 0 0
2017/11/07 13:30:01 BASE 3.51 158 4.78 27 1.1 100 1.1 191 542 997.5 NA 0.0000 9999 1770 0 0 0
2017/11/07 13:31:01 BASE 3.57 144 4.73 33 1.2 100 1.2 185 529 997.5 NA 0.0000 9999 1800 0 0 0
2017/11/07 13:32:01 BASE 3.17 134 4.73 33 1.3 100 1.3 181 522 997.5 NA 0.0000 9999 1570 0 0 0
2017/11/07 13:33:01 BASE 2.34 153 3.91 154 1.3 100 1.3 184 532 997.6 NA 0.0000 9999 1440 0 0 0
2017/11/07 13:34:01 BASE 2.09 197 3.91 154 1.2 100 1.2 187 539 997.6 NA 0.0000 9999 1510 0 0 0
2017/11/07 13:35:01 BASE 2.37 195 3.91 154 1.0 100 1.0 188 545 997.6 NA 0.0000 9999 720 0 0 0
2017/11/07 13:36:01 BASE 2.59 175 3.91 154 0.8 100 0.8 189 548 997.6 NA 0.0000 9999 1350 0 0 0
2017/11/07 13:37:01 BASE 2.88 168 3.91 154 0.6 100 0.6 185 541 997.6 NA 0.0000 9999 1310 0 0 0
2017/11/07 13:38:01 BASE 2.61 165 3.91 154 0.5 100 0.5 185 541 997.6 NA 0.0000 9999 1180 0 0 0
2017/11/07 13:39:01 BASE 2.48 159 3.91 154 0.5 100 0.5 185 542 997.6 NA 0.0000 9999 1440 0 0 0
2017/11/07 13:40:01 BASE 2.63 157 3.81 131 0.6 100 0.6 188 547 997.6 NA 0.0000 9999 1250 0 0 0
2017/11/07 13:41:01 BASE 2.63 159 3.50 132 0.7 100 0.7 185 540 997.6 NA 0.0000 9999 1210 0 0 0
2017/11/07 13:42:01 BASE 2.39 172 3.34 161 0.7 100 0.7 184 538 997.6 NA 0.0000 9999 1080 0 0 0
2017/11/07 13:43:01 BASE 2.19 185 3.34 161 0.6 100 0.6 186 545 997.6 NA 0.0000 9999 1020 18010 19880 0
2017/11/07 13:44:01 BASE 1.45 187 3.34 161 0.7 100 0.7 185 543 997.5 NA 0.0000 9999 1150 0 0 0
2017/11/07 13:45:01 BASE 0.88 168 3.34 161 0.6 100 0.6 188 553 997.6 NA 0.0000 9999 1120 0 0 0
2017/11/07 13:46:01 BASE 1.41 149 3.34 161 0.6 100 0.6 199 579 997.6 NA 0.0000 9999 1210 0 0 0
2017/11/07 13:47:01 BASE 1.98 149 3.19 151 0.7 100 0.7 204 593 997.6 NA 0.0000 9999 1050 0 0 0
2017/11/07 13:48:01 BASE 2.39 155 3.19 151 0.6 100 0.6 203 589 997.6 NA 0.0000 9999 1250 0 0 0
2017/11/07 13:49:01 BASE 2.42 160 2.98 155 0.6 100 0.6 201 582 997.6 NA 0.0000 9999 1380 0 0 0
2017/11/07 13:50:01 BASE 2.01 156 2.98 155 0.6 100 0.6 195 564 997.6 NA 0.0000 9999 1380 0 0 0
2017/11/07 13:51:01 BASE 1.99 154 2.68 150 0.5 100 0.5 185 537 997.6 NA 0.0000 9999 1380 0 0 0
2017/11/07 13:52:01 BASE 2.38 156 3.14 135 0.5 100 0.5 176 516 997.6 NA 0.0000 9999 1440 0 0 0
2017/11/07 13:53:01 BASE 2.57 143 3.14 135 0.5 100 0.5 168 496 997.6 NA 0.0000 9999 1480 0 0 0
2017/11/07 13:54:01 BASE 2.76 129 3.40 121 0.6 100 0.6 170 501 997.5 NA 0.0000 9999 1510 0 0 0
2017/11/07 13:55:01 BASE 2.74 125 3.40 121 0.6 100 0.6 181 528 997.5 NA 0.0000 9999 1510 0 0 0
2017/11/07 13:56:01 BASE 2.30 139 3.40 121 0.7 100 0.7 192 556 997.6 NA 0.0000 9999 1570 0 0 0
2017/11/07 13:57:01 BASE 2.25 182 3.40 121 0.7 100 0.7 212 602 997.5 NA 0.0000 9999 1610 0 0 0
2017/11/07 13:58:01 BASE 2.77 214 3.40 121 0.6 100 0.6 230 642 997.5 NA 0.0000 9999 950 1670 0 0
2017/11/07 13:59:01 BASE 3.04 216 3.70 209 0.6 100 0.6 225 630 997.5 NA 0.0000 9999 1640 0 0 0
2017/11/07 14:00:01 BASE 2.31 202 3.70 209 0.6 100 0.6 219 614 997.6 NA 0.0000 9999 1280 1710 0 0
2017/11/07 14:01:01 BASE 1.61 169 3.70 209 0.6 100 0.6 207 585 997.6 NA 0.0000 9999 1710 0 0 0
2017/11/07 14:02:01 BASE 1.82 158 3.70 209 0.7 100 0.7 195 559 997.6 NA 0.0000 9999 1120 1710 0 0
2017/11/07 14:03:01 BASE 2.03 155 3.70 209 0.8 100 0.8 189 544 997.6 NA 0.0000 9999 1020 1710 0 0
2017/11/07 14:04:01 BASE 2.16 148 3.70 209 0.9 100 0.9 188 545 997.6 NA 0.0000 9999 1840 0 0 0
2017/11/07 14:05:01 BASE 2.02 155 3.70 209 1.0 100 1.0 194 558 997.6 NA 0.0000 9999 1610 0 0 0
2017/11/07 14:06:01 BASE 1.26 162 3.70 209 1.1 100 1.1 200 573 997.7 NA 0.0000 9999 1540 0 0 0
2017/11/07 14:07:01 BASE 0.38 195 3.70 209 1.2 100 1.2 204 584 997.7 NA 0.0000 9999 1510 0 0 0
2017/11/07 14:08:01 BASE 0.55 180 3.70 209 1.3 100 1.3 207 592 997.7 NA 0.0000 9999 1310 0 0 0
2017/11/07 14:09:01 BASE 1.39 137 2.98 155 1.4 100 1.4 213 605 997.7 NA 0.0000 9999 1050 0 0 0
2017/11/07 14:10:01 BASE 1.66 133 2.98 155 1.4 100 1.4 220 623 997.7 NA 0.0000 9999 1280 0 0 0
2017/11/07 14:11:01 BASE 1.20 139 2.98 155 1.4 100 1.4 221 624 997.7 NA 0.0000 9999 1380 0 0 0
2017/11/07 14:12:01 BASE 0.39 126 2.98 155 1.3 100 1.3 214 607 997.8 NA 0.0000 9999 1570 0 0 0
2017/11/07 14:13:01 BASE 0.00 106 2.98 155 1.2 100 1.2 209 597 997.8 NA 0.0000 9999 980 1710 0 0
2017/11/07 14:14:01 BASE 0.00 103 2.98 155 1.1 100 1.1 210 599 997.8 NA 0.0000 9999 1350 21520 0 0
2017/11/07 14:15:01 BASE 0.04 100 2.01 133 1.1 100 1.1 213 606 997.7 NA 0.0000 9999 1180 0 0 0
2017/11/07 14:16:01 BASE 0.28 93 2.01 133 1.1 100 1.1 211 601 997.7 NA 0.0000 9999 1150 1800 0 0
2017/11/07 14:17:01 BASE 0.66 89 2.01 133 1.2 100 1.2 205 586 997.8 NA 0.0000 9999 1180 1710 0 0
2017/11/07 14:18:01 BASE 1.25 98 2.11 108 1.2 100 1.2 191 557 997.8 NA 0.0000 9999 1280 0 0 0
2017/11/07 14:19:01 BASE 1.53 110 2.11 108 1.3 100 1.3 178 530 997.8 NA 0.0000 9999 1050 0 0 0
2017/11/07 14:20:01 BASE 1.01 111 2.11 108 1.3 100 1.3 170 512 997.8 NA 0.0000 9999 1020 0 0 0
2017/11/07 14:21:01 BASE 0.41 90 2.11 108 1.4 100 1.4 166 503 997.8 NA 0.0000 9999 950 0 0 0
2017/11/07 14:22:01 BASE 0.76 27 2.11 108 1.4 100 1.4 163 496 997.8 NA 0.0000 9999 950 0 0 0
2017/11/07 14:23:01 BASE 1.38 331 2.11 108 1.4 100 1.4 157 482 997.8 NA 0.0000 9999 920 0 0 0
2017/11/07 14:24:01 BASE 0.72 306 2.11 108 1.4 100 1.4 154 473 997.8 NA 0.0000 9999 1020 0 0 0
2017/11/07 14:25:01 BASE 0.00 304 2.11 108 1.4 100 1.4 152 468 997.8 NA 0.0000 9999 1020 0 0 0
2017/11/07 14:26:01 BASE 0.00 305 2.11 108 1.4 100 1.4 156 481 997.8 NA 0.0000 9999 950 0 0 0
2017/11/07 14:27:01 BASE 0.00 305 2.11 108 1.4 100 1.4 164 502 997.8 NA 0.0000 9999 950 0 0 0
2017/11/07 14:28:01 BASE 0.00 305 1.85 306 1.4 100 1.4 172 525 997.8 NA 0.0000 9999 980 0 0 0
2017/11/07 14:29:01 BASE 0.00 305 1.85 306 1.4 100 1.4 191 577 997.8 NA 0.0000 9999 920 0 0 0
2017/11/07 14:30:01 BASE 0.00 305 1.85 306 1.4 100 1.4 212 632 997.8 NA 0.0000 9999 890 0 0 0
2017/11/07 14:31:01 BASE 0.09 320 1.85 306 1.4 100 1.4 227 672 997.8 NA 0.0000 9999 920 0 0 0
2017/11/07 14:32:01 BASE 0.13 327 1.85 306 1.4 100 1.4 241 703 997.8 NA 0.0000 9999 890 0 0 0
2017/11/07 14:33:01 BASE 0.04 269 1.08 35 1.5 100 1.5 248 719 997.8 NA 0.0000 9999 750 0 0 0
2017/11/07 14:34:01 BASE 0.78 272 2.06 281 1.5 100 1.5 247 710 997.8 NA 0.0000 9999 660 0 0 0
2017/11/07 14:35:01 BASE 1.53 301 2.06 281 1.6 100 1.6 239 691 997.8 NA 0.0000 9999 590 0 0 0
2017/11/07 14:36:01 BASE 1.40 304 2.06 281 1.7 100 1.7 233 677 997.8 NA 0.0000 9999 490 0 0 0
2017/11/07 14:37:01 BASE 0.91 293 2.06 281 1.8 100 1.8 229 666 997.8 NA 0.0000 9999 460 0 0 0
2017/11/07 14:38:01 BASE 0.72 283 2.06 281 1.8 100 1.8 226 658 997.8 NA 0.0000 8000 360 0 0 0
2017/11/07 14:39:01 BASE 0.77 278 2.06 281 1.8 100 1.8 226 654 997.8 NA 0.0000 6000 360 0 0 0
2017/11/07 14:40:01 BASE 0.31 263 2.06 281 1.8 100 1.8 227 657 997.8 NA 0.0000 BR 4800 360 0 0 0
2017/11/07 14:41:01 BASE 0.00 239 2.06 281 1.7 100 1.7 222 646 997.8 NA 0.0000 BR 4800 1480 0 0 0
2017/11/07 14:42:01 BASE 0.45 238 2.06 281 1.7 100 1.7 216 629 997.8 NA 0.0000 BR 5000 980 0 0 0
2017/11/07 14:43:01 BASE 1.28 247 2.52 252 1.7 100 1.7 219 635 997.8 NA 0.0000 BR 9000 590 0 0 0
2017/11/07 14:44:01 BASE 1.66 261 2.52 252 1.7 100 1.7 235 666 997.8 NA 0.0000 BR 9999 790 0 0 0
2017/11/07 14:45:01 BASE 1.50 250 2.52 252 1.6 100 1.6 244 682 997.8 NA 0.0000 BR 9000 750 0 0 0
2017/11/07 14:46:01 BASE 1.43 242 2.52 252 1.6 100 1.6 237 670 997.8 NA 0.0000 BR 7000 490 0 0 0
2017/11/07 14:47:01 BASE 1.72 257 2.52 252 1.6 100 1.6 231 660 997.8 NA 0.0000 BR 8000 490 0 0 0
2017/11/07 14:48:01 BASE 1.85 264 2.52 252 1.6 100 1.6 235 672 997.8 NA 0.0000 BR 8000 620 0 0 0
2017/11/07 14:49:01 BASE 1.94 276 2.83 280 1.5 100 1.5 246 695 997.8 NA 0.0000 BR 9999 980 0 0 0
2017/11/07 14:50:01 BASE 2.55 287 4.58 310 1.5 100 1.5 257 718 997.8 NA 0.0000 BR 9999 1280 0 0 0
2017/11/07 14:51:01 BASE 4.07 301 5.50 313 1.6 100 1.6 270 744 997.8 NA 0.0000 BR 9999 850 0 0 0
2017/11/07 14:52:01 BASE 5.22 308 5.71 310 1.7 100 1.7 285 771 997.8 NA 0.0000 9999 390 0 0 0
2017/11/07 14:53:01 BASE 5.48 311 6.17 316 1.8 100 1.8 303 806 997.8 NA 0.0000 9999 390 0 0 0
2017/11/07 14:54:01 BASE 6.06 314 7.31 316 1.9 100 1.9 311 821 997.7 NA 0.0000 9999 390 0 0 0
2017/11/07 14:55:01 BASE 6.60 314 7.51 311 1.9 100 1.9 308 815 997.7 NA 0.0000 9999 330 22440 0 0
2017/11/07 14:56:01 BASE 6.71 312 7.51 311 2.0 100 2.0 301 803 997.7 NA 0.0000 9999 330 22930 0 0
2017/11/07 14:57:01 BASE 6.76 313 7.51 311 2.0 100 2.0 304 811 997.7 NA 0.0000 9999 300 0 0 0
2017/11/07 14:58:01 BASE 6.76 315 7.51 311 2.0 100 2.0 314 828 997.7 NA 0.0000 9999 260 1210 0 0
2017/11/07 14:59:01 BASE 6.64 315 7.51 311 2.0 100 2.0 321 843 997.7 NA 0.0000 9999 260 0 0 0
2017/11/07 15:00:01 BASE 6.60 318 7.51 311 1.9 100 1.9 319 837 997.7 NA 0.0000 9999 260 0 0 0
2017/11/07 15:01:01 BASE 6.55 319 7.56 316 1.9 100 1.9 308 816 997.7 NA 0.0000 9999 300 0 0 0
2017/11/07 15:02:01 BASE 6.80 320 7.87 322 1.9 100 1.9 299 798 997.7 NA 0.0000 9999 300 0 0 0
2017/11/07 15:03:01 BASE 6.93 320 7.87 322 1.9 100 1.9 295 790 997.7 NA 0.0000 9999 330 0 0 0
2017/11/07 15:04:01 BASE 6.58 318 7.87 322 1.9 100 1.9 298 797 997.8 NA 0.0000 9999 300 0 0 0
2017/11/07 15:05:01 BASE 6.10 317 7.87 322 1.9 100 1.9 304 810 997.8 NA 0.0000 9999 330 0 0 0
2017/11/07 15:06:01 BASE 5.87 316 7.87 322 1.9 100 1.9 310 823 997.8 NA 0.0000 9999 330 0 0 0
2017/11/07 15:07:01 BASE 6.15 316 7.87 322 1.9 100 1.9 314 829 997.8 NA 0.0000 9999 330 23130 0 0
2017/11/07 15:08:01 BASE 6.11 316 7.87 322 1.9 100 1.9 313 829 997.8 NA 0.0000 9999 330 0 0 0
2017/11/07 15:09:01 BASE 5.74 318 7.87 322 1.9 100 1.9 311 825 997.8 NA 0.0000 9999 330 0 0 0
2017/11/07 15:10:01 BASE 5.49 318 7.87 322 1.8 100 1.8 310 822 997.8 NA 0.0000 9999 360 0 0 0
2017/11/07 15:11:01 BASE 5.39 316 7.87 322 1.8 100 1.8 307 819 997.8 NA 0.0000 9999 330 0 0 0
2017/11/07 15:12:01 BASE 5.57 314 7.51 313 1.8 100 1.8 302 808 997.8 NA 0.0000 9999 360 0 0 0
2017/11/07 15:13:01 BASE 5.67 313 6.84 320 1.8 100 1.8 297 800 997.8 NA 0.0000 9999 360 0 0 0
2017/11/07 15:14:01 BASE 5.65 310 6.79 314 1.8 100 1.8 295 796 997.8 NA 0.0000 9999 360 21200 0 0
2017/11/07 15:15:01 BASE 5.55 309 6.79 314 1.7 100 1.7 292 790 997.8 NA 0.0000 9999 330 0 0 0
2017/11/07 15:16:01 BASE 5.44 309 6.79 314 1.7 100 1.7 290 786 997.8 NA 0.0000 9999 330 0 0 0
2017/11/07 15:17:01 BASE 5.60 312 6.38 316 1.8 100 1.8 288 781 997.8 NA 0.0000 9999 330 0 0 0
2017/11/07 15:18:01 BASE 5.40 316 6.38 316 1.8 100 1.8 290 787 997.8 NA 0.0000 9999 330 0 0 0
2017/11/07 15:19:01 BASE 5.02 315 6.38 316 1.8 100 1.8 295 797 997.8 NA 0.0000 9999 330 0 0 0
2017/11/07 15:20:01 BASE 5.09 313 6.38 316 1.8 100 1.8 297 800 997.8 NA 0.0000 9999 360 0 0 0
2017/11/07 15:21:01 BASE 5.47 312 6.38 316 1.8 100 1.8 297 799 997.8 NA 0.0000 9999 330 0 0 0
2017/11/07 15:22:01 BASE 5.83 309 6.38 316 1.8 100 1.8 292 790 997.8 NA 0.0000 9999 330 0 0 0
2017/11/07 15:23:01 BASE 5.93 309 6.28 311 1.8 100 1.8 286 778 997.8 NA 0.0000 9999 330 0 0 0
2017/11/07 15:24:01 BASE 5.77 312 6.28 311 1.8 100 1.8 284 772 997.9 NA 0.0000 9999 330 0 0 0
2017/11/07 15:25:01 BASE 5.54 314 6.28 311 1.9 100 1.9 284 772 997.9 NA 0.0000 9999 330 0 0 0
2017/11/07 15:26:01 BASE 5.70 317 6.58 318 1.9 100 1.9 285 774 997.9 NA 0.0000 9999 360 0 0 0
2017/11/07 15:27:01 BASE 6.33 317 7.25 317 1.9 100 1.9 285 774 997.9 NA 0.0000 9999 330 0 0 0
2017/11/07 15:28:01 BASE 6.57 317 7.25 317 1.8 100 1.8 281 768 997.9 NA 0.0000 9999 330 0 0 0
2017/11/07 15:29:01 BASE 6.19 315 7.25 317 1.8 100 1.8 281 768 997.9 NA 0.0000 9999 330 1180 0 0
2017/11/07 15:30:01 BASE 5.78 315 7.25 317 1.8 100 1.8 285 776 997.9 NA 0.0000 9999 360 0 0 0
2017/11/07 15:31:01 BASE 5.59 319 7.25 317 1.8 100 1.8 290 787 997.9 NA 0.0000 9999 360 0 0 0
2017/11/07 15:32:01 BASE 5.49 322 7.25 317 1.7 100 1.7 294 797 997.9 NA 0.0000 9999 390 0 0 0
2017/11/07 15:33:01 BASE 5.44 322 7.25 317 1.7 100 1.7 300 810 997.9 NA 0.0000 9999 430 0 0 0
2017/11/07 15:34:01 BASE 5.49 320 7.25 317 1.7 100 1.7 304 818 997.9 NA 0.0000 9999 490 0 0 0
2017/11/07 15:35:01 BASE 5.59 319 7.25 317 1.7 100 1.7 305 820 997.9 NA 0.0000 9999 430 0 0 0
2017/11/07 15:36:01 BASE 5.94 318 7.25 317 1.7 100 1.7 309 826 997.9 NA 0.0000 9999 360 0 0 0
2017/11/07 15:37:01 BASE 6.05 318 6.94 315 1.7 100 1.7 318 844 997.9 NA 0.0000 9999 300 0 0 0
2017/11/07 15:38:01 BASE 5.84 318 6.74 319 1.7 100 1.7 329 864 997.9 NA 0.0000 9999 300 0 0 0
2017/11/07 15:39:01 BASE 5.58 318 6.74 319 1.7 100 1.7 341 887 997.9 NA 0.0000 9999 300 0 0 0
2017/11/07 15:40:01 BASE 5.35 317 6.74 319 1.7 100 1.7 350 904 997.9 NA 0.0000 9999 300 0 0 0
2017/11/07 15:41:01 BASE 5.21 317 6.74 319 1.7 100 1.7 353 911 997.9 NA 0.0000 9999 330 0 0 0
2017/11/07 15:42:01 BASE 5.22 316 6.74 319 1.7 100 1.7 354 910 997.9 NA 0.0000 9999 330 0 0 0
2017/11/07 15:43:01 BASE 5.26 315 6.74 319 1.8 100 1.8 354 912 997.9 NA 0.0000 9999 330 0 0 0
2017/11/07 15:44:01 BASE 5.43 317 6.74 319 1.8 100 1.8 356 917 997.9 NA 0.0000 9999 330 0 0 0
2017/11/07 15:45:01 BASE 5.58 323 6.74 319 1.8 100 1.8 359 922 997.9 NA 0.0000 9999 330 0 0 0
2017/11/07 15:46:01 BASE 5.42 327 6.43 306 1.8 100 1.8 360 923 997.9 NA 0.0000 9999 360 0 0 0
2017/11/07 15:47:01 BASE 5.15 328 6.33 321 1.8 100 1.8 357 918 997.9 NA 0.0000 9999 360 0 0 0
2017/11/07 15:48:01 BASE 5.07 327 6.33 321 1.8 100 1.8 354 912 997.9 NA 0.0000 9999 330 0 0 0
2017/11/07 15:49:01 BASE 5.10 327 6.17 316 1.7 100 1.7 347 899 997.9 NA 0.0000 9999 330 0 0 0
2017/11/07 15:50:01 BASE 4.99 328 6.17 316 1.7 100 1.7 332 872 997.9 NA 0.0000 9999 330 0 0 0
2017/11/07 15:51:01 BASE 4.87 327 6.17 316 1.6 100 1.6 323 854 997.9 NA 0.0000 9999 330 0 0 0
2017/11/07 15:52:01 BASE 5.03 326 6.12 319 1.6 100 1.6 321 851 997.9 NA 0.0000 9999 330 0 0 0
2017/11/07 15:53:01 BASE 5.14 327 6.12 319 1.6 100 1.6 318 845 997.9 NA 0.0000 9999 330 0 0 0
2017/11/07 15:54:01 BASE 4.95 327 6.07 330 1.6 100 1.6 312 832 997.9 NA 0.0000 9999 330 0 0 0
2017/11/07 15:55:01 BASE 5.02 326 6.07 330 1.5 100 1.5 307 822 998.0 NA 0.0000 9999 360 0 0 0
2017/11/07 15:56:01 BASE 5.05 323 6.07 330 1.5 100 1.5 302 813 998.0 NA 0.0000 9999 360 0 0 0
2017/11/07 15:57:01 BASE 4.98 321 6.07 330 1.5 100 1.5 293 796 998.0 NA 0.0000 9999 360 0 0 0
2017/11/07 15:58:01 BASE 4.93 322 6.07 330 1.5 100 1.5 284 777 998.0 NA 0.0000 9999 360 0 0 0
2017/11/07 15:59:01 BASE 4.85 321 6.07 330 1.5 100 1.5 278 765 998.0 NA 0.0000 9999 390 0 0 0
2017/11/07 16:00:01 BASE 4.99 318 6.07 330 1.5 100 1.5 275 758 998.0 NA 0.0000 9999 360 0 0 0
2017/11/07 16:01:01 BASE 5.08 317 6.07 330 1.5 100 1.5 272 752 998.1 NA 0.0000 9999 360 0 0 0
2017/11/07 16:02:01 BASE 5.06 317 5.45 314 1.5 100 1.5 268 743 998.2 NA 0.0000 9999 360 0 0 0
2017/11/07 16:03:01 BASE 5.07 317 5.45 314 1.5 100 1.5 266 737 998.2 NA 0.0000 9999 360 0 0 0
2017/11/07 16:04:01 BASE 5.08 318 5.45 314 1.5 100 1.5 267 739 998.2 NA 0.0000 9999 360 0 0 0
2017/11/07 16:05:01 BASE 4.98 319 5.45 314 1.5 100 1.5 266 738 998.2 NA 0.0000 9999 360 0 0 0
2017/11/07 16:06:01 BASE 4.98 319 5.45 314 1.6 100 1.6 263 732 998.2 NA 0.0000 9999 360 0 0 0
2017/11/07 16:07:01 BASE 4.92 320 5.45 314 1.6 100 1.6 258 724 998.2 NA 0.0000 9999 360 0 0 0
2017/11/07 16:08:01 BASE 4.86 320 5.45 314 1.6 100 1.6 256 722 998.2 NA 0.0000 9999 360 0 0 0
2017/11/07 16:09:01 BASE 4.96 321 5.45 321 1.6 100 1.6 256 722 998.2 NA 0.0000 9999 390 0 0 0
2017/11/07 16:10:01 BASE 5.09 320 5.71 313 1.5 100 1.5 260 733 998.3 NA 0.0000 9999 390 0 0 0
2017/11/07 16:11:01 BASE 5.53 319 6.17 327 1.5 100 1.5 263 740 998.3 NA 0.0000 9999 620 0 0 0
2017/11/07 16:12:01 BASE 5.78 320 6.17 322 1.5 100 1.5 259 731 998.3 NA 0.0000 9999 460 0 0 0
2017/11/07 16:13:01 BASE 5.49 319 6.17 322 1.5 100 1.5 256 723 998.3 NA 0.0000 9999 590 0 0 0
2017/11/07 16:14:01 BASE 5.26 317 6.17 322 1.5 100 1.5 251 711 998.3 NA 0.0000 9999 590 0 0 0
2017/11/07 16:15:01 BASE 5.49 316 6.17 318 1.5 100 1.5 241 690 998.3 NA 0.0000 9999 660 0 0 0
2017/11/07 16:16:01 BASE 5.48 316 6.17 318 1.5 100 1.5 233 670 998.3 NA 0.0000 9999 590 16110 0 0
2017/11/07 16:17:01 BASE 5.41 316 6.17 318 1.5 100 1.5 229 661 998.3 NA 0.0000 9999 660 0 0 0
2017/11/07 16:18:01 BASE 5.32 318 6.17 318 1.5 100 1.5 228 657 998.4 NA 0.0000 9999 660 0 0 0
2017/11/07 16:19:01 BASE 4.90 323 6.17 318 1.5 100 1.5 228 655 998.4 NA 0.0000 9999 720 0 0 0
2017/11/07 16:20:01 BASE 4.69 325 6.17 318 1.5 100 1.5 226 649 998.4 NA 0.0000 9999 720 0 0 0
2017/11/07 16:21:01 BASE 5.03 323 6.17 318 1.5 100 1.5 223 642 998.4 NA 0.0000 9999 750 0 0 0
2017/11/07 16:22:01 BASE 5.31 324 6.17 318 1.5 100 1.5 219 631 998.4 NA 0.0000 9999 660 0 0 0
2017/11/07 16:23:01 BASE 5.03 324 6.17 318 1.5 100 1.5 225 644 998.4 NA 0.0000 9999 590 0 0 0
2017/11/07 16:24:01 BASE 4.93 323 6.17 318 1.5 100 1.5 232 660 998.4 NA 0.0000 9999 590 0 0 0
2017/11/07 16:25:01 BASE 5.22 324 5.92 316 1.5 100 1.5 242 686 998.4 NA 0.0000 9999 620 0 0 0
2017/11/07 16:26:01 BASE 5.38 325 5.92 316 1.4 100 1.4 257 721 998.4 NA 0.0000 9999 620 16540 0 0
2017/11/07 16:27:01 BASE 5.35 326 5.81 323 1.4 100 1.4 275 760 998.4 NA 0.0000 9999 620 0 0 0
2017/11/07 16:28:01 BASE 5.38 326 5.81 323 1.4 100 1.4 290 790 998.3 NA 0.0000 9999 690 0 0 0
2017/11/07 16:29:01 BASE 5.35 326 5.81 323 1.4 100 1.4 297 805 998.3 NA 0.0000 9999 690 0 0 0
2017/11/07 16:30:01 BASE 5.28 329 5.81 323 1.4 100 1.4 299 807 998.4 NA 0.0000 9999 660 0 0 0
2017/11/07 16:31:01 BASE 4.97 331 5.76 325 1.4 100 1.4 300 808 998.4 NA 0.0000 9999 620 0 0 0
2017/11/07 16:32:01 BASE 4.62 332 5.76 325 1.4 100 1.4 296 800 998.4 NA 0.0000 9999 690 0 0 0
2017/11/07 16:33:01 BASE 4.67 333 5.76 325 1.4 100 1.4 288 782 998.4 NA 0.0000 9999 690 0 0 0
2017/11/07 16:34:01 BASE 4.66 333 5.76 325 1.5 100 1.5 280 763 998.4 NA 0.0000 9999 720 0 0 0
2017/11/07 16:35:01 BASE 4.57 331 5.66 322 1.5 100 1.5 266 733 998.4 NA 0.0000 9999 750 0 0 0
2017/11/07 16:36:01 BASE 4.67 327 5.66 322 1.5 100 1.5 257 714 998.4 NA 0.0000 9999 720 0 0 0
2017/11/07 16:37:01 BASE 4.81 326 5.66 322 1.6 100 1.6 254 708 998.4 NA 0.0000 9999 720 0 0 0
2017/11/07 16:38:01 BASE 4.77 326 5.56 324 1.6 100 1.6 260 721 998.5 NA 0.0000 9999 690 0 0 0
2017/11/07 16:39:01 BASE 4.56 328 5.45 329 1.6 100 1.6 267 736 998.5 NA 0.0000 9999 750 0 0 0
2017/11/07 16:40:01 BASE 4.41 330 5.30 336 1.6 100 1.6 272 746 998.5 NA 0.0000 9999 720 0 0 0
2017/11/07 16:41:00 BASE 4.31 328 5.30 336 1.6 100 1.6 267 737 998.5 NA 0.0000 9999 750 0 0 0
2017/11/07 16:42:00 BASE 4.22 326 5.30 336 1.6 100 1.6 258 721 998.5 NA 0.0000 9999 720 0 0 0
2017/11/07 16:43:00 BASE 4.18 326 5.14 330 1.6 100 1.6 255 716 998.5 NA 0.0000 9999 750 21060 0 0
2017/11/07 16:44:00 BASE 4.09 327 5.14 330 1.6 100 1.6 248 703 998.5 NA 0.0000 9999 750 0 0 0
2017/11/07 16:45:00 BASE 3.93 326 5.14 330 1.6 100 1.6 238 683 998.5 NA 0.0000 9999 790 0 0 0
2017/11/07 16:46:00 BASE 3.80 326 5.14 330 1.6 100 1.6 237 680 998.5 NA 0.0000 9999 790 0 0 0
2017/11/07 16:47:00 BASE 3.76 328 5.14 330 1.6 100 1.6 244 694 998.6 NA 0.0000 9999 790 0 0 0
2017/11/07 16:48:00 BASE 3.83 330 5.14 330 1.6 100 1.6 254 718 998.6 NA 0.0000 9999 750 0 0 0
2017/11/07 16:49:00 BASE 3.94 330 5.14 330 1.6 100 1.6 262 739 998.5 NA 0.0000 9999 750 0 0 0
2017/11/07 16:50:00 BASE 3.91 329 4.68 328 1.7 100 1.7 266 751 998.6 NA 0.0000 9999 790 0 0 0
2017/11/07 16:51:00 BASE 3.68 328 4.48 328 1.8 100 1.8 264 750 998.6 NA 0.0000 9999 790 0 0 0
2017/11/07 16:52:00 BASE 3.46 327 4.48 328 1.8 100 1.8 260 741 998.6 NA 0.0000 9999 820 0 0 0
2017/11/07 16:53:00 BASE 3.21 319 4.37 319 1.8 100 1.8 251 723 998.7 NA 0.0000 9999 850 0 0 0
2017/11/07 16:54:00 BASE 3.29 310 4.37 319 1.9 100 1.9 243 704 998.7 NA 0.0000 9999 820 0 0 0
2017/11/07 16:55:00 BASE 3.82 313 4.37 320 1.8 100 1.8 241 698 998.8 NA 0.0000 9999 790 0 0 0
2017/11/07 16:56:00 BASE 3.98 317 4.37 320 1.8 100 1.8 240 697 998.8 NA 0.0000 9999 750 0 0 0
2017/11/07 16:57:00 BASE 3.89 318 4.37 320 1.8 100 1.8 240 696 998.8 NA 0.0000 9999 790 0 0 0
2017/11/07 16:58:00 BASE 3.79 313 4.37 320 1.8 100 1.8 239 695 998.8 NA 0.0000 9999 790 0 0 0
2017/11/07 16:59:00 BASE 3.70 308 4.37 320 1.8 100 1.8 236 687 998.9 NA 0.0000 9999 820 0 0 0
2017/11/07 17:00:00 BASE 3.69 306 4.37 320 1.9 100 1.9 230 675 998.9 NA 0.0000 9999 820 0 0 0
2017/11/07 17:01:00 BASE 3.83 306 4.37 320 1.8 100 1.8 224 660 998.9 NA 0.0000 9999 850 0 0 0
2017/11/07 17:02:00 BASE 4.09 305 4.37 305 1.9 100 1.9 217 645 998.9 NA 0.0000 9999 850 0 0 0
2017/11/07 17:03:00 BASE 4.12 302 4.37 305 1.9 100 1.9 209 626 999.0 NA 0.0000 9999 890 0 0 0
2017/11/07 17:04:00 BASE 4.03 298 4.37 305 1.8 100 1.8 205 617 999.0 NA 0.0000 9999 850 0 0 0
2017/11/07 17:05:00 BASE 3.89 292 4.37 305 1.8 100 1.8 208 621 999.0 NA 0.0000 9999 820 0 0 0
2017/11/07 17:06:00 BASE 3.98 290 4.48 297 1.7 100 1.7 211 628 999.1 NA 0.0000 9999 820 0 0 0
2017/11/07 17:07:00 BASE 4.17 291 4.48 297 1.6 100 1.6 213 631 999.1 NA 0.0000 9999 850 0 0 0
2017/11/07 17:08:00 BASE 3.94 289 4.48 297 1.6 100 1.6 220 646 999.1 NA 0.0000 9999 720 0 0 0
2017/11/07 17:09:00 BASE 3.78 289 4.48 291 1.5 100 1.5 227 660 999.1 NA 0.0000 9999 720 0 0 0
2017/11/07 17:10:00 BASE 3.95 292 4.53 291 1.4 100 1.4 226 660 999.1 NA 0.0000 9999 720 0 0 0
2017/11/07 17:11:00 BASE 3.93 291 4.53 291 1.4 100 1.4 219 643 999.1 NA 0.0000 9999 660 0 0 0
2017/11/07 17:12:00 BASE 3.92 286 4.53 291 1.4 100 1.4 211 624 999.1 NA 0.0000 9999 660 0 0 0
2017/11/07 17:13:00 BASE 4.15 282 4.53 291 1.3 100 1.3 206 612 999.1 NA 0.0000 9999 660 22380 0 0
2017/11/07 17:14:00 BASE 4.47 279 4.94 278 1.3 100 1.3 205 609 999.2 NA 0.0000 9999 660 0 0 0
2017/11/07 17:15:00 BASE 4.74 278 4.99 281 1.3 100 1.3 211 621 999.2 NA 0.0000 9999 720 21590 0 0
2017/11/07 17:16:00 BASE 4.71 281 4.99 281 1.3 100 1.3 220 644 999.2 NA 0.0000 9999 720 0 0 0
2017/11/07 17:17:00 BASE 4.43 283 4.99 281 1.4 100 1.4 237 682 999.2 NA 0.0000 9999 660 0 0 0
2017/11/07 17:18:00 BASE 4.16 285 4.99 281 1.4 100 1.4 250 711 999.2 NA 0.0000 9999 660 0 0 0
2017/11/07 17:19:00 BASE 3.94 286 4.99 281 1.4 100 1.4 253 717 999.2 NA 0.0000 9999 690 0 0 0
2017/11/07 17:20:00 BASE 3.84 286 4.99 281 1.4 100 1.4 248 705 999.2 NA 0.0000 9999 720 0 0 0
2017/11/07 17:21:00 BASE 3.94 288 4.99 281 1.4 100 1.4 239 682 999.2 NA 0.0000 9999 750 0 0 0
2017/11/07 17:22:00 BASE 4.03 291 4.99 281 1.4 100 1.4 230 659 999.2 NA 0.0000 9999 720 0 0 0
2017/11/07 17:23:00 BASE 3.88 293 4.99 281 1.4 100 1.4 225 647 999.2 NA 0.0000 9999 690 0 0 0
2017/11/07 17:24:00 BASE 3.67 294 4.99 281 1.3 100 1.3 223 641 999.2 NA 0.0000 9999 690 0 0 0
2017/11/07 17:25:00 BASE 3.56 295 4.89 276 1.3 100 1.3 220 633 999.2 NA 0.0000 9999 720 0 0 0
2017/11/07 17:26:00 BASE 3.48 296 4.42 285 1.2 100 1.2 212 615 999.2 NA 0.0000 9999 720 0 0 0
2017/11/07 17:27:00 BASE 3.64 296 4.32 297 1.2 100 1.2 202 593 999.2 NA 0.0000 9999 660 0 0 0
2017/11/07 17:28:00 BASE 3.99 296 4.58 296 1.2 100 1.2 196 579 999.3 NA 0.0000 9999 660 0 0 0
2017/11/07 17:29:00 BASE 4.28 297 4.99 301 1.2 100 1.2 194 575 999.4 NA 0.0000 9999 620 0 0 0
2017/11/07 17:30:00 BASE 4.31 298 4.99 301 1.2 100 1.2 192 572 999.4 NA 0.0000 9999 620 0 0 0
2017/11/07 17:31:00 BASE 4.24 299 4.99 301 1.2 100 1.2 189 567 999.4 NA 0.0000 9999 620 0 0 0
2017/11/07 17:32:00 BASE 4.29 299 4.99 297 1.2 100 1.2 195 578 999.4 NA 0.0000 9999 590 0 0 0
2017/11/07 17:33:00 BASE 4.21 299 4.99 297 1.2 100 1.2 204 599 999.4 NA 0.0000 9999 620 0 0 0
2017/11/07 17:34:00 BASE 4.14 302 4.99 297 1.2 100 1.2 206 604 999.4 NA 0.0000 9999 620 0 0 0
2017/11/07 17:35:00 BASE 4.29 303 5.14 305 1.2 100 1.2 203 598 999.4 NA 0.0000 9999 660 0 0 0
2017/11/07 17:36:00 BASE 4.19 301 5.14 305 1.2 100 1.2 201 593 999.4 NA 0.0000 9999 660 0 0 0
2017/11/07 17:37:00 BASE 3.91 300 5.14 305 1.3 100 1.3 201 592 999.4 NA 0.0000 9999 660 0 0 0
2017/11/07 17:38:00 BASE 3.63 301 5.14 305 1.3 100 1.3 200 589 999.5 NA 0.0000 9999 690 0 0 0
2017/11/07 17:39:00 BASE 3.42 302 5.14 305 1.3 100 1.3 202 593 999.4 NA 0.0000 9999 660 0 0 0
2017/11/07 17:40:00 BASE 3.32 301 5.14 305 1.3 100 1.3 201 591 999.5 NA 0.0000 9999 660 0 0 0
2017/11/07 17:41:00 BASE 3.23 299 5.14 305 1.3 100 1.3 199 586 999.5 NA 0.0000 9999 720 0 0 0
2017/11/07 17:42:00 BASE 3.36 299 5.14 305 1.3 100 1.3 195 576 999.5 NA 0.0000 9999 720 0 0 0
2017/11/07 17:43:00 BASE 3.43 299 5.14 305 1.3 100 1.3 191 566 999.5 NA 0.0000 9999 750 0 0 0
2017/11/07 17:44:00 BASE 3.48 300 5.14 305 1.2 100 1.2 189 562 999.5 NA 0.0000 9999 750 0 0 0
2017/11/07 17:45:00 BASE 3.45 301 4.48 298 1.2 100 1.2 193 571 999.5 NA 0.0000 9999 720 0 0 0
2017/11/07 17:46:00 BASE 3.29 303 4.32 301 1.3 100 1.3 202 590 999.5 NA 0.0000 9999 720 0 0 0
2017/11/07 17:47:00 BASE 3.16 306 4.12 305 1.3 100 1.3 207 602 999.5 NA 0.0000 9999 750 0 0 0
2017/11/07 17:48:00 BASE 2.79 308 4.12 305 1.4 100 1.4 209 607 999.5 NA 0.0000 9999 720 0 0 0
2017/11/07 17:49:00 BASE 2.08 317 4.12 305 1.4 100 1.4 214 617 999.6 NA 0.0000 9999 720 0 0 0
2017/11/07 17:50:00 BASE 1.69 321 4.12 305 1.4 100 1.4 217 623 999.6 NA 0.0000 9999 690 0 0 0
2017/11/07 17:51:00 BASE 1.59 318 4.12 305 1.4 100 1.4 219 628 999.6 NA 0.0000 9999 660 0 0 0
2017/11/07 17:52:00 BASE 1.46 319 4.12 305 1.3 100 1.3 225 638 999.6 NA 0.0000 9999 690 0 0 0
2017/11/07 17:53:00 BASE 1.59 322 4.12 305 1.3 100 1.3 231 651 999.6 NA 0.0000 9999 690 23820 0 0
2017/11/07 17:54:00 BASE 1.80 323 3.65 302 1.3 100 1.3 236 661 999.6 NA 0.0000 9999 690 0 0 0
2017/11/07 17:55:00 BASE 1.71 324 3.34 302 1.3 100 1.3 240 670 999.6 NA 0.0000 9999 690 21030 0 0
2017/11/07 17:56:00 BASE 1.57 326 3.29 308 1.3 100 1.3 242 675 999.6 NA 0.0000 9999 660 0 0 0
2017/11/07 17:57:00 BASE 1.70 324 2.88 306 1.3 100 1.3 242 674 999.6 NA 0.0000 9999 660 0 0 0
2017/11/07 17:58:00 BASE 1.76 324 2.11 328 1.3 100 1.3 239 668 999.6 NA 0.0000 9999 660 0 0 0
2017/11/07 17:59:00 BASE 1.83 322 2.11 324 1.3 100 1.3 234 657 999.6 NA 0.0000 9999 690 0 0 0
2017/11/07 18:00:00 BASE 1.97 320 2.11 321 1.3 100 1.3 230 646 999.6 NA 0.0000 9999 690 0 0 0
2017/11/07 18:01:00 BASE 2.07 316 2.26 314 1.3 100 1.3 229 643 999.7 NA 0.0000 9999 690 0 0 0
2017/11/07 18:02:00 BASE 2.08 309 2.26 314 1.4 100 1.3 224 633 999.7 NA 0.0000 9999 660 0 0 0
2017/11/07 18:03:00 BASE 2.24 292 3.04 282 1.4 100 1.3 218 619 999.7 NA 0.0000 9999 660 0 0 0
2017/11/07 18:04:00 BASE 2.80 286 3.55 295 1.4 100 1.4 219 618 999.7 NA 0.0000 9999 590 0 0 0
2017/11/07 18:05:00 BASE 3.42 294 4.01 295 1.4 100 1.4 221 623 999.7 NA 0.0000 9999 620 0 0 0
2017/11/07 18:06:00 BASE 3.64 298 4.01 295 1.3 100 1.3 221 623 999.7 NA 0.0000 9999 620 22210 0 0
2017/11/07 18:07:00 BASE 3.59 300 4.01 295 1.3 100 1.3 216 613 999.7 NA 0.0000 9999 620 0 0 0
2017/11/07 18:08:00 BASE 3.60 299 4.01 298 1.3 100 1.3 207 597 999.7 NA 0.0000 9999 590 0 0 0
2017/11/07 18:09:00 BASE 3.68 298 4.01 298 1.3 100 1.3 200 580 999.7 NA 0.0000 9999 590 0 0 0
2017/11/07 18:10:00 BASE 3.69 297 4.01 298 1.3 100 1.3 195 567 999.7 NA 0.0000 9999 560 0 0 0
2017/11/07 18:11:00 BASE 3.76 296 4.01 295 1.3 100 1.3 194 562 999.7 NA 0.0000 9999 590 0 0 0
2017/11/07 18:12:00 BASE 3.81 296 4.01 295 1.2 100 1.2 198 568 999.7 NA 0.0000 9999 590 0 0 0
2017/11/07 18:13:00 BASE 3.79 297 4.01 295 1.2 100 1.2 201 574 999.7 NA 0.0000 9999 620 0 0 0
2017/11/07 18:14:00 BASE 3.80 296 4.01 295 1.2 100 1.2 200 573 999.7 NA 0.0000 9999 660 0 0 0
2017/11/07 18:15:00 BASE 3.76 293 4.01 295 1.2 100 1.2 201 576 999.7 NA 0.0000 9999 620 0 0 0
2017/11/07 18:16:00 BASE 3.62 290 4.01 295 1.1 100 1.1 203 583 999.7 NA 0.0000 9999 590 0 0 0
2017/11/07 18:17:00 BASE 3.37 287 4.01 295 1.1 100 1.1 205 586 999.7 NA 0.0000 9999 590 0 0 0
2017/11/07 18:18:00 BASE 3.26 285 4.01 295 1.1 100 1.1 204 586 999.7 NA 0.0000 9999 590 0 0 0
2017/11/07 18:19:00 BASE 3.11 285 4.01 295 1.1 100 1.1 207 590 999.8 NA 0.0000 9999 590 0 0 0
2017/11/07 18:20:00 BASE 2.89 285 4.01 295 1.1 100 1.1 216 610 999.8 NA 0.0000 9999 620 0 0 0
2017/11/07 18:21:00 BASE 2.69 288 3.96 292 1.1 100 1.1 221 620 999.8 NA 0.0000 9999 620 0 0 0
2017/11/07 18:22:00 BASE 2.52 292 3.96 292 1.1 100 1.1 220 616 999.8 NA 0.0000 9999 590 0 0 0
2017/11/07 18:23:00 BASE 2.50 293 3.96 292 1.1 100 1.1 218 611 999.8 NA 0.0000 9999 620 0 0 0
2017/11/07 18:24:00 BASE 2.58 294 3.96 292 1.1 100 1.1 217 609 999.8 NA 0.0000 9999 590 0 0 0
2017/11/07 18:25:00 BASE 2.60 293 3.70 286 1.1 100 1.1 217 609 999.8 NA 0.0000 9999 660 0 0 0
2017/11/07 18:26:00 BASE 2.57 293 3.65 279 1.0 100 1.0 217 607 999.9 NA 0.0000 9999 690 0 0 0
2017/11/07 18:27:00 BASE 2.61 293 3.65 279 1.0 100 1.0 217 607 999.9 NA 0.0000 9999 720 0 0 0
2017/11/07 18:28:00 BASE 2.68 295 3.19 289 1.0 100 1.0 219 610 999.9 NA 0.0000 9999 720 0 0 0
2017/11/07 18:29:00 BASE 2.61 298 3.19 289 1.0 100 1.0 220 613 999.9 NA 0.0000 9999 720 0 0 0
2017/11/07 18:30:00 BASE 2.51 300 2.88 297 1.0 100 1.0 221 615 999.9 NA 0.0000 9999 750 0 0 0
2017/11/07 18:31:00 BASE 2.50 303 2.88 297 1.1 100 1.1 221 616 999.9 NA 0.0000 9999 750 0 0 0
2017/11/07 18:32:00 BASE 2.39 304 2.88 297 1.1 100 1.1 218 610 999.9 NA 0.0000 9999 790 0 0 0
2017/11/07 18:33:00 BASE 2.36 302 2.88 297 1.1 100 1.1 213 599 999.9 NA 0.0000 9999 750 0 0 0
2017/11/07 18:34:00 BASE 2.46 301 2.88 297 1.0 100 1.0 210 590 1000.0 NA 0.0000 9999 750 0 0 0
2017/11/07 18:35:00 BASE 2.54 301 2.88 297 1.0 100 1.0 209 588 999.9 NA 0.0000 9999 750 0 0 0
2017/11/07 18:36:00 BASE 2.54 300 2.88 297 1.0 100 1.0 210 588 1000.0 NA 0.0000 9999 750 0 0 0
2017/11/07 18:37:00 BASE 2.57 301 2.88 296 1.0 100 1.0 210 588 999.9 NA 0.0000 9999 750 0 0 0
2017/11/07 18:38:00 BASE 2.62 302 2.88 296 1.0 100 1.0 209 586 999.9 NA 0.0000 9999 720 0 0 0
2017/11/07 18:39:00 BASE 2.57 303 2.88 296 1.1 100 1.1 207 582 1000.0 NA 0.0000 9999 690 0 0 0
2017/11/07 18:40:00 BASE 2.48 303 2.98 298 1.1 100 1.1 206 580 1000.1 NA 0.0000 9999 690 0 0 0
2017/11/07 18:41:00 BASE 2.48 302 2.98 298 1.1 100 1.1 208 584 1000.1 NA 0.0000 9999 690 0 0 0
2017/11/07 18:42:00 BASE 2.38 302 2.98 298 1.1 100 1.1 214 593 1000.0 NA 0.0000 9999 660 0 0 0
2017/11/07 18:43:00 BASE 2.19 300 2.98 298 1.1 100 1.1 216 596 1000.0 NA 0.0000 9999 690 0 0 0
2017/11/07 18:44:00 BASE 2.16 299 2.98 298 1.1 100 1.1 214 590 1000.0 NA 0.0000 9999 720 0 0 0
2017/11/07 18:45:00 BASE 2.20 300 2.98 298 1.1 100 1.1 209 579 1000.1 NA 0.0000 9999 720 0 0 0
2017/11/07 18:46:00 BASE 2.24 299 2.98 298 1.1 100 1.1 204 568 1000.1 NA 0.0000 9999 690 0 0 0
2017/11/07 18:47:00 BASE 2.26 299 2.98 298 1.1 100 1.1 199 557 1000.1 NA 0.0000 9999 660 0 0 0
2017/11/07 18:48:00 BASE 2.25 297 2.98 298 1.1 100 1.1 193 545 1000.1 NA 0.0000 9999 690 0 0 0
2017/11/07 18:49:00 BASE 2.23 294 2.98 298 1.1 100 1.1 189 536 1000.1 NA 0.0000 9999 660 0 0 0
2017/11/07 18:50:00 BASE 2.16 293 2.68 298 1.1 100 1.1 189 535 1000.1 NA 0.0000 9999 660 0 0 0
2017/11/07 18:51:00 BASE 2.17 294 2.57 303 1.1 100 1.1 190 536 1000.1 NA 0.0000 9999 660 0 0 0
2017/11/07 18:52:00 BASE 2.34 294 2.62 296 1.1 100 1.1 188 532 1000.1 NA 0.0000 9999 660 0 0 0
2017/11/07 18:53:00 BASE 2.46 296 2.62 299 1.1 100 1.1 190 534 1000.1 NA 0.0000 9999 690 0 0 0
2017/11/07 18:54:00 BASE 2.48 299 2.78 298 1.1 100 1.1 191 537 1000.2 NA 0.0000 9999 690 0 0 0
2017/11/07 18:55:00 BASE 2.41 298 2.78 298 1.1 100 1.1 190 535 1000.2 NA 0.0000 9999 660 0 0 0
2017/11/07 18:56:00 BASE 2.33 298 2.78 298 1.2 100 1.2 191 537 1000.2 NA 0.0000 9999 690 0 0 0
2017/11/07 18:57:00 BASE 2.29 298 2.78 298 1.2 100 1.2 193 540 1000.2 NA 0.0000 9999 690 0 0 0
2017/11/07 18:58:00 BASE 2.18 299 2.78 298 1.2 100 1.2 194 542 1000.2 NA 0.0000 9999 690 0 0 0
2017/11/07 18:59:00 BASE 2.11 300 2.78 298 1.2 100 1.2 196 546 1000.2 NA 0.0000 9999 720 0 0 0
2017/11/07 19:00:00 BASE 2.16 299 2.78 298 1.2 100 1.2 195 544 1000.2 NA 0.0000 9999 820 0 0 0
2017/11/07 19:01:00 BASE 2.28 299 2.78 298 1.2 100 1.2 194 542 1000.2 NA 0.0000 9999 790 0 0 0
2017/11/07 19:02:00 BASE 2.30 300 2.78 298 1.2 100 1.2 196 545 1000.2 NA 0.0000 9999 820 0 0 0
2017/11/07 19:03:00 BASE 2.22 300 2.78 298 1.1 100 1.1 196 545 1000.2 NA 0.0000 9999 820 0 0 0
2017/11/07 19:04:00 BASE 2.27 301 2.62 299 1.1 100 1.1 196 544 1000.2 NA 0.0000 9999 720 0 0 0
2017/11/07 19:05:00 BASE 2.39 299 2.62 301 1.1 100 1.1 197 547 1000.2 NA 0.0000 9999 660 0 0 0
2017/11/07 19:06:00 BASE 2.27 300 2.62 301 1.0 100 1.0 200 552 1000.2 NA 0.0000 9999 660 0 0 0
2017/11/07 19:07:00 BASE 2.17 300 2.62 301 1.0 100 1.0 204 560 1000.2 NA 0.0000 9999 660 0 0 0
2017/11/07 19:08:00 BASE 2.15 300 2.62 301 1.0 100 1.0 212 578 1000.2 NA 0.0000 9999 660 0 0 0
2017/11/07 19:09:00 BASE 2.08 299 2.62 301 1.0 100 1.0 225 605 1000.1 NA 0.0000 9999 690 0 0 0
2017/11/07 19:10:00 BASE 2.00 300 2.62 301 1.1 100 1.1 238 631 1000.1 NA 0.0000 9999 720 0 0 0
2017/11/07 19:11:00 BASE 2.03 308 2.62 301 1.1 100 1.1 248 650 1000.1 NA 0.0000 9999 720 0 0 0
2017/11/07 19:12:00 BASE 2.10 317 2.62 301 1.1 100 1.1 253 658 1000.1 NA 0.0000 9999 720 0 0 0
2017/11/07 19:13:00 BASE 2.23 320 2.62 301 1.1 100 1.1 251 650 1000.1 NA 0.0000 9999 750 0 0 0
2017/11/07 19:14:00 BASE 2.51 315 2.98 301 1.1 100 1.1 248 647 1000.1 NA 0.0000 9999 720 0 0 0
2017/11/07 19:15:00 BASE 2.75 309 3.19 306 1.1 100 1.1 261 677 1000.2 NA 0.0000 9999 720 0 0 0
2017/11/07 19:16:00 BASE 3.01 308 3.34 304 1.1 100 1.1 287 733 1000.2 NA 0.0000 9999 690 0 0 0
2017/11/07 19:17:00 BASE 3.13 305 3.34 301 1.1 100 1.1 299 757 1000.2 NA 0.0000 9999 690 23030 0 0
2017/11/07 19:18:00 BASE 3.18 305 3.55 306 1.2 100 1.2 295 747 1000.2 NA 0.0000 9999 660 0 0 0
2017/11/07 19:19:00 BASE 3.32 305 3.55 303 1.2 100 1.2 289 732 1000.2 NA 0.0000 9999 720 0 0 0
2017/11/07 19:20:00 BASE 3.27 305 3.55 303 1.2 100 1.2 293 738 1000.2 NA 0.0000 9999 720 0 0 0
2017/11/07 19:21:00 BASE 3.14 306 3.55 303 1.2 100 1.2 292 736 1000.2 NA 0.0000 9999 750 0 0 0
2017/11/07 19:22:00 BASE 3.14 306 3.55 302 1.2 100 1.2 291 735 1000.2 NA 0.0000 9999 790 0 0 0
2017/11/07 19:23:00 BASE 3.27 306 3.55 303 1.2 100 1.2 292 736 1000.2 NA 0.0000 9999 720 0 0 0
2017/11/07 19:24:00 BASE 3.48 307 3.76 309 1.2 100 1.2 286 714 1000.2 NA 0.0000 9999 620 0 0 0
2017/11/07 19:25:00 BASE 3.74 310 4.17 312 1.2 100 1.2 282 700 1000.2 NA 0.0000 9999 660 0 0 0
2017/11/07 19:26:00 BASE 3.90 309 4.58 303 1.2 100 1.2 283 697 1000.2 NA 0.0000 9999 690 0 0 0
2017/11/07 19:27:00 BASE 3.71 309 4.58 303 1.2 100 1.2 282 692 1000.2 NA 0.0000 9999 690 0 0 0
2017/11/07 19:28:00 BASE 3.30 310 4.58 303 1.2 100 1.2 274 675 1000.2 NA 0.0000 9999 690 0 0 0
2017/11/07 19:29:00 BASE 3.03 306 4.58 303 1.2 100 1.2 272 672 1000.3 NA 0.0000 9999 750 0 0 0
2017/11/07 19:30:00 BASE 3.11 304 4.58 303 1.2 100 1.2 288 706 1000.3 NA 0.0000 9999 660 0 0 0
2017/11/07 19:31:00 BASE 3.24 307 4.58 303 1.3 100 1.3 301 734 1000.3 NA 0.0000 9999 660 0 0 0
2017/11/07 19:32:00 BASE 3.49 306 4.58 303 1.2 100 1.2 309 751 1000.3 NA 0.0000 UP 9999 690 0 0 0
2017/11/07 19:33:00 BASE 3.77 303 4.58 303 1.2 100 1.2 317 767 1000.3 NA 0.0000 UP 9999 690 0 0 0
2017/11/07 19:34:00 BASE 3.71 307 4.58 303 1.2 100 1.2 319 769 1000.3 NA 0.0000 UP 9999 690 0 0 0
2017/11/07 19:35:00 BASE 3.34 310 4.58 303 1.2 100 1.2 322 773 1000.3 NA 0.0000 UP 9999 660 0 0 0
2017/11/07 19:36:00 BASE 3.04 312 4.06 299 1.2 100 1.2 320 767 1000.3 NA 0.0000 UP 9999 690 0 0 0
2017/11/07 19:37:00 BASE 3.06 311 4.06 299 1.2 100 1.2 306 737 1000.3 NA 0.0000 UP 9999 690 0 0 0
2017/11/07 19:38:00 BASE 3.07 311 4.06 299 1.2 100 1.2 298 718 1000.3 NA 0.0000 UP 9999 660 0 0 0
2017/11/07 19:39:00 BASE 3.12 314 4.06 299 1.2 100 1.2 296 711 1000.3 NA 0.0000 UP 9999 620 0 0 0
2017/11/07 19:40:00 BASE 3.43 314 4.06 299 1.2 100 1.2 299 714 1000.3 NA 0.0000 UP 9999 660 0 0 0
2017/11/07 19:41:00 BASE 3.61 311 4.06 299 1.2 100 1.2 302 720 1000.3 NA 0.0000 9999 690 0 0 0
2017/11/07 19:42:00 BASE 3.50 308 4.06 299 1.2 100 1.2 307 731 1000.3 NA 0.0000 9999 690 0 0 0
2017/11/07 19:43:00 BASE 3.34 307 3.96 315 1.2 100 1.2 309 733 1000.2 NA 0.0000 9999 690 0 0 0
2017/11/07 19:44:00 BASE 3.35 307 3.96 315 1.2 100 1.2 308 729 1000.2 NA 0.0000 9999 720 0 0 0
2017/11/07 19:45:00 BASE 3.60 308 3.96 315 1.2 100 1.2 302 713 1000.2 NA 0.0000 9999 720 0 0 0
2017/11/07 19:46:00 BASE 3.82 308 4.12 312 1.2 100 1.2 296 702 1000.2 NA 0.0000 9999 750 1440 0 0
2017/11/07 19:47:00 BASE 3.91 306 4.22 301 1.2 100 1.2 299 710 1000.2 NA 0.0000 9999 750 1440 0 0
2017/11/07 19:48:00 BASE 4.09 305 4.48 305 1.2 100 1.2 298 709 1000.2 NA 0.0000 9999 790 0 0 0
2017/11/07 19:49:00 BASE 4.26 304 4.58 303 1.1 100 1.1 294 704 1000.2 NA 0.0000 9999 790 0 0 0
2017/11/07 19:50:00 BASE 4.25 302 4.58 303 1.1 100 1.1 296 708 1000.2 NA 0.0000 9999 750 0 0 0
2017/11/07 19:51:00 BASE 4.03 302 4.58 303 1.1 100 1.1 299 713 1000.2 NA 0.0000 9999 690 0 0 0
2017/11/07 19:52:00 BASE 3.89 304 4.58 303 1.1 100 1.1 298 708 1000.2 NA 0.0000 9999 660 0 0 0
2017/11/07 19:53:00 BASE 3.91 303 4.58 303 1.1 100 1.1 291 693 1000.2 NA 0.0000 9999 790 0 0 0
2017/11/07 19:54:00 BASE 3.91 300 4.58 303 1.1 100 1.1 279 673 1000.2 NA 0.0000 9999 720 0 0 0
2017/11/07 19:55:00 BASE 3.91 298 4.58 303 1.1 100 1.1 261 639 1000.2 NA 0.0000 9999 660 0 0 0
2017/11/07 19:56:00 BASE 3.83 297 4.58 303 1.0 100 1.0 249 616 1000.2 NA 0.0000 9999 620 0 0 0
2017/11/07 19:57:00 BASE 3.84 297 4.58 303 1.0 100 1.0 244 605 1000.3 NA 0.0000 9999 660 0 0 0
2017/11/07 19:58:00 BASE 3.83 299 4.58 303 1.0 100 1.0 235 585 1000.3 NA 0.0000 9999 660 0 0 0
2017/11/07 19:59:00 BASE 3.86 301 4.68 305 1.0 100 1.0 228 572 1000.2 NA 0.0000 9999 690 19690 0 0
2017/11/07 20:00:00 BASE 4.05 299 4.68 305 1.0 100 1.0 227 572 1000.3 NA 0.0000 9999 720 0 0 0
2017/11/07 20:01:00 BASE 4.23 298 4.68 305 0.9 100 0.9 228 573 1000.3 NA 0.0000 9999 720 0 0 0
2017/11/07 20:02:00 BASE 4.20 300 4.68 305 0.9 100 0.9 232 581 1000.3 NA 0.0000 9999 660 0 0 0
2017/11/07 20:03:00 BASE 4.04 303 4.68 305 0.9 100 0.9 232 580 1000.3 NA 0.0000 9999 660 0 0 0
2017/11/07 20:04:00 BASE 3.86 306 4.68 305 0.9 100 0.9 232 579 1000.3 NA 0.0000 9999 590 0 0 0
2017/11/07 20:05:00 BASE 3.75 307 4.68 305 0.9 100 0.9 233 580 1000.3 NA 0.0000 9999 620 0 0 0
2017/11/07 20:06:00 BASE 3.87 307 4.68 305 0.9 100 0.9 234 581 1000.3 NA 0.0000 9999 660 0 0 0
2017/11/07 20:07:00 BASE 4.14 307 4.68 305 0.9 100 0.9 241 596 1000.3 NA 0.0000 9999 690 0 0 0
2017/11/07 20:08:00 BASE 4.24 309 4.68 305 0.9 100 0.9 251 614 1000.3 NA 0.0000 9999 690 22250 0 0
2017/11/07 20:09:00 BASE 4.27 310 4.58 307 0.9 100 0.9 259 628 1000.2 NA 0.0000 9999 690 0 0 0
2017/11/07 20:10:00 BASE 4.19 311 4.58 307 0.9 100 0.9 259 628 1000.2 NA 0.0000 9999 720 0 0 0
2017/11/07 20:11:00 BASE 4.24 313 4.78 308 0.9 100 0.9 259 628 1000.2 NA 0.0000 9999 720 0 0 0
2017/11/07 20:12:00 BASE 4.52 313 4.84 307 0.9 100 0.9 267 645 1000.2 NA 0.0000 9999 720 0 0 0
2017/11/07 20:13:00 BASE 4.67 314 5.25 315 1.0 100 1.0 278 665 1000.2 NA 0.0000 9999 690 0 0 0
2017/11/07 20:14:00 BASE 4.70 314 5.25 315 1.0 100 1.0 284 675 1000.2 NA 0.0000 9999 690 0 0 0
2017/11/07 20:15:00 BASE 4.66 315 5.25 315 1.0 100 1.0 284 672 1000.2 NA 0.0000 9999 720 0 0 0
2017/11/07 20:16:00 BASE 4.49 317 5.25 315 1.1 100 1.1 278 659 1000.2 NA 0.0000 9999 750 0 0 0
2017/11/07 20:17:00 BASE 4.25 319 5.25 315 1.1 100 1.1 261 626 1000.2 NA 0.0000 9999 790 0 0 0
2017/11/07 20:18:00 BASE 4.13 319 5.25 315 1.1 100 1.1 257 620 1000.2 NA 0.0000 9999 790 0 0 0
2017/11/07 20:19:00 BASE 4.29 320 5.25 315 1.1 100 1.1 270 642 1000.2 NA 0.0000 9999 820 0 0 0
2017/11/07 20:20:00 BASE 4.54 321 5.25 315 1.1 100 1.1 275 646 1000.2 NA 0.0000 9999 850 0 0 0
2017/11/07 20:21:00 BASE 4.65 323 5.25 315 1.2 100 1.2 266 625 1000.1 NA 0.0000 9999 850 0 0 0
2017/11/07 20:22:00 BASE 4.59 323 5.25 315 1.2 100 1.2 253 600 1000.2 NA 0.0000 9999 850 4950 0 0
2017/11/07 20:23:00 BASE 4.37 323 5.04 308 1.2 100 1.2 248 590 1000.2 NA 0.0000 9999 850 4920 0 0
2017/11/07 20:24:00 BASE 4.31 320 5.04 308 1.2 100 1.2 242 577 1000.2 NA 0.0000 9999 850 0 0 0
2017/11/07 20:25:00 BASE 4.45 319 4.99 325 1.1 100 1.1 232 559 1000.2 NA 0.0000 9999 850 5020 0 0
2017/11/07 20:26:00 BASE 4.61 319 5.04 314 1.1 100 1.1 227 550 1000.2 NA 0.0000 9999 850 0 0 0
2017/11/07 20:27:00 BASE 4.72 317 5.40 314 1.1 100 1.1 231 561 1000.2 NA 0.0000 9999 790 0 0 0
2017/11/07 20:28:00 BASE 4.97 314 5.50 316 1.1 100 1.1 238 574 1000.1 NA 0.0000 9999 750 0 0 0
2017/11/07 20:29:00 BASE 5.24 312 5.92 308 1.1 100 1.1 243 584 1000.1 NA 0.0000 9999 720 0 0 0
2017/11/07 20:30:00 BASE 5.38 309 5.92 308 1.2 100 1.2 244 584 1000.1 NA 0.0000 9999 690 0 0 0
2017/11/07 20:31:00 BASE 5.25 308 5.92 308 1.2 100 1.2 246 587 1000.1 NA 0.0000 9999 690 4990 0 0
2017/11/07 20:32:00 BASE 5.33 309 5.92 307 1.2 100 1.2 247 591 1000.1 NA 0.0000 9999 720 4950 0 0
2017/11/07 20:33:00 BASE 5.50 310 5.92 307 1.2 100 1.2 249 596 1000.1 NA 0.0000 9999 750 4820 0 0
2017/11/07 20:34:00 BASE 5.19 315 5.92 307 1.2 100 1.2 256 609 1000.1 NA 0.0000 9999 750 0 0 0
2017/11/07 20:35:00 BASE 4.90 319 5.92 307 1.2 100 1.2 268 635 1000.1 NA 0.0000 9999 750 0 0 0
2017/11/07 20:36:00 BASE 4.69 323 5.92 307 1.2 100 1.2 287 673 1000.1 NA 0.0000 9999 790 4230 0 0
2017/11/07 20:37:00 BASE 4.61 325 5.92 307 1.2 100 1.2 310 718 1000.1 NA 0.0000 9999 820 4170 0 0
2017/11/07 20:38:00 BASE 4.69 327 5.92 307 1.2 100 1.2 332 759 1000.1 NA 0.0000 9999 820 4230 0 0
2017/11/07 20:39:00 BASE 4.76 329 5.92 307 1.2 100 1.2 345 782 1000.0 NA 0.0000 9999 850 4170 0 0
2017/11/07 20:40:00 BASE 4.76 331 5.92 307 1.2 100 1.2 379 850 1000.0 NA 0.0000 9999 4460 0 0 0
2017/11/07 20:41:00 BASE 4.46 331 5.92 307 1.2 100 1.2 389 864 1000.0 NA 0.0000 9999 4950 0 0 0
2017/11/07 20:42:00 BASE 4.25 327 5.71 312 1.2 100 1.2 386 855 1000.1 NA 0.0000 9999 4690 0 0 0
2017/11/07 20:43:00 BASE 4.46 323 5.20 319 1.2 100 1.2 333 751 1000.1 NA 0.0000 9999 890 4860 0 0
2017/11/07 20:44:00 BASE 4.64 320 5.14 328 1.2 100 1.2 318 721 1000.1 NA 0.0000 9999 850 5050 0 0
2017/11/07 20:45:00 BASE 4.56 317 5.14 328 1.2 100 1.2 313 709 1000.1 NA 0.0000 9999 850 5020 0 0
2017/11/07 20:46:00 BASE 4.32 313 5.14 328 1.2 100 1.2 322 733 1000.1 NA 0.0000 9999 890 4990 0 0
2017/11/07 20:47:00 BASE 4.25 307 5.14 328 1.3 100 1.3 325 738 1000.2 NA 0.0000 9999 850 5020 0 0
2017/11/07 20:48:00 BASE 4.40 300 5.14 328 1.3 100 1.3 331 752 1000.2 NA 0.0000 9999 820 5020 0 0
2017/11/07 20:49:00 BASE 4.58 294 5.04 292 1.3 100 1.3 332 755 1000.2 NA 0.0000 9999 820 0 0 0
2017/11/07 20:50:00 BASE 4.83 291 5.25 292 1.2 100 1.2 315 721 1000.2 NA 0.0000 9999 790 0 0 0
2017/11/07 20:51:00 BASE 5.11 292 5.45 294 1.2 100 1.2 282 656 1000.2 NA 0.0000 9999 750 0 0 0
2017/11/07 20:52:00 BASE 5.36 293 5.61 294 1.2 100 1.2 266 628 1000.2 NA 0.0000 9999 660 0 0 0
2017/11/07 20:53:00 BASE 5.49 296 5.66 298 1.1 100 1.1 262 617 1000.2 NA 0.0000 9999 520 0 0 0
2017/11/07 20:54:00 BASE 5.47 299 5.66 298 1.0 100 1.0 237 564 1000.2 NA 0.0000 9999 520 0 0 0
2017/11/07 20:55:00 BASE 5.33 301 5.71 303 1.0 100 1.0 193 475 1000.2 NA 0.0000 9999 560 0 0 0
2017/11/07 20:56:00 BASE 5.11 302 5.71 303 1.0 100 1.0 174 438 1000.2 NA 0.0000 9999 590 0 0 0
2017/11/07 20:57:00 BASE 4.85 300 5.71 303 0.9 100 0.9 184 457 1000.3 NA 0.0000 9999 590 0 0 0
2017/11/07 20:58:00 BASE 4.58 301 5.71 303 0.9 100 0.9 201 490 1000.3 NA 0.0000 9999 590 0 0 0
2017/11/07 20:59:00 BASE 4.46 302 5.71 303 1.0 100 1.0 219 527 1000.3 NA 0.0000 9999 620 0 0 0
2017/11/07 21:00:00 BASE 4.31 302 5.71 303 1.0 100 1.0 234 557 1000.3 NA 0.0000 9999 660 0 0 0
2017/11/07 21:01:00 BASE 4.00 303 5.71 303 1.0 100 1.0 229 543 1000.3 NA 0.0000 9999 690 0 0 0
2017/11/07 21:02:00 BASE 3.86 304 5.71 303 1.0 100 1.0 203 490 1000.3 NA 0.0000 9999 720 0 0 0
2017/11/07 21:03:00 BASE 3.98 305 5.71 303 1.0 100 1.0 182 447 1000.3 NA 0.0000 9999 690 0 0 0
2017/11/07 21:04:00 BASE 3.83 305 5.71 303 1.0 100 1.0 169 420 1000.3 NA 0.0000 9999 690 0 0 0
2017/11/07 21:05:00 BASE 3.71 310 5.56 302 1.0 100 1.0 156 393 1000.3 NA 0.0000 9999 720 0 0 0
2017/11/07 21:06:00 BASE 3.78 316 5.30 302 1.0 100 1.0 143 364 1000.3 NA 0.0000 9999 720 22610 0 0
2017/11/07 21:07:00 BASE 3.66 320 4.78 308 1.0 100 1.0 134 345 1000.3 NA 0.0000 9999 720 0 0 0
2017/11/07 21:08:00 BASE 3.71 319 4.73 300 1.1 100 1.1 130 336 1000.3 NA 0.0000 9999 690 0 0 0
2017/11/07 21:09:00 BASE 3.93 317 4.37 304 1.1 100 1.1 132 344 1000.3 NA 0.0000 9999 690 0 0 0
2017/11/07 21:10:00 BASE 3.94 318 4.32 311 1.1 100 1.1 143 367 1000.3 NA 0.0000 9999 690 0 0 0
2017/11/07 21:11:00 BASE 3.94 319 4.32 311 1.1 100 1.1 154 390 1000.3 NA 0.0000 9999 690 0 0 0
2017/11/07 21:12:00 BASE 4.06 318 4.32 311 1.1 100 1.1 160 401 1000.4 NA 0.0000 9999 690 0 0 0
2017/11/07 21:13:00 BASE 4.12 316 4.68 314 1.1 100 1.1 159 400 1000.4 NA 0.0000 9999 690 0 0 0
2017/11/07 21:14:00 BASE 4.57 312 5.61 307 1.1 100 1.1 158 399 1000.4 NA 0.0000 9999 660 20670 0 0
2017/11/07 21:15:00 BASE 4.94 311 5.61 307 1.1 100 1.1 161 404 1000.4 NA 0.0000 9999 660 0 0 0
2017/11/07 21:16:00 BASE 4.76 314 5.61 307 1.1 100 1.1 164 409 1000.4 NA 0.0000 9999 660 0 0 0
2017/11/07 21:17:00 BASE 4.68 316 5.61 307 1.1 100 1.1 165 410 1000.3 NA 0.0000 9999 690 0 0 0
2017/11/07 21:18:00 BASE 4.69 313 5.61 307 1.2 100 1.2 164 407 1000.3 NA 0.0000 9999 690 0 0 0
2017/11/07 21:19:00 BASE 4.49 312 5.61 307 1.2 100 1.2 159 395 1000.3 NA 0.0000 9999 690 0 0 0
2017/11/07 21:20:00 BASE 4.34 315 5.61 307 1.2 100 1.2 153 384 1000.4 NA 0.0000 9999 690 0 0 0
2017/11/07 21:21:00 BASE 4.26 315 5.61 307 1.2 100 1.2 150 377 1000.4 NA 0.0000 9999 750 0 0 0
2017/11/07 21:22:00 BASE 4.19 315 5.61 307 1.2 100 1.2 147 373 1000.4 NA 0.0000 9999 720 0 0 0
2017/11/07 21:23:00 BASE 4.06 317 5.61 307 1.2 100 1.2 148 376 1000.4 NA 0.0000 9999 720 0 0 0
2017/11/07 21:24:00 BASE 3.99 317 5.45 311 1.2 100 1.2 154 387 1000.4 NA 0.0000 9999 750 0 0 0
2017/11/07 21:25:00 BASE 4.02 316 5.45 311 1.2 100 1.2 158 396 1000.4 NA 0.0000 9999 720 0 0 0
2017/11/07 21:26:00 BASE 3.96 316 5.45 311 1.2 100 1.2 160 399 1000.4 NA 0.0000 9999 690 0 0 0
2017/11/07 21:27:00 BASE 3.85 317 5.04 311 1.3 100 1.3 162 403 1000.4 NA 0.0000 9999 690 0 0 0
2017/11/07 21:28:00 BASE 3.58 318 4.78 312 1.3 100 1.3 164 405 1000.4 NA 0.0000 9999 690 0 0 0
2017/11/07 21:29:00 BASE 3.49 320 4.78 312 1.3 100 1.3 163 403 1000.4 NA 0.0000 9999 690 0 0 0
2017/11/07 21:30:00 BASE 3.56 324 4.63 313 1.3 100 1.3 162 401 1000.4 NA 0.0000 9999 660 0 0 0
2017/11/07 21:31:00 BASE 3.64 327 4.48 317 1.3 100 1.3 161 398 1000.4 NA 0.0000 9999 660 0 0 0
2017/11/07 21:32:00 BASE 3.69 330 4.42 314 1.2 100 1.2 156 387 1000.4 NA 0.0000 9999 660 2490 0 0
2017/11/07 21:33:00 BASE 3.62 330 4.42 314 1.2 100 1.2 154 383 1000.5 NA 0.0000 9999 660 2430 0 0
2017/11/07 21:34:00 BASE 3.48 328 4.12 314 1.2 100 1.2 155 384 1000.5 NA 0.0000 9999 660 0 0 0
2017/11/07 21:35:00 BASE 3.36 325 4.06 319 1.2 100 1.2 157 387 1000.5 NA 0.0000 9999 660 0 0 0
2017/11/07 21:36:00 BASE 3.25 323 3.96 333 1.2 100 1.2 163 397 1000.5 NA 0.0000 9999 660 19490 0 0
2017/11/07 21:37:00 BASE 3.19 323 3.96 333 1.2 100 1.2 160 387 1000.5 NA 0.0000 9999 620 0 0 0
2017/11/07 21:38:00 BASE 3.20 322 3.96 333 1.2 100 1.2 150 365 1000.5 NA 0.0000 9999 620 0 0 0
2017/11/07 21:39:00 BASE 3.30 322 3.96 333 1.1 100 1.1 143 350 1000.5 NA 0.0000 9999 660 0 0 0
2017/11/07 21:40:00 BASE 3.30 323 3.96 333 1.1 100 1.1 144 349 1000.5 NA 0.0000 9999 620 2130 0 0
2017/11/07 21:41:00 BASE 3.21 325 3.96 333 1.1 100 1.1 146 352 1000.5 NA 0.0000 9999 720 2260 0 0
2017/11/07 21:42:00 BASE 3.18 327 3.81 325 1.1 100 1.1 144 346 1000.5 NA 0.0000 9999 690 2990 0 0
2017/11/07 21:43:00 BASE 3.25 328 3.65 324 1.1 100 1.1 143 345 1000.5 NA 0.0000 9999 690 3810 0 0
2017/11/07 21:44:00 BASE 3.20 326 3.55 328 1.1 100 1.1 145 348 1000.5 NA 0.0000 9999 690 0 0 0
2017/11/07 21:45:00 BASE 3.01 324 3.55 328 1.1 100 1.1 143 344 1000.5 NA 0.0000 9999 660 0 0 0
2017/11/07 21:46:00 BASE 2.95 320 3.55 328 1.1 100 1.1 136 328 1000.5 NA 0.0000 9999 620 3840 0 0
2017/11/07 21:47:00 BASE 2.99 316 3.55 328 1.2 100 1.2 125 305 1000.6 NA 0.0000 9999 4820 0 0 0
2017/11/07 21:48:00 BASE 3.11 314 3.55 328 1.2 100 1.2 116 289 1000.7 NA 0.0000 9999 980 0 0 0
2017/11/07 21:49:00 BASE 3.22 312 3.55 311 1.2 100 1.2 115 288 1000.7 NA 0.0000 9999 620 3810 0 0
2017/11/07 21:50:00 BASE 3.31 311 3.55 310 1.2 100 1.2 115 288 1000.7 NA 0.0000 9999 620 0 0 0
2017/11/07 21:51:00 BASE 3.39 309 3.55 310 1.3 100 1.3 111 279 1000.7 NA 0.0000 9999 620 0 0 0
2017/11/07 21:52:00 BASE 3.35 307 3.55 306 1.3 100 1.3 105 268 1000.7 NA 0.0000 9999 660 0 0 0
2017/11/07 21:53:00 BASE 3.21 303 3.55 306 1.3 100 1.3 103 263 1000.7 NA 0.0000 9999 660 0 0 0
2017/11/07 21:54:00 BASE 3.14 298 3.55 306 1.3 100 1.3 102 262 1000.8 NA 0.0000 9999 660 0 0 0
2017/11/07 21:55:00 BASE 3.24 297 3.55 306 1.3 100 1.3 101 260 1000.8 NA 0.0000 9999 660 0 0 0
2017/11/07 21:56:00 BASE 3.18 295 3.55 306 1.3 100 1.3 102 260 1000.8 NA 0.0000 9999 690 0 0 0
2017/11/07 21:57:00 BASE 3.01 294 3.55 306 1.2 100 1.2 101 258 1000.8 NA 0.0000 9999 660 0 0 0
2017/11/07 21:58:00 BASE 3.13 296 3.55 306 1.2 100 1.2 99 254 1000.8 NA 0.0000 9999 690 0 0 0
2017/11/07 21:59:00 BASE 3.29 299 3.55 306 1.2 100 1.2 97 251 1000.8 NA 0.0000 9999 690 0 0 0
2017/11/07 22:00:00 BASE 3.30 302 3.55 306 1.2 100 1.2 97 250 1000.8 NA 0.0000 9999 660 0 0 0
2017/11/07 22:01:00 BASE 3.23 304 3.55 306 1.2 100 1.2 100 254 1000.8 NA 0.0000 9999 720 0 0 0
2017/11/07 22:02:00 BASE 3.07 309 3.45 305 1.1 100 1.1 100 253 1000.8 NA 0.0000 9999 660 0 0 0
2017/11/07 22:03:00 BASE 2.98 313 3.45 305 1.1 100 1.1 96 245 1000.8 NA 0.0000 9999 690 20410 0 0
2017/11/07 22:04:00 BASE 2.92 312 3.45 305 1.1 100 1.1 93 238 1000.8 NA 0.0000 9999 720 0 0 0
2017/11/07 22:05:00 BASE 2.84 312 3.45 305 1.1 100 1.1 92 236 1000.8 NA 0.0000 9999 590 0 0 0
2017/11/07 22:06:00 BASE 2.80 321 3.45 305 1.1 100 1.1 95 239 1000.7 NA 0.0000 9999 660 0 0 0
2017/11/07 22:07:00 BASE 2.80 330 3.45 305 1.1 100 1.1 96 239 1000.7 NA 0.0000 9999 620 0 0 0
2017/11/07 22:08:00 BASE 2.65 335 3.45 305 1.1 100 1.1 94 233 1000.7 NA 0.0000 9000 620 0 0 0
2017/11/07 22:09:00 BASE 2.54 334 3.45 305 1.1 100 1.1 90 226 1000.8 NA 0.0000 UP 9999 660 0 0 0
2017/11/07 22:10:00 BASE 2.60 332 3.34 301 1.1 100 1.1 89 224 1000.8 NA 0.0000 UP 9999 430 0 0 0
2017/11/07 22:11:00 BASE 2.57 329 3.09 322 1.0 100 1.0 92 228 1000.8 NA 0.0000 UP 9999 390 0 0 0
2017/11/07 22:12:00 BASE 2.55 329 3.09 322 1.1 100 1.1 97 236 1000.8 NA 0.0000 UP 9999 620 0 0 0
2017/11/07 22:13:00 BASE 2.50 329 3.09 322 1.1 100 1.1 101 243 1000.8 NA 0.0000 UP 9999 720 0 0 0
2017/11/07 22:14:00 BASE 2.40 328 3.09 322 1.2 100 1.2 104 248 1000.8 NA 0.0000 UP 9999 720 0 0 0
2017/11/07 22:15:00 BASE 2.27 327 3.04 329 1.2 100 1.2 104 248 1000.7 NA 0.0000 UP 9999 720 3610 0 0
2017/11/07 22:16:00 BASE 2.08 328 2.98 334 1.3 100 1.3 103 246 1000.7 NA 0.0000 UP 9999 3640 0 0 0
2017/11/07 22:17:00 BASE 2.01 329 2.78 329 1.3 100 1.3 104 247 1000.7 NA 0.0000 UP 9999 4760 0 0 0
2017/11/07 22:18:00 BASE 2.01 329 2.78 329 1.3 100 1.3 103 243 1000.7 NA 0.0000 UP 9999 3380 0 0 0
2017/11/07 22:19:00 BASE 1.99 329 2.78 329 1.3 100 1.3 99 236 1000.7 NA 0.0000 UP 9999 3450 0 0 0
2017/11/07 22:20:00 BASE 1.94 323 2.78 329 1.3 100 1.3 98 235 1000.7 NA 0.0000 UP 9999 720 3770 0 0
2017/11/07 22:21:00 BASE 1.99 312 2.78 329 1.4 100 1.4 102 242 1000.7 NA 0.0000 UP 9999 720 4630 0 0
2017/11/07 22:22:00 BASE 2.13 302 2.57 330 1.4 100 1.4 106 251 1000.8 NA 0.0000 9999 720 4560 0 0
2017/11/07 22:23:00 BASE 2.20 293 2.52 327 1.3 100 1.3 111 258 1000.8 NA 0.0000 9999 690 0 0 0
2017/11/07 22:24:00 BASE 2.05 279 2.31 288 1.3 100 1.3 113 263 1000.8 NA 0.0000 9999 690 0 0 0
2017/11/07 22:25:00 BASE 2.04 268 2.37 267 1.3 100 1.3 114 264 1000.8 NA 0.0000 9999 720 4560 0 0
2017/11/07 22:26:00 BASE 2.29 269 2.47 272 1.2 100 1.2 116 267 1000.8 NA 0.0000 9999 690 4660 0 0
2017/11/07 22:27:00 BASE 2.41 273 2.52 276 1.3 100 1.3 118 270 1000.8 NA 0.0000 9999 720 4170 0 0
2017/11/07 22:28:00 BASE 2.42 276 2.52 276 1.3 100 1.3 119 270 1000.8 NA 0.0000 9999 660 4490 0 0
2017/11/07 22:29:00 BASE 2.37 277 2.52 276 1.3 100 1.3 118 268 1000.8 NA 0.0000 9999 690 4630 0 0
2017/11/07 22:30:00 BASE 2.36 278 2.52 276 1.4 100 1.4 117 264 1000.8 NA 0.0000 9999 690 4720 0 0
2017/11/07 22:31:00 BASE 2.45 279 2.62 280 1.4 100 1.4 114 257 1000.8 NA 0.0000 9999 690 4660 0 0
2017/11/07 22:32:00 BASE 2.58 279 2.78 280 1.3 100 1.3 108 247 1000.8 NA 0.0000 9999 690 4660 0 0
2017/11/07 22:33:00 BASE 2.59 279 2.78 280 1.3 100 1.3 103 237 1000.9 NA 0.0000 9999 750 4720 0 0
2017/11/07 22:34:00 BASE 2.43 278 2.78 280 1.3 100 1.3 98 227 1000.9 NA 0.0000 9999 690 4760 0 0
2017/11/07 22:35:00 BASE 2.37 278 2.78 280 1.3 100 1.3 93 218 1000.9 NA 0.0000 9999 690 0 0 0
2017/11/07 22:36:00 BASE 2.44 276 2.78 280 1.3 100 1.3 91 213 1000.9 NA 0.0000 9999 720 0 0 0
2017/11/07 22:37:00 BASE 2.52 273 2.78 280 1.3 100 1.3 89 209 1000.9 NA 0.0000 9999 690 0 0 0
2017/11/07 22:38:00 BASE 2.61 272 2.78 271 1.3 100 1.3 87 205 1000.9 NA 0.0000 9999 690 0 0 0
2017/11/07 22:39:00 BASE 2.76 271 2.93 271 1.3 100 1.3 84 199 1000.9 NA 0.0000 9999 690 0 0 0
2017/11/07 22:40:00 BASE 2.92 271 3.09 271 1.3 100 1.3 80 191 1000.9 NA 0.0000 9999 690 0 0 0
2017/11/07 22:41:00 BASE 2.98 270 3.19 270 1.3 100 1.3 75 182 1000.9 NA 0.0000 9999 690 0 0 0
2017/11/07 22:42:00 BASE 2.88 272 3.19 270 1.3 100 1.3 71 175 1000.9 NA 0.0000 9999 690 0 0 0
2017/11/07 22:43:00 BASE 2.83 274 3.19 270 1.3 100 1.3 68 168 1000.9 NA 0.0000 9999 660 0 0 0
2017/11/07 22:44:00 BASE 2.94 275 3.19 270 1.3 100 1.3 65 162 1000.9 NA 0.0000 9999 660 0 0 0
2017/11/07 22:45:00 BASE 3.06 276 3.24 273 1.2 100 1.2 63 159 1000.9 NA 0.0000 9999 620 0 0 0
2017/11/07 22:46:00 BASE 2.99 275 3.24 273 1.2 100 1.2 62 156 1000.9 NA 0.0000 9999 660 0 0 0
2017/11/07 22:47:00 BASE 2.80 275 3.24 273 1.2 100 1.2 61 153 1000.9 NA 0.0000 9999 660 0 0 0
2017/11/07 22:48:00 BASE 2.76 274 3.24 278 1.1 100 1.1 58 148 1000.9 NA 0.0000 9999 660 0 0 0
2017/11/07 22:49:00 BASE 2.68 270 3.24 278 1.1 100 1.1 55 142 1001.0 NA 0.0000 9999 660 0 0 0
2017/11/07 22:50:00 BASE 2.69 270 3.24 278 1.1 100 1.1 54 138 1001.0 NA 0.0000 9999 660 0 0 0
2017/11/07 22:51:00 BASE 2.97 271 3.24 272 1.1 100 1.1 53 136 1001.0 NA 0.0000 9999 660 0 0 0
2017/11/07 22:52:00 BASE 3.23 271 3.60 272 1.0 100 1.0 53 136 1001.0 NA 0.0000 9999 620 0 0 0
2017/11/07 22:53:00 BASE 3.33 271 3.60 272 1.0 100 1.0 53 134 1001.0 NA 0.0000 9999 660 0 0 0
2017/11/07 22:54:00 BASE 3.32 271 3.60 272 0.9 100 0.9 51 131 1001.0 NA 0.0000 9999 620 0 0 0
2017/11/07 22:55:00 BASE 3.36 271 3.65 273 0.9 100 0.9 49 126 1001.1 NA 0.0000 9999 660 0 0 0
2017/11/07 22:56:00 BASE 3.23 271 3.65 273 0.9 100 0.9 47 123 1001.1 NA 0.0000 9999 690 0 0 0
2017/11/07 22:57:00 BASE 2.99 272 3.65 273 0.9 100 0.9 47 121 1001.1 NA 0.0000 9999 690 0 0 0
2017/11/07 22:58:00 BASE 2.79 276 3.65 273 0.8 100 0.8 46 119 1001.1 NA 0.0000 9999 660 0 0 0
2017/11/07 22:59:00 BASE 2.52 281 3.65 273 0.8 100 0.8 45 117 1001.1 NA 0.0000 9999 660 0 0 0
2017/11/07 23:00:00 BASE 2.02 288 3.65 273 0.8 100 0.8 44 114 1001.1 NA 0.0000 9999 620 0 0 0
2017/11/07 23:01:00 BASE 1.35 302 3.65 273 0.8 100 0.8 42 111 1001.1 NA 0.0000 9999 620 0 0 0
2017/11/07 23:02:00 BASE 0.78 326 3.65 273 0.7 100 0.7 41 108 1001.1 NA 0.0000 9999 660 0 0 0
2017/11/07 23:03:00 BASE 0.68 340 3.65 273 0.7 100 0.7 40 106 1001.1 NA 0.0000 9999 660 0 0 0
2017/11/07 23:04:00 BASE 1.03 334 3.65 273 0.7 100 0.7 40 106 1001.1 NA 0.0000 9999 660 0 0 0
2017/11/07 23:05:00 BASE 1.27 327 3.29 269 0.6 100 0.6 40 105 1001.1 NA 0.0000 9999 620 0 0 0
2017/11/07 23:06:00 BASE 1.34 319 3.09 272 0.6 100 0.6 40 104 1001.1 NA 0.0000 9999 620 0 0 0
2017/11/07 23:07:00 BASE 1.44 312 2.88 274 0.6 100 0.6 39 102 1001.1 NA 0.0000 9999 620 0 0 0
2017/11/07 23:08:00 BASE 1.54 308 2.57 283 0.5 100 0.5 39 101 1001.0 NA 0.0000 9999 620 0 0 0
2017/11/07 23:09:00 BASE 1.59 309 2.11 288 0.5 100 0.5 39 101 1001.0 NA 0.0000 9999 620 0 0 0
2017/11/07 23:10:00 BASE 1.67 310 1.95 310 0.6 100 0.6 40 102 1001.0 NA 0.0000 9999 620 0 0 0
2017/11/07 23:11:00 BASE 1.75 314 1.95 310 0.6 100 0.6 40 101 1001.0 NA 0.0000 9999 620 0 0 0
2017/11/07 23:12:00 BASE 1.79 320 1.95 310 0.6 100 0.6 39 99 1001.0 NA 0.0000 9999 620 0 0 0
2017/11/07 23:13:00 BASE 1.74 323 1.95 310 0.6 100 0.6 39 98 1001.0 NA 0.0000 9999 620 0 0 0
2017/11/07 23:14:00 BASE 1.68 326 1.95 310 0.6 100 0.6 39 98 1001.0 NA 0.0000 9999 620 4400 0 0
2017/11/07 23:15:00 BASE 1.68 332 1.95 310 0.6 100 0.6 39 97 1001.0 NA 0.0000 9999 620 4400 0 0
2017/11/07 23:16:00 BASE 1.70 334 1.95 310 0.6 100 0.6 38 96 1001.0 NA 0.0000 9999 620 4360 0 0
2017/11/07 23:17:00 BASE 1.68 333 1.95 310 0.6 100 0.6 38 95 1001.0 NA 0.0000 9999 620 4360 0 0
2017/11/07 23:18:00 BASE 1.58 339 1.95 310 0.6 100 0.6 37 93 1001.0 NA 0.0000 9999 620 4270 0 0
2017/11/07 23:19:00 BASE 1.53 346 1.95 310 0.6 100 0.6 36 90 1001.0 NA 0.0000 9999 590 4400 0 0
2017/11/07 23:20:00 BASE 1.58 347 1.90 318 0.6 100 0.6 35 88 1001.0 NA 0.0000 9999 590 4400 0 0
2017/11/07 23:21:00 BASE 1.65 347 1.90 318 0.6 100 0.6 34 86 1001.0 NA 0.0000 9999 620 4400 0 0
2017/11/07 23:22:00 BASE 1.74 346 2.06 344 0.6 100 0.6 33 84 1001.0 NA 0.0000 9999 620 4330 0 0
2017/11/07 23:23:00 BASE 1.81 342 2.06 344 0.6 100 0.6 33 83 1001.0 NA 0.0000 9999 590 4330 0 0
2017/11/07 23:24:00 BASE 1.80 340 2.06 344 0.7 100 0.7 33 82 1001.0 NA 0.0000 9999 4360 0 0 0
2017/11/07 23:25:00 BASE 1.79 337 2.06 344 0.7 100 0.7 33 82 1001.0 NA 0.0000 9999 4330 0 0 0
2017/11/07 23:26:00 BASE 1.75 336 2.06 344 0.7 100 0.7 33 81 1001.0 NA 0.0000 9999 4300 0 0 0
2017/11/07 23:27:00 BASE 1.73 337 2.06 344 0.7 100 0.7 32 80 1001.0 NA 0.0000 9999 4330 0 0 0
2017/11/07 23:28:00 BASE 1.79 336 2.06 344 0.7 100 0.7 33 80 1001.0 NA 0.0000 9999 4200 0 0 0
2017/11/07 23:29:00 BASE 1.74 332 2.06 344 0.7 100 0.7 33 80 1000.9 NA 0.0000 9999 4300 0 0 0
2017/11/07 23:30:00 BASE 1.67 330 2.06 344 0.8 100 0.8 32 78 1000.9 NA 0.0000 9999 4230 0 0 0
2017/11/07 23:31:00 BASE 1.70 326 2.06 344 0.8 100 0.8 31 76 1000.9 NA 0.0000 9999 4330 0 0 0
2017/11/07 23:32:00 BASE 1.82 318 2.01 310 0.8 100 0.8 30 74 1000.9 NA 0.0000 9999 4300 0 0 0
2017/11/07 23:33:00 BASE 1.97 311 2.11 305 0.8 100 0.8 29 72 1000.9 NA 0.0000 9999 4300 0 0 0
2017/11/07 23:34:00 BASE 2.05 304 2.11 298 0.8 100 0.8 28 70 1000.9 NA 0.0000 9999 4300 0 0 0
2017/11/07 23:35:00 BASE 2.17 297 2.42 295 0.8 100 0.8 27 68 1001.0 NA 0.0000 9999 4330 0 0 0
2017/11/07 23:36:00 BASE 2.26 292 2.42 295 0.7 100 0.7 27 67 1001.0 NA 0.0000 9999 4270 0 0 0
2017/11/07 23:37:00 BASE 2.26 284 2.42 276 0.7 100 0.7 26 65 1001.0 NA 0.0000 9999 4230 0 0 0
2017/11/07 23:38:00 BASE 2.31 277 2.42 273 0.7 100 0.7 25 63 1001.0 NA 0.0000 9999 4360 0 0 0
2017/11/07 23:39:00 BASE 2.39 277 2.52 274 0.7 100 0.7 24 61 1001.0 NA 0.0000 9999 4200 0 0 0
2017/11/07 23:40:00 BASE 2.44 286 2.52 291 0.7 100 0.7 24 60 1001.0 NA 0.0000 9999 4300 0 0 0
2017/11/07 23:41:00 BASE 2.48 292 2.57 293 0.7 100 0.7 24 59 1001.0 NA 0.0000 9999 4270 0 0 0
2017/11/07 23:42:00 BASE 2.50 293 2.57 293 0.7 100 0.7 23 58 1001.0 NA 0.0000 9999 4360 0 0 0
2017/11/07 23:43:00 BASE 2.43 292 2.57 293 0.7 100 0.7 22 56 1001.0 NA 0.0000 9999 4270 0 0 0
2017/11/07 23:44:00 BASE 2.37 293 2.57 293 0.7 100 0.7 21 55 1001.0 NA 0.0000 9999 4200 0 0 0
2017/11/07 23:45:00 BASE 2.33 296 2.57 293 0.6 100 0.6 21 53 1001.0 NA 0.0000 9999 4270 0 0 0
2017/11/07 23:46:00 BASE 2.33 302 2.57 293 0.6 100 0.6 21 53 1001.0 NA 0.0000 9999 4200 0 0 0
2017/11/07 23:47:00 BASE 2.37 306 2.57 293 0.6 100 0.6 21 52 1001.0 NA 0.0000 9999 4170 0 0 0
2017/11/07 23:48:00 BASE 2.43 312 2.57 293 0.6 100 0.6 20 52 1001.0 NA 0.0000 9999 4100 0 0 0
2017/11/07 23:49:00 BASE 2.47 316 2.57 316 0.6 100 0.6 20 50 1001.0 NA 0.0000 9999 4000 0 0 0
2017/11/07 23:50:00 BASE 2.57 317 2.73 320 0.6 100 0.6 19 49 1001.0 NA 0.0000 9999 4200 0 0 0
2017/11/07 23:51:00 BASE 2.69 320 2.78 325 0.5 100 0.5 19 49 1001.0 NA 0.0000 9999 4070 0 0 0
2017/11/07 23:52:00 BASE 2.74 325 2.83 328 0.5 100 0.5 20 49 1001.0 NA 0.0000 9999 4100 0 0 0
2017/11/07 23:53:00 BASE 2.63 329 2.83 328 0.5 100 0.5 19 48 1001.0 NA 0.0000 9999 4130 0 0 0
2017/11/07 23:54:00 BASE 2.38 332 2.83 328 0.5 100 0.5 19 47 1001.0 NA 0.0000 9999 4200 0 0 0
2017/11/07 23:55:00 BASE 2.07 334 2.83 328 0.5 100 0.5 18 46 1001.0 NA 0.0000 9999 4200 0 0 0
2017/11/07 23:56:00 BASE 1.90 332 2.83 328 0.5 100 0.5 18 45 1001.0 NA 0.0000 9999 3940 0 0 0
2017/11/07 23:57:00 BASE 1.79 328 2.83 328 0.5 100 0.5 18 45 1001.0 NA 0.0000 9999 4270 0 0 0
2017/11/07 23:58:00 BASE 1.64 327 2.83 328 0.5 100 0.5 18 44 1001.0 NA 0.0000 9999 4300 0 0 0
2017/11/07 23:59:00 BASE 1.64 327 2.83 328 0.5 100 0.5 17 42 1001.0 NA 0.0000 9999 4270 0 0 0